AF454 / F-GSQH 7700 Squawk Report (22nd of June, 2022)

Aircraft B77W Reg No. F-GSQH Age 17 years old
Model 777 Jet engines 2 First flight 14-01-05
Registered 22-02-05 Rollout 05-12-04 Delivered 18-02-05
Construction No. 32711 Line No. 0501 Series 328(ER)
ADSHEX 394A07 Airline name Air France Owner Aercap Holdings N.V.
Airfield based Paris-Charles de Gaulle~Val-d'Oise~F First tracked N/A

Flight history for F-GSQH

Route Flight No Date Playback
Guarulhos Gov Andre Franco Montoro (GRU) - Charles De Gaulle (CDG) AF457 2022-06-28 05:00:00
Charles De Gaulle (CDG) - Guarulhos Gov Andre Franco Montoro (GRU) AF454 2022-06-27 18:17:00
Narita Intl (NRT) - Charles De Gaulle (CDG) AF275 2022-06-26 21:40:00
Charles De Gaulle (CDG) - Narita Intl (NRT) AF276 2022-06-25 22:13:00
O. R. Tambo International Airport (JNB) - Charles De Gaulle (CDG) AF995 2022-06-25 09:09:00
Charles De Gaulle (CDG) - O. R. Tambo International Airport (JNB) AF990 2022-06-24 17:10:00
Charles De Gaulle (CDG) - Guarulhos Gov Andre Franco Montoro (GRU) AF454 2022-06-23 02:34:00
John F Kennedy Intl (JFK) - Charles De Gaulle (CDG) AF11 2022-06-22 21:42:00
Charles De Gaulle (CDG) - John F Kennedy Intl (JFK) AF10 2022-06-21 22:25:00
???? N/A 2022-06-21 15:06:00
Guarulhos Gov Andre Franco Montoro (GRU) - Charles De Gaulle (CDG) AF459 2022-06-19 13:40:00
Charles De Gaulle (CDG) - Guarulhos Gov Andre Franco Montoro (GRU) AF456 2022-06-18 20:17:00
Licenciado Benito Juarez (MEX) - Charles De Gaulle (CDG) AF179 2022-06-17 14:11:00
Charles De Gaulle (CDG) - Licenciado Benito Juarez (MEX) AF178 2022-06-17 03:48:00
Los Angeles Intl (LAX) - Charles De Gaulle (CDG) AF65 2022-06-16 13:08:00
Charles De Gaulle (CDG) - Los Angeles Intl (LAX) AF66 2022-06-15 22:41:00
John F Kennedy Intl (JFK) - Charles De Gaulle (CDG) AF23 2022-06-15 03:30:00
Charles De Gaulle (CDG) - John F Kennedy Intl (JFK) AF14 2022-06-14 20:38:00
George Bush Intercontinental (IAH) - Charles De Gaulle (CDG) AF639 2022-06-13 08:01:00
Charles De Gaulle (CDG) - George Bush Intercontinental (IAH) AF636 2022-06-12 18:42:00
Time Lat Lon Altitude Heading Speed Vertical Rate
2022-06-22 23:26:23 GMT 49.009232 2.583988 0 84 10 0
2022-06-22 23:26:20 GMT 49.009220 2.583777 0 87 11 0
2022-06-22 23:26:14 GMT 49.009193 2.583341 0 98 9 0
2022-06-22 23:26:11 GMT 49.009186 2.583178 0 106 9 0
2022-06-22 23:26:10 GMT 49.009182 2.583106 0 112 9 0
2022-06-22 23:26:07 GMT 49.009197 2.582949 0 123 9 0
2022-06-22 23:26:06 GMT 49.009209 2.582889 0 129 8 0
2022-06-22 23:26:03 GMT 49.009254 2.582727 0 140 8 0
2022-06-22 23:26:00 GMT 49.009369 2.582527 0 149 8 0
2022-06-22 23:25:58 GMT 49.009369 2.582527 0 157 8 0
2022-06-22 23:25:57 GMT 49.009392 2.582474 0 160 8 0
2022-06-22 23:25:54 GMT 49.009495 2.582403 0 165 8 0
2022-06-22 23:25:53 GMT 49.009521 2.582383 0 168 8 0
2022-06-22 23:25:50 GMT 49.009701 2.582315 0 174 7 0
2022-06-22 23:25:48 GMT 49.009701 2.582315 0 174 7 0
2022-06-22 23:25:47 GMT 49.009731 2.582311 0 174 7 0
2022-06-22 23:25:45 GMT 49.009789 2.582293 0 174 8 0
2022-06-22 23:25:43 GMT 49.009850 2.582280 0 174 8 0
2022-06-22 23:25:41 GMT 49.009953 2.582262 0 174 10 0
2022-06-22 23:25:38 GMT 49.010033 2.582262 0 174 12 0
2022-06-22 23:25:34 GMT 49.010262 2.582227 0 174 15 0
2022-06-22 23:25:32 GMT 49.010456 2.582210 0 174 14 0
2022-06-22 23:25:29 GMT 49.010555 2.582185 0 174 14 0
2022-06-22 23:25:27 GMT 49.010708 2.582167 0 177 14 0
2022-06-22 23:25:25 GMT 49.010788 2.582157 0 177 14 0
2022-06-22 23:25:24 GMT 49.010857 2.582157 0 177 14 0
2022-06-22 23:25:22 GMT 49.010986 2.582149 0 177 15 0
2022-06-22 23:25:20 GMT 49.011166 2.582122 0 177 17 0
2022-06-22 23:25:13 GMT 49.011623 2.582069 0 174 18 0
2022-06-22 23:25:12 GMT 49.011707 2.582058 0 174 18 0
2022-06-22 23:25:03 GMT 49.012424 2.581981 0 174 17 0
2022-06-22 23:25:01 GMT 49.012592 2.581950 0 174 16 0
2022-06-22 23:24:59 GMT 49.012699 2.581932 0 174 16 0
2022-06-22 23:24:57 GMT 49.012875 2.581914 0 174 16 0
2022-06-22 23:24:56 GMT 49.013157 2.581875 0 174 18 0
2022-06-22 23:24:53 GMT 49.013157 2.581875 0 174 18 0
2022-06-22 23:24:52 GMT 49.013214 2.581858 0 177 18 0
2022-06-22 23:24:49 GMT 49.013500 2.581822 0 177 20 0
2022-06-22 23:24:44 GMT 49.014050 2.581770 0 174 19 0
2022-06-22 23:24:41 GMT 49.014370 2.581734 0 174 18 0
2022-06-22 23:24:39 GMT 49.014370 2.581734 0 174 18 0
2022-06-22 23:24:36 GMT 49.014599 2.581699 0 174 17 0
2022-06-22 23:24:34 GMT 49.014942 2.581664 0 174 16 0
2022-06-22 23:24:31 GMT 49.015022 2.581646 0 174 16 0
2022-06-22 23:24:26 GMT 49.015377 2.581611 0 174 17 0
2022-06-22 23:24:25 GMT 49.015491 2.581593 0 174 18 0
2022-06-22 23:24:21 GMT 49.015759 2.581552 0 174 18 0
2022-06-22 23:24:20 GMT 49.015865 2.581552 0 174 18 0
2022-06-22 23:24:18 GMT 49.016037 2.581516 0 174 17 0
2022-06-22 23:24:17 GMT 49.016121 2.581516 0 174 17 0
2022-06-22 23:24:14 GMT 49.016308 2.581498 0 174 16 0
2022-06-22 23:24:12 GMT 49.016445 2.581462 0 174 16 0
2022-06-22 23:24:11 GMT 49.016586 2.581444 0 174 17 0
2022-06-22 23:24:09 GMT 49.016705 2.581435 0 174 19 0
2022-06-22 23:24:08 GMT 49.016785 2.581417 0 174 19 0
2022-06-22 23:24:04 GMT 49.017120 2.581372 0 174 20 0
2022-06-22 23:24:01 GMT 49.017342 2.581353 0 174 20 0
2022-06-22 23:23:59 GMT 49.017517 2.581335 0 177 20 0
2022-06-22 23:23:58 GMT 49.017597 2.581317 0 174 20 0
2022-06-22 23:23:55 GMT 49.017887 2.581299 0 174 19 0
2022-06-22 23:23:52 GMT 49.018272 2.581227 0 171 17 0
2022-06-22 23:23:49 GMT 49.018391 2.581227 0 171 17 0
2022-06-22 23:23:48 GMT 49.018467 2.581206 0 168 17 0
2022-06-22 23:23:46 GMT 49.018608 2.581191 0 168 17 0
2022-06-22 23:23:45 GMT 49.018658 2.581173 0 165 17 0
2022-06-22 23:23:44 GMT 49.018787 2.581136 0 163 17 0
2022-06-22 23:23:43 GMT 49.018856 2.581100 0 163 17 0
2022-06-22 23:23:42 GMT 49.019054 2.581028 0 157 17 0
2022-06-22 23:23:38 GMT 49.019215 2.580938 0 154 17 0
2022-06-22 23:23:36 GMT 49.019379 2.580811 0 149 16 0
2022-06-22 23:23:34 GMT 49.019634 2.580607 0 143 15 0
2022-06-22 23:23:32 GMT 49.019634 2.580607 0 143 15 0
2022-06-22 23:23:27 GMT 49.020100 2.580034 0 132 15 0
2022-06-22 23:23:23 GMT 49.020100 2.580034 0 132 16 0
2022-06-22 23:23:22 GMT 49.020168 2.579944 0 129 16 0
2022-06-22 23:23:20 GMT 49.020264 2.579781 0 126 15 0
2022-06-22 23:23:17 GMT 49.020390 2.579510 0 120 15 0
2022-06-22 23:23:15 GMT 49.020527 2.579217 0 115 15 0
2022-06-22 23:23:13 GMT 49.020527 2.579217 0 115 15 0
2022-06-22 23:23:12 GMT 49.020561 2.579111 0 115 15 0
2022-06-22 23:23:10 GMT 49.020622 2.578932 0 112 15 0
2022-06-22 23:23:08 GMT 49.020729 2.578553 0 106 15 0
2022-06-22 23:23:04 GMT 49.020763 2.578372 0 104 15 0
2022-06-22 23:23:03 GMT 49.020798 2.578227 0 101 15 0
2022-06-22 23:23:02 GMT 49.020844 2.577938 0 98 15 0
2022-06-22 23:23:00 GMT 49.020844 2.577938 0 98 15 0
2022-06-22 23:22:57 GMT 49.020866 2.577703 0 95 15 0
2022-06-22 23:22:55 GMT 49.020889 2.577414 0 90 14 0
2022-06-22 23:22:52 GMT 49.020889 2.577089 0 87 14 0
2022-06-22 23:22:49 GMT 49.020889 2.576944 0 87 14 0
2022-06-22 23:22:47 GMT 49.020882 2.576752 0 84 14 0
2022-06-22 23:22:46 GMT 49.020882 2.576655 0 84 14 0
2022-06-22 23:22:45 GMT 49.020870 2.576382 0 84 14 0
2022-06-22 23:22:42 GMT 49.020859 2.576241 0 84 14 0
2022-06-22 23:22:41 GMT 49.020859 2.576135 0 84 14 0
2022-06-22 23:22:40 GMT 49.020844 2.576041 0 84 14 0
2022-06-22 23:22:39 GMT 49.020844 2.575933 0 84 14 0
2022-06-22 23:22:36 GMT 49.020832 2.575662 0 84 15 0
2022-06-22 23:22:35 GMT 49.020824 2.575572 0 84 15 0
2022-06-22 23:22:33 GMT 49.020809 2.575354 0 84 17 0
2022-06-22 23:22:32 GMT 49.020809 2.575282 0 84 17 0
2022-06-22 23:22:29 GMT 49.020786 2.574885 0 84 19 0
2022-06-22 23:22:28 GMT 49.020763 2.574613 0 84 20 0
2022-06-22 23:22:25 GMT 49.020752 2.574342 0 84 21 0
2022-06-22 23:22:24 GMT 49.020729 2.573909 0 84 20 0
2022-06-22 23:22:22 GMT 49.020729 2.573909 0 84 20 0
2022-06-22 23:22:20 GMT 49.020710 2.573354 0 84 20 0
2022-06-22 23:22:18 GMT 49.020710 2.573354 0 84 20 0
2022-06-22 23:22:17 GMT 49.020687 2.573072 0 84 20 0
2022-06-22 23:22:14 GMT 49.020676 2.572808 0 84 20 0
2022-06-22 23:22:11 GMT 49.020664 2.572438 0 84 19 0
2022-06-22 23:22:10 GMT 49.020645 2.572228 0 84 19 0
2022-06-22 23:22:08 GMT 49.020641 2.571998 0 84 18 0
2022-06-22 23:22:06 GMT 49.020618 2.571716 0 84 18 0
2022-06-22 23:22:04 GMT 49.020607 2.571487 0 84 17 0
2022-06-22 23:22:03 GMT 49.020584 2.571153 0 84 16 0
2022-06-22 23:22:01 GMT 49.020584 2.571153 0 84 16 0
2022-06-22 23:21:58 GMT 49.020573 2.570889 0 84 15 0
2022-06-22 23:21:57 GMT 49.020561 2.570730 0 84 14 0
2022-06-22 23:21:56 GMT 49.020554 2.570602 0 84 14 0
2022-06-22 23:21:54 GMT 49.020542 2.570403 0 84 13 0
2022-06-22 23:21:52 GMT 49.020531 2.570204 0 84 13 0
2022-06-22 23:21:51 GMT 49.020527 2.570132 0 84 14 0
2022-06-22 23:21:49 GMT 49.020515 2.569868 0 84 15 0
2022-06-22 23:21:46 GMT 49.020515 2.569762 0 84 15 0
2022-06-22 23:21:45 GMT 49.020504 2.569656 0 84 15 0
2022-06-22 23:21:42 GMT 49.020496 2.569319 0 84 15 0
2022-06-22 23:21:40 GMT 49.020485 2.569102 0 84 14 0
2022-06-22 23:21:39 GMT 49.020473 2.569030 0 84 14 0
2022-06-22 23:21:38 GMT 49.020458 2.568741 0 84 14 0
2022-06-22 23:21:36 GMT 49.020458 2.568741 0 84 14 0
2022-06-22 23:21:34 GMT 49.020451 2.568560 0 84 14 0
2022-06-22 23:21:33 GMT 49.020451 2.568470 0 84 15 0
2022-06-22 23:21:32 GMT 49.020435 2.568160 0 84 15 0
2022-06-22 23:21:30 GMT 49.020435 2.568160 0 84 15 0
2022-06-22 23:21:29 GMT 49.020424 2.568054 0 84 15 0
2022-06-22 23:21:26 GMT 49.020412 2.567737 0 84 15 0
2022-06-22 23:21:23 GMT 49.020390 2.567440 0 84 15 0
2022-06-22 23:21:21 GMT 49.020378 2.567227 0 84 14 0
2022-06-22 23:21:19 GMT 49.020367 2.567078 0 84 14 0
2022-06-22 23:21:18 GMT 49.020355 2.566844 0 84 14 0
2022-06-22 23:21:16 GMT 49.020355 2.566735 0 84 13 0
2022-06-22 23:21:14 GMT 49.020344 2.566536 0 84 13 0
2022-06-22 23:21:13 GMT 49.020332 2.566434 0 84 13 0
2022-06-22 23:21:11 GMT 49.020332 2.566283 0 84 13 0
2022-06-22 23:21:10 GMT 49.020321 2.566188 0 84 13 0
2022-06-22 23:21:08 GMT 49.020309 2.565924 0 84 12 0
2022-06-22 23:21:06 GMT 49.020309 2.565814 0 84 12 0
2022-06-22 23:21:04 GMT 49.020298 2.565705 0 84 12 0
2022-06-22 23:21:02 GMT 49.020287 2.565536 0 84 12 0
2022-06-22 23:21:01 GMT 49.020275 2.565344 0 84 12 0
2022-06-22 23:20:59 GMT 49.020275 2.565253 0 84 12 0
2022-06-22 23:20:57 GMT 49.020264 2.565079 0 84 12 0
2022-06-22 23:20:56 GMT 49.020264 2.565037 0 84 12 0
2022-06-22 23:20:54 GMT 49.020241 2.564766 0 87 12 0
2022-06-22 23:20:53 GMT 49.020241 2.564766 0 87 12 0
2022-06-22 23:20:51 GMT 49.020229 2.564603 0 87 12 0
2022-06-22 23:20:49 GMT 49.020206 2.564286 0 95 11 0
2022-06-22 23:20:47 GMT 49.020206 2.564286 0 95 11 0
2022-06-22 23:20:44 GMT 49.020195 2.564093 0 106 11 0
2022-06-22 23:20:42 GMT 49.020206 2.563917 0 118 11 0
2022-06-22 23:20:40 GMT 49.020218 2.563793 0 126 11 0
2022-06-22 23:20:39 GMT 49.020241 2.563681 0 135 10 0
2022-06-22 23:20:38 GMT 49.020264 2.563617 0 137 10 0
2022-06-22 23:20:37 GMT 49.020287 2.563565 0 140 10 0
2022-06-22 23:20:35 GMT 49.020355 2.563441 0 149 9 0
2022-06-22 23:20:34 GMT 49.020390 2.563392 0 154 9 0
2022-06-22 23:20:32 GMT 49.020462 2.563320 0 160 8 0
2022-06-22 23:20:29 GMT 49.020561 2.563248 0 168 8 0
2022-06-22 23:20:26 GMT 49.020641 2.563195 0 171 9 0
2022-06-22 23:20:25 GMT 49.020672 2.563193 0 171 10 0
2022-06-22 23:20:24 GMT 49.020729 2.563175 0 174 11 0
2022-06-22 23:20:22 GMT 49.020844 2.563139 0 177 12 0
2022-06-22 23:20:20 GMT 49.020939 2.563139 0 177 12 0
2022-06-22 23:20:15 GMT 49.021179 2.563124 0 177 12 0
2022-06-22 23:20:12 GMT 49.021416 2.563085 0 174 11 0
2022-06-22 23:20:08 GMT 49.021545 2.563072 0 174 11 0
2022-06-22 23:20:04 GMT 49.021706 2.563054 0 174 11 0
2022-06-22 23:20:03 GMT 49.021774 2.563049 0 174 11 0
2022-06-22 23:20:02 GMT 49.021832 2.563054 0 171 12 0
2022-06-22 23:19:59 GMT 49.022018 2.563031 0 163 12 0
2022-06-22 23:19:57 GMT 49.022125 2.562995 0 154 11 0
2022-06-22 23:19:54 GMT 49.022182 2.562995 0 151 10 0
2022-06-22 23:19:51 GMT 49.022415 2.562850 0 137 9 0
2022-06-22 23:19:47 GMT 49.022545 2.562688 0 129 9 0
2022-06-22 23:19:44 GMT 49.022614 2.562561 0 126 10 0
2022-06-22 23:19:41 GMT 49.022659 2.562489 0 126 10 0
2022-06-22 23:19:39 GMT 49.022709 2.562380 0 123 11 0
2022-06-22 23:19:38 GMT 49.022755 2.562290 0 123 11 0
2022-06-22 23:19:36 GMT 49.022800 2.562200 0 123 11 0
2022-06-22 23:19:34 GMT 49.022858 2.562055 0 120 10 0
2022-06-22 23:19:33 GMT 49.022881 2.562001 0 120 10 0
2022-06-22 23:19:31 GMT 49.022930 2.561874 0 118 10 0
2022-06-22 23:19:30 GMT 49.022964 2.561838 0 118 10 0
2022-06-22 23:19:29 GMT 49.022976 2.561786 0 115 9 0
2022-06-22 23:19:27 GMT 49.023022 2.561694 0 112 9 0
2022-06-22 23:19:25 GMT 49.023067 2.561531 0 106 8 0
2022-06-22 23:19:22 GMT 49.023136 2.561311 0 98 8 0
2022-06-22 23:19:20 GMT 49.023148 2.561242 0 98 8 0
2022-06-22 23:19:18 GMT 49.023148 2.561205 0 95 8 0
2022-06-22 23:19:17 GMT 49.023163 2.561115 0 92 8 0
2022-06-22 23:19:14 GMT 49.023182 2.560976 0 90 9 0
2022-06-22 23:19:11 GMT 49.023182 2.560818 0 87 9 0
2022-06-22 23:19:09 GMT 49.023186 2.560700 0 87 10 0
2022-06-22 23:19:08 GMT 49.023170 2.560573 0 84 10 0
2022-06-22 23:19:06 GMT 49.023170 2.560501 0 84 11 0
2022-06-22 23:19:04 GMT 49.023170 2.560343 0 84 11 0
2022-06-22 23:19:03 GMT 49.023159 2.560272 0 84 11 0
2022-06-22 23:19:02 GMT 49.023148 2.560122 0 84 12 0
2022-06-22 23:18:59 GMT 49.023148 2.560031 0 84 12 0
2022-06-22 23:18:58 GMT 49.023148 2.559867 0 84 13 0
2022-06-22 23:18:57 GMT 49.023136 2.559796 0 84 13 0
2022-06-22 23:18:55 GMT 49.023125 2.559616 0 84 13 0
2022-06-22 23:18:53 GMT 49.023113 2.559435 0 84 14 0
2022-06-22 23:18:52 GMT 49.023113 2.559392 0 84 14 0
2022-06-22 23:18:51 GMT 49.023113 2.559290 0 84 14 0
2022-06-22 23:18:49 GMT 49.023090 2.559092 0 87 15 0
2022-06-22 23:18:48 GMT 49.023090 2.558987 0 87 15 0
2022-06-22 23:18:46 GMT 49.023090 2.558803 0 87 15 0
2022-06-22 23:18:45 GMT 49.023079 2.558694 0 84 16 0
2022-06-22 23:18:43 GMT 49.023067 2.558441 0 84 16 0
2022-06-22 23:18:42 GMT 49.023067 2.558333 0 84 16 0
2022-06-22 23:18:40 GMT 49.023056 2.558107 0 84 17 0
2022-06-22 23:18:39 GMT 49.023045 2.558019 0 84 17 0
2022-06-22 23:18:37 GMT 49.023033 2.557791 0 84 18 0
2022-06-22 23:18:36 GMT 49.023033 2.557682 0 84 18 0
2022-06-22 23:18:34 GMT 49.023022 2.557561 0 84 18 0
2022-06-22 23:18:32 GMT 49.023010 2.557249 0 84 19 0
2022-06-22 23:18:31 GMT 49.023010 2.557122 0 84 19 0
2022-06-22 23:18:30 GMT 49.022999 2.556887 0 84 20 0
2022-06-22 23:18:28 GMT 49.022987 2.556743 0 84 20 0
2022-06-22 23:18:27 GMT 49.022976 2.556454 0 84 21 0
2022-06-22 23:18:24 GMT 49.022953 2.556188 0 84 21 0
2022-06-22 23:18:23 GMT 49.022953 2.556011 0 87 22 0
2022-06-22 23:18:21 GMT 49.022942 2.555803 0 87 23 0
2022-06-22 23:18:20 GMT 49.022926 2.555568 0 87 23 0
2022-06-22 23:18:19 GMT 49.022919 2.555430 0 84 23 0
2022-06-22 23:18:17 GMT 49.022907 2.555131 0 84 24 0
2022-06-22 23:18:15 GMT 49.022892 2.554791 0 84 25 0
2022-06-22 23:18:13 GMT 49.022873 2.554462 0 84 26 0
2022-06-22 23:18:11 GMT 49.022850 2.554075 0 84 27 0
2022-06-22 23:18:09 GMT 49.022823 2.553653 0 84 28 0
2022-06-22 23:18:08 GMT 49.022816 2.553564 0 84 28 0
2022-06-22 23:18:06 GMT 49.022793 2.553177 0 84 28 0
2022-06-22 23:18:05 GMT 49.022778 2.552984 0 84 29 0
2022-06-22 23:18:02 GMT 49.022747 2.552437 0 84 30 0
2022-06-22 23:18:01 GMT 49.022732 2.552117 0 84 31 0
2022-06-22 23:17:59 GMT 49.022709 2.551683 0 84 33 0
2022-06-22 23:17:46 GMT 49.022541 2.548511 0 84 42 0
2022-06-22 23:17:38 GMT 49.022392 2.545765 0 84 68 0
2022-06-22 23:17:34 GMT 49.022278 2.543775 0 84 82 0
2022-06-22 23:17:33 GMT 49.022163 2.541469 0 84 96 0
2022-06-22 23:17:30 GMT 49.022163 2.541469 0 84 96 0
2022-06-22 23:17:26 GMT 49.022003 2.538264 375 85 108 -192
2022-06-22 23:17:24 GMT 49.021957 2.537771 375 85 122 -192
2022-06-22 23:17:22 GMT 49.021881 2.536252 375 85 122 -192
2022-06-22 23:17:21 GMT 49.021820 2.535095 350 85 126 -128
2022-06-22 23:17:19 GMT 49.021694 2.533071 350 86 130 -128
2022-06-22 23:17:16 GMT 49.021545 2.530306 350 85 146 -64
2022-06-22 23:17:13 GMT 49.021416 2.527072 400 85 169 -128
2022-06-22 23:17:08 GMT 49.021088 2.521292 400 85 170 -128
2022-06-22 23:17:06 GMT 49.020950 2.519049 375 85 170 -384
2022-06-22 23:17:04 GMT 49.020767 2.515165 425 85 169 -704
2022-06-22 23:17:01 GMT 49.020630 2.513052 450 85 169 -768
2022-06-22 23:16:58 GMT 49.020309 2.506855 525 84 168 -768
2022-06-22 23:16:56 GMT 49.020218 2.504953 550 84 168 -832
2022-06-22 23:16:54 GMT 49.020218 2.504953 575 84 167 -832
2022-06-22 23:16:53 GMT 49.020065 2.502570 575 85 167 -768
2022-06-22 23:16:51 GMT 49.020020 2.501413 600 85 167 -832
2022-06-22 23:16:49 GMT 49.019852 2.498615 625 85 166 -832
2022-06-22 23:16:48 GMT 49.019806 2.497911 650 84 166 -832
2022-06-22 23:16:47 GMT 49.019737 2.496643 675 84 166 -896
2022-06-22 23:16:45 GMT 49.019600 2.493896 700 84 166 -896
2022-06-22 23:16:44 GMT 49.019531 2.492840 725 84 165 -896
2022-06-22 23:16:43 GMT 49.019367 2.490572 750 84 165 -832
2022-06-22 23:16:40 GMT 49.019135 2.486813 775 84 165 -896
2022-06-22 23:16:39 GMT 49.019135 2.486813 775 85 165 -896
2022-06-22 23:16:37 GMT 49.019039 2.484862 800 85 165 -896
2022-06-22 23:16:36 GMT 49.018948 2.483272 825 85 166 -896
2022-06-22 23:16:34 GMT 49.018761 2.479658 875 85 167 -896
2022-06-22 23:16:32 GMT 49.018707 2.479037 875 85 167 -896
2022-06-22 23:16:31 GMT 49.018616 2.477276 925 85 167 -896
2022-06-22 23:16:30 GMT 49.018623 2.476694 900 85 167 -896
2022-06-22 23:16:28 GMT 49.018482 2.474381 950 85 168 -896
2022-06-22 23:16:27 GMT 49.018341 2.471572 975 85 168 -896
2022-06-22 23:16:25 GMT 49.018250 2.470374 1,000 85 169 -896
2022-06-22 23:16:23 GMT 49.018112 2.467910 1,025 85 169 -832
2022-06-22 23:16:22 GMT 49.018063 2.466792 1,050 85 170 -896
2022-06-22 23:16:20 GMT 49.017971 2.464407 1,050 85 170 -896
2022-06-22 23:16:19 GMT 49.017838 2.462276 1,100 85 171 -960
2022-06-22 23:16:17 GMT 49.017792 2.461078 1,100 85 171 -896
2022-06-22 23:16:15 GMT 49.017609 2.458191 1,150 85 172 -896
2022-06-22 23:16:14 GMT 49.017597 2.457468 1,175 85 172 -896
2022-06-22 23:16:13 GMT 49.017471 2.454951 1,175 85 172 -896
2022-06-22 23:16:11 GMT 49.017380 2.453754 1,200 85 172 -896
2022-06-22 23:16:10 GMT 49.017273 2.451108 1,225 85 172 -896
2022-06-22 23:16:08 GMT 49.017197 2.450022 1,250 85 172 -896
2022-06-22 23:16:07 GMT 49.017059 2.447416 1,275 85 172 -896
2022-06-22 23:16:05 GMT 49.017014 2.446219 1,300 85 172 -896
2022-06-22 23:16:04 GMT 49.016945 2.445036 1,300 85 172 -896
2022-06-22 23:16:03 GMT 49.016876 2.443683 1,325 85 172 -896
2022-06-22 23:16:01 GMT 49.016739 2.441500 1,375 85 172 -896
2022-06-22 23:15:59 GMT 49.016647 2.439458 1,375 85 172 -896
2022-06-22 23:15:58 GMT 49.016575 2.437881 1,400 85 172 -896
2022-06-22 23:15:57 GMT 49.016479 2.436580 1,425 85 172 -896
2022-06-22 23:15:55 GMT 49.016342 2.434411 1,450 85 172 -896
2022-06-22 23:15:54 GMT 49.016235 2.431922 1,450 85 172 -896
2022-06-22 23:15:52 GMT 49.016144 2.430725 1,500 85 172 -896
2022-06-22 23:15:51 GMT 49.015961 2.426993 1,525 85 173 -832
2022-06-22 23:15:49 GMT 49.015961 2.426993 1,525 85 173 -832
2022-06-22 23:15:48 GMT 49.015823 2.424809 1,550 85 173 -896
2022-06-22 23:15:46 GMT 49.015736 2.423064 1,575 85 173 -896
2022-06-22 23:15:45 GMT 49.015690 2.421907 1,600 85 173 -896
2022-06-22 23:15:43 GMT 49.015549 2.419450 1,625 85 173 -896
2022-06-22 23:15:42 GMT 49.015320 2.415795 1,650 85 174 -896
2022-06-22 23:15:40 GMT 49.015320 2.415795 1,650 85 174 -896
2022-06-22 23:15:39 GMT 49.015274 2.414598 1,675 85 174 -896
2022-06-22 23:15:37 GMT 49.015083 2.411138 1,725 85 174 -960
2022-06-22 23:15:36 GMT 49.015045 2.410020 1,725 85 175 -960
2022-06-22 23:15:34 GMT 49.014942 2.408680 1,775 85 175 -960
2022-06-22 23:15:33 GMT 49.014908 2.407555 1,775 85 175 -960
2022-06-22 23:15:30 GMT 49.014713 2.403910 1,825 85 176 -960
2022-06-22 23:15:27 GMT 49.014526 2.400585 1,875 85 176 -960
2022-06-22 23:15:26 GMT 49.014481 2.399356 1,875 85 176 -960
2022-06-22 23:15:24 GMT 49.014313 2.396146 1,925 85 176 -960
2022-06-22 23:15:23 GMT 49.014175 2.393541 1,950 85 176 -960
2022-06-22 23:15:21 GMT 49.014084 2.392273 1,975 85 177 -960
2022-06-22 23:15:20 GMT 49.013947 2.389808 2,000 84 177 -896
2022-06-22 23:15:18 GMT 49.013855 2.388470 2,025 84 177 -896
2022-06-22 23:15:17 GMT 49.013718 2.385935 2,050 84 178 -896
2022-06-22 23:15:15 GMT 49.013641 2.384611 2,075 84 178 -896
2022-06-22 23:15:13 GMT 49.013489 2.382061 2,100 84 178 -896
2022-06-22 23:15:11 GMT 49.013409 2.380564 2,100 84 178 -896
2022-06-22 23:15:10 GMT 49.013313 2.379335 2,150 84 179 -960
2022-06-22 23:15:09 GMT 49.013176 2.376661 2,150 84 179 -896
2022-06-22 23:15:07 GMT 49.013077 2.375582 2,175 84 179 -896
2022-06-22 23:15:06 GMT 49.012985 2.374315 2,200 84 179 -896
2022-06-22 23:15:04 GMT 49.012802 2.371312 2,225 84 179 -960
2022-06-22 23:15:03 GMT 49.012756 2.370011 2,250 84 179 -960
2022-06-22 23:15:02 GMT 49.012619 2.367624 2,275 85 179 -960
2022-06-22 23:15:00 GMT 49.012527 2.366497 2,300 85 179 -960
2022-06-22 23:14:58 GMT 49.012344 2.363258 2,325 85 179 -960
2022-06-22 23:14:56 GMT 49.012104 2.358736 2,375 85 179 -960
2022-06-22 23:14:54 GMT 49.012104 2.358736 2,375 85 179 -960
2022-06-22 23:14:53 GMT 49.011978 2.356215 2,400 85 180 -960
2022-06-22 23:14:51 GMT 49.011932 2.354948 2,425 85 180 -960
2022-06-22 23:14:50 GMT 49.011871 2.353821 2,475 85 181 -960
2022-06-22 23:14:48 GMT 49.011749 2.351497 2,475 85 182 -960
2022-06-22 23:14:47 GMT 49.011684 2.350135 2,500 85 182 -960
2022-06-22 23:14:46 GMT 49.011593 2.348761 2,525 85 182 -960
2022-06-22 23:14:44 GMT 49.011475 2.346285 2,550 85 183 -1024
2022-06-22 23:14:43 GMT 49.011429 2.345018 2,575 85 183 -960
2022-06-22 23:14:42 GMT 49.011269 2.342473 2,575 85 183 -960
2022-06-22 23:14:39 GMT 49.011173 2.340377 2,625 85 183 -960
2022-06-22 23:14:38 GMT 49.011063 2.338046 2,650 85 183 -960
2022-06-22 23:14:37 GMT 49.010986 2.336908 2,675 85 183 -1024
2022-06-22 23:14:36 GMT 49.010799 2.333438 2,700 85 184 -1024
2022-06-22 23:14:33 GMT 49.010708 2.332137 2,725 85 184 -960
2022-06-22 23:14:32 GMT 49.010616 2.330692 2,750 85 185 -896
2022-06-22 23:14:30 GMT 49.010429 2.327584 2,775 85 185 -960
2022-06-22 23:14:29 GMT 49.010422 2.326989 2,825 85 185 -1024
2022-06-22 23:14:27 GMT 49.010242 2.324114 2,825 85 185 -1024
2022-06-22 23:14:25 GMT 49.010101 2.321496 2,875 85 185 -1088
2022-06-22 23:14:23 GMT 49.010010 2.319561 2,900 85 185 -1024
2022-06-22 23:14:22 GMT 49.009872 2.317622 2,900 85 186 -960
2022-06-22 23:14:21 GMT 49.009823 2.316308 2,925 85 186 -960
2022-06-22 23:14:20 GMT 49.009735 2.315087 2,950 85 186 -1024
2022-06-22 23:14:18 GMT 49.009598 2.312270 2,975 85 186 -1088
2022-06-22 23:14:16 GMT 49.009357 2.308358 3,050 85 186 -1088
2022-06-22 23:14:13 GMT 49.009232 2.305720 3,050 85 186 -1024
2022-06-22 23:14:11 GMT 49.009079 2.303226 3,100 85 186 -960
2022-06-22 23:14:10 GMT 49.008911 2.300368 3,150 85 186 -1088
2022-06-22 23:14:07 GMT 49.008801 2.298239 3,175 85 186 -1088
2022-06-22 23:14:04 GMT 49.008591 2.294171 3,225 85 187 -896
2022-06-22 23:14:03 GMT 49.008427 2.291300 3,250 85 187 -960
2022-06-22 23:14:00 GMT 49.008133 2.286565 3,300 85 187 -1088
2022-06-22 23:13:58 GMT 49.008133 2.286565 3,325 85 187 -1024
2022-06-22 23:13:56 GMT 49.007996 2.283325 3,350 85 187 -960
2022-06-22 23:13:54 GMT 49.007820 2.280675 3,375 85 188 -896
2022-06-22 23:13:52 GMT 49.007721 2.278395 3,400 85 188 -960
2022-06-22 23:13:50 GMT 49.007538 2.275649 3,450 85 188 -1088
2022-06-22 23:13:47 GMT 49.007355 2.272198 3,525 85 188 -960
2022-06-22 23:13:45 GMT 49.006985 2.266147 3,575 85 188 -960
2022-06-22 23:13:43 GMT 49.006844 2.263762 3,575 85 188 -1088
2022-06-22 23:13:41 GMT 49.006844 2.263762 3,600 85 188 -1152
2022-06-22 23:13:40 GMT 49.006798 2.262316 3,625 85 188 -1088
2022-06-22 23:13:39 GMT 49.006706 2.261015 3,650 85 189 -1088
2022-06-22 23:13:37 GMT 49.006531 2.258113 3,675 85 189 -960
2022-06-22 23:13:36 GMT 49.006485 2.257268 3,675 85 189 -960
2022-06-22 23:13:34 GMT 49.006348 2.254521 3,725 85 190 -1152
2022-06-22 23:13:33 GMT 49.006287 2.253281 3,725 85 190 -1152
2022-06-22 23:13:32 GMT 49.006191 2.251980 3,750 85 191 -1216
2022-06-22 23:13:30 GMT 49.006054 2.249162 3,800 85 191 -1088
2022-06-22 23:13:27 GMT 49.005821 2.244897 3,850 85 192 -960
2022-06-22 23:13:25 GMT 49.005589 2.241211 3,900 85 191 -1152
2022-06-22 23:13:23 GMT 49.005402 2.237886 3,950 85 191 -1152
2022-06-22 23:13:20 GMT 49.005341 2.236633 3,975 85 191 -1088
2022-06-22 23:13:19 GMT 49.005203 2.233816 4,000 85 190 -704
2022-06-22 23:13:17 GMT 49.005020 2.231140 4,025 84 190 -640
2022-06-22 23:13:16 GMT 49.004837 2.227267 4,050 84 189 -576
2022-06-22 23:13:14 GMT 49.004837 2.227267 4,050 84 189 -576
2022-06-22 23:13:12 GMT 49.004658 2.224659 4,075 84 188 -384
2022-06-22 23:13:11 GMT 49.004608 2.223464 4,075 85 188 -192
2022-06-22 23:13:08 GMT 49.004421 2.220250 4,075 85 188 -64
2022-06-22 23:13:07 GMT 49.004284 2.218154 4,075 85 188 0
2022-06-22 23:13:06 GMT 49.004238 2.217070 4,075 85 188 0
2022-06-22 23:13:05 GMT 49.004150 2.215506 4,075 85 188 0
2022-06-22 23:13:04 GMT 49.003922 2.211984 4,075 85 188 0
2022-06-22 23:13:02 GMT 49.003922 2.211984 4,075 85 188 0
2022-06-22 23:13:00 GMT 49.003819 2.209408 4,075 85 188 0
2022-06-22 23:12:59 GMT 49.003723 2.207963 4,075 85 188 0
2022-06-22 23:12:58 GMT 49.003490 2.203771 4,075 85 188 0
2022-06-22 23:12:56 GMT 49.003490 2.203771 4,075 85 188 0
2022-06-22 23:12:55 GMT 49.003326 2.200857 4,075 85 188 0
2022-06-22 23:12:53 GMT 49.003307 2.200229 4,075 85 188 0
2022-06-22 23:12:51 GMT 49.003029 2.195820 4,075 85 188 0
2022-06-22 23:12:49 GMT 49.002914 2.193322 4,075 85 188 0
2022-06-22 23:12:47 GMT 49.002823 2.191843 4,075 85 188 0
2022-06-22 23:12:45 GMT 49.002655 2.189387 4,075 85 188 0
2022-06-22 23:12:44 GMT 49.002594 2.187899 4,075 85 188 0
2022-06-22 23:12:43 GMT 49.002514 2.186568 4,075 85 188 0
2022-06-22 23:12:40 GMT 49.002319 2.183181 4,075 84 188 0
2022-06-22 23:12:39 GMT 49.002235 2.181726 4,075 84 188 0
2022-06-22 23:12:38 GMT 49.002144 2.179847 4,075 84 188 0
2022-06-22 23:12:36 GMT 49.002003 2.177895 4,075 84 188 0
2022-06-22 23:12:35 GMT 49.001907 2.176138 4,075 84 188 0
2022-06-22 23:12:33 GMT 49.001816 2.174209 4,075 85 188 0
2022-06-22 23:12:32 GMT 49.001678 2.172053 4,075 85 188 0
2022-06-22 23:12:31 GMT 49.001633 2.170997 4,075 85 188 0
2022-06-22 23:12:30 GMT 49.001537 2.169294 4,075 85 188 0
2022-06-22 23:12:29 GMT 49.001446 2.167848 4,075 85 188 0
2022-06-22 23:12:27 GMT 49.001312 2.165574 4,075 85 188 0
2022-06-22 23:12:26 GMT 49.001259 2.164307 4,075 85 188 0
2022-06-22 23:12:24 GMT 49.001118 2.161632 4,075 85 187 0
2022-06-22 23:12:22 GMT 49.000980 2.159175 4,075 85 187 0
2022-06-22 23:12:21 GMT 49.000900 2.157405 4,075 85 187 0
2022-06-22 23:12:19 GMT 49.000748 2.154766 4,075 85 187 0
2022-06-22 23:12:18 GMT 49.000671 2.153320 4,075 84 187 0
2022-06-22 23:12:16 GMT 49.000465 2.150429 4,075 84 187 0
2022-06-22 23:12:15 GMT 49.000420 2.149128 4,075 84 187 0
2022-06-22 23:12:13 GMT 49.000278 2.146815 4,075 84 187 0
2022-06-22 23:12:11 GMT 49.000095 2.144286 4,075 84 187 0
2022-06-22 23:12:09 GMT 48.999954 2.141900 4,075 85 187 0
2022-06-22 23:12:08 GMT 48.999893 2.140644 4,075 85 187 0
2022-06-22 23:12:06 GMT 48.999767 2.138142 4,075 85 187 0
2022-06-22 23:12:05 GMT 48.999619 2.135503 4,075 85 187 0
2022-06-22 23:12:03 GMT 48.999535 2.134311 4,075 85 186 0
2022-06-22 23:12:02 GMT 48.999397 2.131564 4,075 85 186 0
2022-06-22 23:12:00 GMT 48.999344 2.130362 4,075 85 186 0
2022-06-22 23:11:59 GMT 48.999069 2.126066 4,075 85 186 0
2022-06-22 23:11:57 GMT 48.999023 2.124728 4,075 85 186 0
2022-06-22 23:11:55 GMT 48.998932 2.123614 4,075 85 186 0
2022-06-22 23:11:53 GMT 48.998837 2.121735 4,075 85 186 0
2022-06-22 23:11:52 GMT 48.998745 2.119783 4,075 85 186 0
2022-06-22 23:11:51 GMT 48.998650 2.118482 4,075 85 186 0
2022-06-22 23:11:49 GMT 48.998512 2.115736 4,075 85 186 0
2022-06-22 23:11:47 GMT 48.998337 2.112333 4,075 85 186 0
2022-06-22 23:11:45 GMT 48.998245 2.110995 4,075 85 186 0
2022-06-22 23:11:43 GMT 48.998093 2.108508 4,075 85 186 0
2022-06-22 23:11:42 GMT 48.998047 2.107062 4,075 84 186 0
2022-06-22 23:11:41 GMT 48.997879 2.104586 4,075 84 186 0
2022-06-22 23:11:39 GMT 48.997787 2.103178 4,075 85 186 0
2022-06-22 23:11:38 GMT 48.997719 2.101713 4,075 85 186 0
2022-06-22 23:11:37 GMT 48.997536 2.098750 4,075 85 186 0
2022-06-22 23:11:35 GMT 48.997467 2.097544 4,075 85 186 0
2022-06-22 23:11:32 GMT 48.997284 2.094022 4,075 86 186 0
2022-06-22 23:11:30 GMT 48.997147 2.090783 4,075 88 186 0
2022-06-22 23:11:28 GMT 48.997055 2.088388 4,075 89 186 0
2022-06-22 23:11:27 GMT 48.997066 2.087113 4,075 91 186 0
2022-06-22 23:11:26 GMT 48.997055 2.084374 4,075 93 185 0
2022-06-22 23:11:24 GMT 48.997066 2.083210 4,075 94 185 0
2022-06-22 23:11:23 GMT 48.997116 2.082054 4,075 95 184 0
2022-06-22 23:11:21 GMT 48.997238 2.079585 4,075 97 185 0
2022-06-22 23:11:20 GMT 48.997513 2.076346 4,075 98 185 0
2022-06-22 23:11:18 GMT 48.997650 2.075078 4,075 99 185 0
2022-06-22 23:11:15 GMT 48.997952 2.072368 4,075 99 185 0
2022-06-22 23:11:14 GMT 48.998199 2.069796 4,075 100 184 0
2022-06-22 23:11:13 GMT 48.998280 2.069188 4,075 100 185 0
2022-06-22 23:11:12 GMT 48.998650 2.066225 4,075 101 185 0
2022-06-22 23:11:10 GMT 48.998791 2.064924 4,075 102 185 0
2022-06-22 23:11:08 GMT 48.999161 2.062401 4,075 103 184 0
2022-06-22 23:11:07 GMT 48.999302 2.061238 4,075 103 185 0
2022-06-22 23:11:06 GMT 48.999710 2.058739 4,075 104 184 0
2022-06-22 23:11:04 GMT 48.999893 2.057472 4,075 104 185 0
2022-06-22 23:11:03 GMT 49.000122 2.056204 4,075 105 185 0
2022-06-22 23:11:00 GMT 49.000793 2.052420 4,075 105 184 64
2022-06-22 23:10:59 GMT 49.000980 2.051191 4,075 105 184 64
2022-06-22 23:10:57 GMT 49.001446 2.048517 4,075 105 184 64
2022-06-22 23:10:56 GMT 49.001816 2.046565 4,075 105 184 0
2022-06-22 23:10:53 GMT 49.002274 2.044020 4,075 105 184 0
2022-06-22 23:10:52 GMT 49.002560 2.042445 4,075 105 184 0
2022-06-22 23:10:51 GMT 49.002792 2.041144 4,075 105 184 0
2022-06-22 23:10:49 GMT 49.003212 2.038831 4,050 105 184 0
2022-06-22 23:10:48 GMT 49.003464 2.037400 4,075 105 184 0
2022-06-22 23:10:46 GMT 49.003876 2.035076 4,075 105 184 0
2022-06-22 23:10:44 GMT 49.004330 2.032688 4,075 105 184 0
2022-06-22 23:10:42 GMT 49.004791 2.030147 4,075 105 184 0
2022-06-22 23:10:41 GMT 49.005020 2.028879 4,075 105 184 0
2022-06-22 23:10:39 GMT 49.005478 2.026273 4,075 105 184 0
2022-06-22 23:10:38 GMT 49.005775 2.024881 4,075 105 185 0
2022-06-22 23:10:37 GMT 49.006241 2.022279 4,075 105 185 0
2022-06-22 23:10:34 GMT 49.007034 2.018104 4,075 105 185 0
2022-06-22 23:10:32 GMT 49.007263 2.016859 4,075 105 185 0
2022-06-22 23:10:30 GMT 49.007492 2.015498 4,075 105 185 0
2022-06-22 23:10:28 GMT 49.007961 2.012956 4,075 105 185 0
2022-06-22 23:10:27 GMT 49.008240 2.011438 4,075 104 186 64
2022-06-22 23:10:26 GMT 49.008472 2.010064 4,075 104 185 64
2022-06-22 23:10:25 GMT 49.008938 2.007535 4,075 103 186 64
2022-06-22 23:10:23 GMT 49.009125 2.006523 4,075 103 186 64
2022-06-22 23:10:22 GMT 49.009369 2.005005 4,075 102 187 64
2022-06-22 23:10:20 GMT 49.009781 2.002188 4,050 100 188 64
2022-06-22 23:10:18 GMT 49.010101 1.999584 4,050 99 189 64
2022-06-22 23:10:16 GMT 49.010429 1.996837 4,050 97 190 64
2022-06-22 23:10:14 GMT 49.010651 1.994300 4,050 96 192 0
2022-06-22 23:10:13 GMT 49.010799 1.992862 4,050 96 193 0
2022-06-22 23:10:11 GMT 49.010986 1.990260 4,050 96 196 -64
2022-06-22 23:10:10 GMT 49.011082 1.988959 4,050 96 197 -64
2022-06-22 23:10:08 GMT 49.011269 1.986068 4,050 96 199 -64
2022-06-22 23:10:07 GMT 49.011406 1.984550 4,050 96 200 -64
2022-06-22 23:10:05 GMT 49.011547 1.982599 4,050 96 201 -64
2022-06-22 23:10:04 GMT 49.011658 1.981060 4,050 96 202 -64
2022-06-22 23:10:02 GMT 49.011887 1.978102 4,075 96 203 -64
2022-06-22 23:10:00 GMT 49.012070 1.975285 4,075 96 203 -64
2022-06-22 23:09:59 GMT 49.012199 1.973708 4,075 96 203 -64
2022-06-22 23:09:57 GMT 49.012383 1.971034 4,075 96 203 0
2022-06-22 23:09:56 GMT 49.012478 1.969588 4,075 96 203 0
2022-06-22 23:09:53 GMT 49.012756 1.965919 4,075 96 204 0
2022-06-22 23:09:52 GMT 49.012989 1.962433 4,075 96 205 0
2022-06-22 23:09:51 GMT 49.012989 1.962433 4,075 96 205 0
2022-06-22 23:09:49 GMT 49.013214 1.959158 4,075 96 206 0
2022-06-22 23:09:48 GMT 49.013306 1.957890 4,075 96 206 0
2022-06-22 23:09:47 GMT 49.013397 1.956412 4,075 96 207 0
2022-06-22 23:09:46 GMT 49.013626 1.953242 4,075 96 208 0
2022-06-22 23:09:44 GMT 49.013733 1.951808 4,075 96 208 0
2022-06-22 23:09:43 GMT 49.013920 1.949206 4,075 96 210 0
2022-06-22 23:09:41 GMT 49.014011 1.947616 4,075 96 210 0
2022-06-22 23:09:40 GMT 49.014130 1.946270 4,075 96 211 0
2022-06-22 23:09:37 GMT 49.014339 1.942918 4,050 96 215 0
2022-06-22 23:09:36 GMT 49.014572 1.939737 4,050 96 216 -64
2022-06-22 23:09:34 GMT 49.014816 1.936129 4,050 95 220 -128
2022-06-22 23:09:31 GMT 49.015038 1.932943 4,050 96 221 -128
2022-06-22 23:09:30 GMT 49.015362 1.928173 4,075 96 223 -128
2022-06-22 23:09:28 GMT 49.015362 1.928173 4,075 96 224 -128
2022-06-22 23:09:26 GMT 49.015549 1.925932 4,075 96 225 -64
2022-06-22 23:09:25 GMT 49.015781 1.922680 4,075 96 226 -64
2022-06-22 23:09:23 GMT 49.015877 1.921090 4,075 96 226 0
2022-06-22 23:09:22 GMT 49.016006 1.919157 4,075 96 226 0
2022-06-22 23:09:21 GMT 49.016388 1.914006 4,075 96 226 0
2022-06-22 23:09:19 GMT 49.016388 1.914006 4,075 96 226 0
2022-06-22 23:09:18 GMT 49.016621 1.910681 4,075 96 226 0
2022-06-22 23:09:15 GMT 49.016830 1.907677 4,075 96 226 0
2022-06-22 23:09:14 GMT 49.016968 1.905917 4,075 96 226 0
2022-06-22 23:09:13 GMT 49.017086 1.904538 4,075 96 226 0
2022-06-22 23:09:12 GMT 49.017319 1.901358 4,075 96 226 0
2022-06-22 23:09:10 GMT 49.017410 1.899623 4,075 96 226 0
2022-06-22 23:09:07 GMT 49.017738 1.895142 4,075 96 226 0
2022-06-22 23:09:05 GMT 49.017971 1.892178 4,075 96 226 0
2022-06-22 23:09:04 GMT 49.018295 1.887395 4,075 96 227 0
2022-06-22 23:09:02 GMT 49.018295 1.887395 4,075 96 227 0
2022-06-22 23:09:01 GMT 49.018570 1.884085 4,075 96 227 0
2022-06-22 23:08:59 GMT 49.018669 1.882637 4,075 96 227 64
2022-06-22 23:08:57 GMT 49.018890 1.879437 4,075 96 226 64
2022-06-22 23:08:56 GMT 49.019028 1.877887 4,075 96 226 0
2022-06-22 23:08:54 GMT 49.019226 1.874904 4,075 96 226 0
2022-06-22 23:08:53 GMT 49.019367 1.873097 4,075 96 226 64
2022-06-22 23:08:50 GMT 49.019669 1.868380 4,075 96 226 64
2022-06-22 23:08:48 GMT 49.019924 1.864712 4,075 96 226 64
2022-06-22 23:08:46 GMT 49.020172 1.861267 4,075 96 226 64
2022-06-22 23:08:45 GMT 49.020355 1.858732 4,075 95 226 64
2022-06-22 23:08:43 GMT 49.020493 1.856830 4,075 95 226 64
2022-06-22 23:08:41 GMT 49.020718 1.853654 4,075 95 226 64
2022-06-22 23:08:38 GMT 49.021042 1.848739 4,075 95 226 64
2022-06-22 23:08:36 GMT 49.021229 1.845775 4,075 95 226 64
2022-06-22 23:08:35 GMT 49.021317 1.844295 4,075 95 226 64
2022-06-22 23:08:33 GMT 49.021557 1.841150 4,075 95 225 64
2022-06-22 23:08:31 GMT 49.021866 1.836618 4,075 95 225 0
2022-06-22 23:08:30 GMT 49.021957 1.834998 4,075 95 225 0
2022-06-22 23:08:28 GMT 49.022068 1.833416 4,075 95 225 0
2022-06-22 23:08:27 GMT 49.022186 1.831689 4,075 95 225 -64
2022-06-22 23:08:26 GMT 49.022369 1.828731 4,075 95 226 -64
2022-06-22 23:08:24 GMT 49.022507 1.827111 4,075 95 226 -128
2022-06-22 23:08:23 GMT 49.022736 1.823660 4,075 95 226 -128
2022-06-22 23:08:21 GMT 49.022812 1.822068 4,075 95 226 -192
2022-06-22 23:08:20 GMT 49.023056 1.819082 4,075 95 226 -256
2022-06-22 23:08:17 GMT 49.023323 1.814623 4,100 96 228 -704
2022-06-22 23:08:15 GMT 49.023464 1.813033 4,125 96 228 -768
2022-06-22 23:08:13 GMT 49.023697 1.809575 4,150 96 229 -896
2022-06-22 23:08:12 GMT 49.023788 1.807955 4,175 96 229 -896
2022-06-22 23:08:10 GMT 49.024021 1.804721 4,200 96 230 -832
2022-06-22 23:08:09 GMT 49.024117 1.803131 4,200 96 230 -768
2022-06-22 23:08:08 GMT 49.024395 1.799734 4,225 96 231 -704
2022-06-22 23:08:06 GMT 49.024487 1.798144 4,250 96 232 -640
2022-06-22 23:08:05 GMT 49.024612 1.796687 4,250 96 232 -640
2022-06-22 23:08:03 GMT 49.024796 1.793588 4,275 96 233 -576
2022-06-22 23:08:02 GMT 49.024933 1.791969 4,275 96 234 -512
2022-06-22 23:08:01 GMT 49.025230 1.787736 4,300 96 235 -576
2022-06-22 23:07:59 GMT 49.025326 1.786073 4,300 96 236 -512
2022-06-22 23:07:57 GMT 49.025436 1.784644 4,325 96 237 -512
2022-06-22 23:07:56 GMT 49.025711 1.781123 4,325 96 238 -512
2022-06-22 23:07:53 GMT 49.026161 1.774509 4,350 96 240 -448
2022-06-22 23:07:51 GMT 49.026161 1.774509 4,350 96 240 -512
2022-06-22 23:07:50 GMT 49.026302 1.772774 4,375 96 241 -512
2022-06-22 23:07:48 GMT 49.026535 1.769738 4,375 96 242 -640
2022-06-22 23:07:47 GMT 49.026863 1.765546 4,425 96 243 -768
2022-06-22 23:07:45 GMT 49.026993 1.763869 4,450 96 244 -768
2022-06-22 23:07:43 GMT 49.027187 1.761282 4,450 96 244 -768
2022-06-22 23:07:42 GMT 49.027405 1.758376 4,475 96 246 -832
2022-06-22 23:07:40 GMT 49.027634 1.755488 4,475 96 246 -832
2022-06-22 23:07:39 GMT 49.027744 1.753909 4,500 96 246 -832
2022-06-22 23:07:38 GMT 49.027840 1.752175 4,525 96 247 -832
2022-06-22 23:07:37 GMT 49.028214 1.747549 4,550 96 248 -896
2022-06-22 23:07:34 GMT 49.028458 1.744573 4,575 96 248 -960
2022-06-22 23:07:33 GMT 49.028549 1.743023 4,600 96 249 -1088
2022-06-22 23:07:32 GMT 49.028679 1.741116 4,625 96 249 -1216
2022-06-22 23:07:31 GMT 49.028824 1.739572 4,650 96 249 -1280
2022-06-22 23:07:29 GMT 49.029049 1.736563 4,675 96 249 -1408
2022-06-22 23:07:27 GMT 49.029327 1.732949 4,725 96 249 -1472
2022-06-22 23:07:26 GMT 49.029469 1.731142 4,750 96 249 -1408
2022-06-22 23:07:25 GMT 49.029694 1.727671 4,800 96 249 -1408
2022-06-22 23:07:23 GMT 49.029842 1.725793 4,850 96 249 -1408
2022-06-22 23:07:22 GMT 49.030197 1.721614 4,875 96 249 -1344
2022-06-22 23:07:20 GMT 49.030243 1.720558 4,925 96 249 -1344
2022-06-22 23:07:19 GMT 49.030380 1.718797 4,925 97 249 -1344
2022-06-22 23:07:16 GMT 49.030792 1.713726 5,000 97 250 -1216
2022-06-22 23:07:13 GMT 49.031143 1.709386 5,025 97 251 -1088
2022-06-22 23:07:12 GMT 49.031296 1.707599 5,050 97 251 -1024
2022-06-22 23:07:11 GMT 49.031570 1.704501 5,100 97 251 -1088
2022-06-22 23:07:09 GMT 49.031891 1.701002 5,125 97 251 -1088
2022-06-22 23:07:07 GMT 49.032074 1.699078 5,175 97 251 -1152
2022-06-22 23:07:05 GMT 49.032394 1.695345 5,200 97 251 -1152
2022-06-22 23:07:04 GMT 49.032623 1.692951 5,200 97 251 -1216
2022-06-22 23:07:03 GMT 49.032990 1.689218 5,250 97 252 -1280
2022-06-22 23:07:01 GMT 49.033127 1.687458 5,275 97 252 -1280
2022-06-22 23:07:00 GMT 49.033287 1.685895 5,300 97 252 -1344
2022-06-22 23:06:58 GMT 49.033585 1.682387 5,350 97 252 -1344
2022-06-22 23:06:57 GMT 49.033707 1.680836 5,350 97 252 -1344
2022-06-22 23:06:56 GMT 49.034088 1.676612 5,425 96 251 -1280
2022-06-22 23:06:54 GMT 49.034218 1.674692 5,425 96 251 -1280
2022-06-22 23:06:53 GMT 49.034271 1.673795 5,450 96 251 -1280
2022-06-22 23:06:51 GMT 49.034588 1.669922 5,500 95 252 -1280
2022-06-22 23:06:50 GMT 49.034729 1.668373 5,525 95 252 -1280
2022-06-22 23:06:49 GMT 49.034821 1.666742 5,550 95 252 -1280
2022-06-22 23:06:47 GMT 49.035103 1.662333 5,575 94 251 -1216
2022-06-22 23:06:46 GMT 49.035240 1.660598 5,600 94 252 -1280
2022-06-22 23:06:45 GMT 49.035336 1.658646 5,625 94 252 -1280
2022-06-22 23:06:43 GMT 49.035473 1.655828 5,675 94 252 -1280
2022-06-22 23:06:41 GMT 49.035660 1.652069 5,700 93 252 -1280
2022-06-22 23:06:40 GMT 49.035736 1.650132 5,725 93 252 -1280
2022-06-22 23:06:39 GMT 49.035892 1.646215 5,775 93 252 -1280
2022-06-22 23:06:37 GMT 49.035965 1.644639 5,800 93 252 -1280
2022-06-22 23:06:35 GMT 49.036125 1.641083 5,850 93 252 -1216
2022-06-22 23:06:34 GMT 49.036221 1.638987 5,875 93 252 -1216
2022-06-22 23:06:33 GMT 49.036312 1.637541 5,875 93 252 -1216
2022-06-22 23:06:31 GMT 49.036449 1.634216 5,925 93 252 -1152
2022-06-22 23:06:29 GMT 49.036606 1.630625 5,950 93 253 -1216
2022-06-22 23:06:28 GMT 49.036789 1.626399 6,000 93 253 -1152
2022-06-22 23:06:24 GMT 49.036972 1.622667 6,050 93 253 -1216
2022-06-22 23:06:23 GMT 49.037056 1.620194 6,075 93 253 -1152
2022-06-22 23:06:22 GMT 49.037151 1.618387 6,100 93 253 -1152
2022-06-22 23:06:20 GMT 49.037292 1.615342 6,125 93 253 -1152
2022-06-22 23:06:18 GMT 49.037430 1.611449 6,175 93 253 -1152
2022-06-22 23:06:17 GMT 49.037659 1.606117 6,225 93 253 -1152
2022-06-22 23:06:14 GMT 49.037849 1.602414 6,275 93 254 -1088
2022-06-22 23:06:11 GMT 49.037979 1.598792 6,300 93 254 -1088
2022-06-22 23:06:09 GMT 49.038174 1.594319 6,350 93 254 -1088
2022-06-22 23:06:08 GMT 49.038219 1.592584 6,375 93 255 -1088
2022-06-22 23:06:07 GMT 49.038300 1.591468 6,375 93 255 -1024
2022-06-22 23:06:05 GMT 49.038437 1.587877 6,400 93 255 -1024
2022-06-22 23:06:03 GMT 49.038731 1.581092 6,475 93 255 -1024
2022-06-22 23:06:00 GMT 49.038849 1.577524 6,500 93 256 -1024
2022-06-22 23:05:58 GMT 49.038963 1.574803 6,525 93 256 -1088
2022-06-22 23:05:56 GMT 49.039104 1.571912 6,550 93 256 -1088
2022-06-22 23:05:55 GMT 49.039200 1.569961 6,575 93 256 -1088
2022-06-22 23:05:54 GMT 49.039337 1.566708 6,625 93 256 -1024
2022-06-22 23:05:52 GMT 49.039383 1.564901 6,625 93 256 -1024
2022-06-22 23:05:50 GMT 49.039581 1.560974 6,650 94 256 -1088
2022-06-22 23:05:49 GMT 49.039665 1.558974 6,675 94 256 -1088
2022-06-22 23:05:48 GMT 49.039764 1.556256 6,700 94 256 -1088
2022-06-22 23:05:46 GMT 49.039856 1.554495 6,725 94 257 -1024
2022-06-22 23:05:45 GMT 49.039989 1.551602 6,750 94 257 -1024
2022-06-22 23:05:44 GMT 49.040176 1.547945 6,800 94 257 -960
2022-06-22 23:05:42 GMT 49.040222 1.546326 6,800 94 257 -960
2022-06-22 23:05:40 GMT 49.040405 1.542945 6,825 94 257 -896
2022-06-22 23:05:39 GMT 49.040497 1.540903 6,850 94 257 -896
2022-06-22 23:05:38 GMT 49.040588 1.539142 6,850 94 257 -832
2022-06-22 23:05:36 GMT 49.040733 1.536062 6,875 94 257 -832
2022-06-22 23:05:34 GMT 49.041000 1.530621 6,900 94 257 -768
2022-06-22 23:05:33 GMT 49.041000 1.530621 6,950 94 257 -768
2022-06-22 23:05:31 GMT 49.041183 1.527240 6,950 94 257 -704
2022-06-22 23:05:30 GMT 49.041245 1.525582 6,950 94 257 -704
2022-06-22 23:05:29 GMT 49.041340 1.523775 6,975 94 257 -640
2022-06-22 23:05:27 GMT 49.041527 1.520016 6,975 94 257 -512
2022-06-22 23:05:26 GMT 49.041618 1.518209 7,000 94 257 -384
2022-06-22 23:05:25 GMT 49.041805 1.514740 7,000 94 257 -192
2022-06-22 23:05:23 GMT 49.041946 1.512933 7,000 94 257 -128
2022-06-22 23:05:22 GMT 49.042099 1.509493 7,000 94 257 0
2022-06-22 23:05:20 GMT 49.042236 1.507521 7,000 94 257 0
2022-06-22 23:05:19 GMT 49.042412 1.504043 7,000 94 257 0
2022-06-22 23:05:17 GMT 49.042645 1.499562 7,000 94 258 0
2022-06-22 23:05:14 GMT 49.042923 1.494493 7,000 94 258 0
2022-06-22 23:05:12 GMT 49.043015 1.492662 7,000 94 258 0
2022-06-22 23:05:10 GMT 49.043247 1.488647 7,000 94 259 0
2022-06-22 23:05:08 GMT 49.043427 1.485056 7,000 94 258 0
2022-06-22 23:05:07 GMT 49.043564 1.483225 7,000 94 258 0
2022-06-22 23:05:06 GMT 49.043655 1.481394 7,000 94 258 0
2022-06-22 23:05:05 GMT 49.043839 1.477591 7,000 94 258 0
2022-06-22 23:05:02 GMT 49.044022 1.474703 7,000 94 258 0
2022-06-22 23:05:01 GMT 49.044113 1.472872 7,000 94 258 0
2022-06-22 23:05:00 GMT 49.044205 1.470900 7,000 94 257 0
2022-06-22 23:04:58 GMT 49.044388 1.467238 7,000 94 257 0
2022-06-22 23:04:57 GMT 49.044525 1.465266 7,000 94 257 -64
2022-06-22 23:04:54 GMT 49.044754 1.459844 7,000 93 258 0
2022-06-22 23:04:52 GMT 49.044937 1.456041 7,000 93 258 64
2022-06-22 23:04:51 GMT 49.045029 1.454210 7,000 92 257 0
2022-06-22 23:04:50 GMT 49.045166 1.450759 7,000 92 257 0
2022-06-22 23:04:47 GMT 49.045250 1.447304 7,000 91 258 0
2022-06-22 23:04:45 GMT 49.045349 1.443364 7,000 90 258 -64
2022-06-22 23:04:44 GMT 49.045341 1.441739 7,000 90 258 0
2022-06-22 23:04:42 GMT 49.045387 1.438125 7,000 89 258 0
2022-06-22 23:04:41 GMT 49.045341 1.433933 7,000 89 258 0
2022-06-22 23:04:39 GMT 49.045349 1.433012 7,000 89 258 0
2022-06-22 23:04:38 GMT 49.045349 1.431040 7,000 89 258 0
2022-06-22 23:04:36 GMT 49.045303 1.427378 7,000 89 258 -64
2022-06-22 23:04:35 GMT 49.045303 1.425617 7,000 89 258 0
2022-06-22 23:04:34 GMT 49.045296 1.421573 7,000 89 258 0
2022-06-22 23:04:32 GMT 49.045250 1.419766 7,000 89 258 0
2022-06-22 23:04:30 GMT 49.045250 1.416514 7,000 89 258 -64
2022-06-22 23:04:29 GMT 49.045250 1.414490 7,000 89 258 -64
2022-06-22 23:04:28 GMT 49.045212 1.409983 7,000 89 258 0
2022-06-22 23:04:25 GMT 49.045204 1.405238 7,000 89 258 0
2022-06-22 23:04:23 GMT 49.045204 1.403431 7,000 89 258 0
2022-06-22 23:04:22 GMT 49.045158 1.399962 7,000 89 258 0
2022-06-22 23:04:20 GMT 49.045166 1.398362 7,000 89 258 0
2022-06-22 23:04:19 GMT 49.045166 1.394559 7,000 89 258 0
2022-06-22 23:04:17 GMT 49.045158 1.392517 7,000 89 259 0
2022-06-22 23:04:15 GMT 49.045120 1.388503 7,000 89 259 0
2022-06-22 23:04:14 GMT 49.045109 1.386879 7,000 89 259 0
2022-06-22 23:04:12 GMT 49.045063 1.382904 7,000 89 259 0
2022-06-22 23:04:10 GMT 49.045063 1.379435 7,000 89 259 0
2022-06-22 23:04:09 GMT 49.045074 1.377798 7,000 89 259 0
2022-06-22 23:04:08 GMT 49.045063 1.376182 7,000 89 259 0
2022-06-22 23:04:06 GMT 49.045017 1.372351 7,000 89 260 0
2022-06-22 23:04:05 GMT 49.045017 1.370472 7,000 89 260 0
2022-06-22 23:04:04 GMT 49.044983 1.366812 7,000 89 260 -64
2022-06-22 23:04:02 GMT 49.044983 1.365051 7,000 89 260 -64
2022-06-22 23:04:01 GMT 49.044983 1.363572 7,000 89 260 0
2022-06-22 23:04:00 GMT 49.044983 1.361741 7,000 89 260 0
2022-06-22 23:03:58 GMT 49.044971 1.357317 7,000 89 260 64
2022-06-22 23:03:57 GMT 49.044926 1.355872 7,000 89 260 0
2022-06-22 23:03:56 GMT 49.044937 1.350755 7,000 89 260 0
2022-06-22 23:03:54 GMT 49.044937 1.350755 7,000 89 260 0
2022-06-22 23:03:52 GMT 49.044926 1.347126 7,000 89 260 -64
2022-06-22 23:03:51 GMT 49.044926 1.345319 7,000 89 260 0
2022-06-22 23:03:50 GMT 49.044891 1.343290 7,000 89 260 0
2022-06-22 23:03:48 GMT 49.044891 1.339769 7,000 89 260 0
2022-06-22 23:03:47 GMT 49.044891 1.335754 7,000 90 259 0
2022-06-22 23:03:45 GMT 49.044876 1.333610 7,000 90 259 -64
2022-06-22 23:03:44 GMT 49.044876 1.332165 7,000 90 259 0
2022-06-22 23:03:42 GMT 49.044876 1.328478 7,000 90 259 0
2022-06-22 23:03:40 GMT 49.044876 1.321034 7,000 90 259 -64
2022-06-22 23:03:38 GMT 49.044876 1.321034 7,000 90 259 -64
2022-06-22 23:03:36 GMT 49.044876 1.317203 7,000 90 259 0
2022-06-22 23:03:34 GMT 49.044891 1.315542 7,000 90 260 0
2022-06-22 23:03:33 GMT 49.044891 1.313711 7,000 89 260 64
2022-06-22 23:03:31 GMT 49.044891 1.309134 7,000 89 260 64
2022-06-22 23:03:30 GMT 49.044891 1.306387 7,000 89 260 0
2022-06-22 23:03:28 GMT 49.044846 1.303500 7,000 89 260 0
2022-06-22 23:03:26 GMT 49.044846 1.300190 7,000 89 260 0
2022-06-22 23:03:25 GMT 49.044830 1.296531 7,000 88 260 64
2022-06-22 23:03:23 GMT 49.044785 1.295086 7,000 88 259 64
2022-06-22 23:03:22 GMT 49.044785 1.293423 7,000 87 259 64
2022-06-22 23:03:20 GMT 49.044739 1.289448 7,000 87 259 64
2022-06-22 23:03:19 GMT 49.044662 1.287795 7,000 86 259 64
2022-06-22 23:03:18 GMT 49.044552 1.283449 7,000 86 259 0
2022-06-22 23:03:16 GMT 49.044456 1.281425 7,000 86 259 0
2022-06-22 23:03:14 GMT 49.044342 1.277935 7,000 86 259 64
2022-06-22 23:03:13 GMT 49.044273 1.275932 7,000 86 259 64
2022-06-22 23:03:12 GMT 49.044178 1.274342 7,000 86 259 64
2022-06-22 23:03:11 GMT 49.044022 1.270893 7,000 86 259 64
2022-06-22 23:03:09 GMT 49.043976 1.268850 7,000 86 259 64
2022-06-22 23:03:08 GMT 49.043808 1.265379 7,000 86 259 0
2022-06-22 23:03:06 GMT 49.043758 1.263572 7,000 86 259 0
2022-06-22 23:03:05 GMT 49.043701 1.261949 7,000 86 259 0
2022-06-22 23:03:03 GMT 49.043518 1.258146 7,000 86 259 64
2022-06-22 23:03:01 GMT 49.043427 1.255540 7,000 86 259 64
2022-06-22 23:02:59 GMT 49.043247 1.250851 7,000 86 259 64
2022-06-22 23:02:58 GMT 49.043106 1.247160 7,000 86 259 0
2022-06-22 23:02:56 GMT 49.043015 1.245214 7,000 86 259 0
2022-06-22 23:02:55 GMT 49.042969 1.243190 7,000 86 259 0
2022-06-22 23:02:53 GMT 49.042831 1.239694 7,000 86 260 0
2022-06-22 23:02:52 GMT 49.042603 1.233708 7,000 86 260 0
2022-06-22 23:02:50 GMT 49.042603 1.233708 7,000 86 260 0
2022-06-22 23:02:49 GMT 49.042549 1.232059 7,000 86 260 -64
2022-06-22 23:02:48 GMT 49.042412 1.228228 7,000 86 260 -64
2022-06-22 23:02:46 GMT 49.042362 1.226783 7,000 86 260 -64
2022-06-22 23:02:45 GMT 49.042271 1.224903 7,000 86 260 -128
2022-06-22 23:02:43 GMT 49.042099 1.220539 7,025 85 260 -128
2022-06-22 23:02:42 GMT 49.042038 1.218904 7,025 85 260 -128
2022-06-22 23:02:41 GMT 49.041851 1.215073 7,025 84 260 -256
2022-06-22 23:02:38 GMT 49.041759 1.212544 7,025 84 260 -256
2022-06-22 23:02:37 GMT 49.041641 1.210891 7,025 83 260 -320
2022-06-22 23:02:36 GMT 49.041504 1.208144 7,050 82 260 -320
2022-06-22 23:02:34 GMT 49.041275 1.204834 7,050 80 260 -448
2022-06-22 23:02:32 GMT 49.040966 1.201268 7,075 78 261 -512
2022-06-22 23:02:30 GMT 49.040596 1.197582 7,075 76 262 -768
2022-06-22 23:02:29 GMT 49.040131 1.193824 7,100 73 262 -960
2022-06-22 23:02:26 GMT 49.039398 1.189763 7,150 69 263 -1024
2022-06-22 23:02:25 GMT 49.039078 1.188143 7,150 67 263 -1024
2022-06-22 23:02:23 GMT 49.038345 1.185045 7,200 62 263 -1024
2022-06-22 23:02:22 GMT 49.037704 1.182650 7,225 62 263 -1024
2022-06-22 23:02:20 GMT 49.036697 1.179481 7,250 58 265 -1024
2022-06-22 23:02:19 GMT 49.036034 1.177705 7,275 57 264 -1024
2022-06-22 23:02:18 GMT 49.034729 1.174381 7,300 53 265 -1024
2022-06-22 23:02:16 GMT 49.034729 1.174381 7,300 51 264 -1024
2022-06-22 23:02:14 GMT 49.033401 1.171523 7,375 48 265 -1024
2022-06-22 23:02:12 GMT 49.031525 1.167861 7,375 42 266 -1024
2022-06-22 23:02:10 GMT 49.030014 1.165325 7,425 41 265 -1024
2022-06-22 23:02:08 GMT 49.027653 1.162093 7,450 36 265 -1088
2022-06-22 23:02:06 GMT 49.024071 1.157829 7,525 33 265 -1088
2022-06-22 23:02:04 GMT 49.024071 1.157829 7,525 32 265 -1088
2022-06-22 23:02:02 GMT 49.022438 1.156166 7,550 31 265 -1088
2022-06-22 23:02:01 GMT 49.021370 1.155155 7,575 30 265 -1088
2022-06-22 23:01:58 GMT 49.017883 1.152015 7,625 29 266 -1024
2022-06-22 23:01:56 GMT 49.015877 1.150312 7,675 28 267 -1024
2022-06-22 23:01:55 GMT 49.014572 1.149228 7,675 28 267 -1024
2022-06-22 23:01:53 GMT 49.012524 1.147493 7,725 29 267 -1024
2022-06-22 23:01:52 GMT 49.011566 1.146663 7,725 29 267 -1024
2022-06-22 23:01:51 GMT 49.009277 1.144761 7,775 28 268 -960
2022-06-22 23:01:48 GMT 49.006004 1.142000 7,825 28 268 -1024
2022-06-22 23:01:45 GMT 49.002319 1.138916 7,875 28 269 -1024
2022-06-22 23:01:42 GMT 49.000698 1.137519 7,900 29 269 -1024
2022-06-22 23:01:41 GMT 48.999817 1.136796 7,925 29 269 -960
2022-06-22 23:01:38 GMT 48.996552 1.134057 7,975 29 269 -960
2022-06-22 23:01:36 GMT 48.994034 1.131944 8,000 28 270 -1024
2022-06-22 23:01:34 GMT 48.991882 1.130113 8,025 29 271 -1024
2022-06-22 23:01:33 GMT 48.990875 1.129279 8,075 29 271 -1024
2022-06-22 23:01:31 GMT 48.988129 1.126966 8,075 29 271 -1024
2022-06-22 23:01:30 GMT 48.988129 1.126966 8,100 29 272 -1024
2022-06-22 23:01:28 GMT 48.985291 1.124549 8,150 29 272 -960
2022-06-22 23:01:27 GMT 48.984421 1.123775 8,150 29 272 -960
2022-06-22 23:01:25 GMT 48.982311 1.122051 8,200 29 272 -1024
2022-06-22 23:01:23 GMT 48.980576 1.120535 8,200 29 273 -1024
2022-06-22 23:01:22 GMT 48.978790 1.119056 8,225 29 273 -1024
2022-06-22 23:01:20 GMT 48.976585 1.117208 8,275 28 274 -1024
2022-06-22 23:01:19 GMT 48.975468 1.116269 8,275 28 274 -1024
2022-06-22 23:01:18 GMT 48.973930 1.114968 8,300 28 275 -1024
2022-06-22 23:01:15 GMT 48.971138 1.112655 8,350 28 276 -1024
2022-06-22 23:01:12 GMT 48.967274 1.109330 8,450 28 276 -1024
2022-06-22 23:01:10 GMT 48.964828 1.107295 8,450 28 276 -1024
2022-06-22 23:01:09 GMT 48.963684 1.106380 8,450 28 276 -1024
2022-06-22 23:01:06 GMT 48.960892 1.103985 8,500 28 276 -1024
2022-06-22 23:01:05 GMT 48.959793 1.103070 8,525 28 276 -1024
2022-06-22 23:01:03 GMT 48.958237 1.101732 8,550 29 277 -960
2022-06-22 23:01:02 GMT 48.956314 1.100112 8,575 29 277 -1024
2022-06-22 23:01:01 GMT 48.955170 1.099196 8,575 29 277 -1024
2022-06-22 23:01:00 GMT 48.953495 1.097765 8,600 28 278 -1024
2022-06-22 23:00:58 GMT 48.952053 1.096537 8,625 28 278 -1024
2022-06-22 23:00:57 GMT 48.948441 1.093492 8,675 28 278 -1024
2022-06-22 23:00:55 GMT 48.948441 1.093492 8,675 28 278 -1024
2022-06-22 23:00:54 GMT 48.947525 1.092717 8,700 28 279 -1024
2022-06-22 23:00:53 GMT 48.946381 1.091802 8,725 28 279 -1024
2022-06-22 23:00:51 GMT 48.944046 1.089830 8,750 29 280 -1024
2022-06-22 23:00:50 GMT 48.941757 1.087928 8,800 28 281 -1024
2022-06-22 23:00:47 GMT 48.939377 1.085886 8,825 28 281 -1024
2022-06-22 23:00:45 GMT 48.936874 1.083816 8,850 28 281 -1024
2022-06-22 23:00:44 GMT 48.935852 1.082928 8,875 28 281 -1024
2022-06-22 23:00:41 GMT 48.931183 1.079055 8,950 28 281 -1024
2022-06-22 23:00:37 GMT 48.927887 1.076308 9,000 28 282 -1024
2022-06-22 23:00:36 GMT 48.926868 1.075431 9,000 28 282 -1024
2022-06-22 23:00:34 GMT 48.924683 1.073632 9,025 28 282 -1024
2022-06-22 23:00:33 GMT 48.923515 1.072685 9,050 28 283 -1024
2022-06-22 23:00:32 GMT 48.921234 1.070733 9,100 28 283 -1024
2022-06-22 23:00:30 GMT 48.920105 1.069758 9,125 28 284 -1024
2022-06-22 23:00:29 GMT 48.918816 1.068710 9,125 28 284 -1024
2022-06-22 23:00:28 GMT 48.916855 1.067082 9,150 28 285 -1024
2022-06-22 23:00:25 GMT 48.914658 1.065251 9,175 28 285 -1024
2022-06-22 23:00:24 GMT 48.913414 1.064228 9,225 28 285 -1024
2022-06-22 23:00:23 GMT 48.912155 1.063144 9,250 28 285 -1024
2022-06-22 23:00:21 GMT 48.910061 1.061409 9,250 28 285 -1024
2022-06-22 23:00:20 GMT 48.909027 1.060603 9,300 28 285 -1024
2022-06-22 23:00:18 GMT 48.906246 1.058301 9,325 28 285 -1024
2022-06-22 23:00:17 GMT 48.904942 1.057217 9,350 28 287 -1024
2022-06-22 23:00:15 GMT 48.902615 1.055266 9,375 28 287 -1024
2022-06-22 23:00:14 GMT 48.901356 1.054254 9,400 28 287 -960
2022-06-22 23:00:12 GMT 48.899261 1.052519 9,400 28 287 -960
2022-06-22 23:00:11 GMT 48.898224 1.051589 9,425 28 288 -960
2022-06-22 23:00:09 GMT 48.895523 1.049406 9,450 28 288 -960
2022-06-22 23:00:07 GMT 48.891907 1.046377 9,500 28 289 -960
2022-06-22 23:00:04 GMT 48.890259 1.045039 9,525 28 289 -1024
2022-06-22 23:00:03 GMT 48.888973 1.043918 9,575 28 290 -1088
2022-06-22 23:00:02 GMT 48.886597 1.042011 9,575 28 290 -1024
2022-06-22 23:00:00 GMT 48.884995 1.040602 9,650 28 290 -1088
2022-06-22 22:59:58 GMT 48.883106 1.039075 9,675 28 291 -1088
2022-06-22 22:59:56 GMT 48.880875 1.037152 9,700 28 291 -1088
2022-06-22 22:59:55 GMT 48.878033 1.034811 9,725 28 291 -1088
2022-06-22 22:59:53 GMT 48.877335 1.034233 9,750 28 291 -1152
2022-06-22 22:59:51 GMT 48.874512 1.031870 9,775 28 291 -1152
2022-06-22 22:59:50 GMT 48.873425 1.030980 9,825 28 292 -1152
2022-06-22 22:59:49 GMT 48.870956 1.028884 9,850 28 292 -1216
2022-06-22 22:59:47 GMT 48.869888 1.027996 9,875 28 292 -1152
2022-06-22 22:59:46 GMT 48.867283 1.025776 9,900 28 292 -1088
2022-06-22 22:59:44 GMT 48.866116 1.024836 9,925 28 293 -1216
2022-06-22 22:59:42 GMT 48.863743 1.022885 9,975 28 292 -1216
2022-06-22 22:59:41 GMT 48.862671 1.021945 9,975 27 293 -1280
2022-06-22 22:59:39 GMT 48.860531 1.020211 10,025 27 293 -1280
2022-06-22 22:59:38 GMT 48.859177 1.019123 10,050 26 293 -1152
2022-06-22 22:59:37 GMT 48.855316 1.016163 10,100 25 294 -1024
2022-06-22 22:59:35 GMT 48.855316 1.016163 10,100 24 293 -1088
2022-06-22 22:59:33 GMT 48.852989 1.014428 10,150 21 294 -1216
2022-06-22 22:59:31 GMT 48.850986 1.013127 10,150 21 294 -1216
2022-06-22 22:59:29 GMT 48.848381 1.011393 10,225 19 295 -1152
2022-06-22 22:59:28 GMT 48.847588 1.011031 10,225 18 295 -1216
2022-06-22 22:59:27 GMT 48.842514 1.008502 10,275 13 295 -1216
2022-06-22 22:59:25 GMT 48.842514 1.008502 10,300 12 296 -1280
2022-06-22 22:59:23 GMT 48.839954 1.007490 10,325 9 297 -1280
2022-06-22 22:59:22 GMT 48.838760 1.007151 10,350 8 297 -1280
2022-06-22 22:59:20 GMT 48.835876 1.006376 10,400 7 298 -1280
2022-06-22 22:59:19 GMT 48.834503 1.006094 10,425 5 299 -1216
2022-06-22 22:59:16 GMT 48.828873 1.005319 10,500 3 300 -1216
2022-06-22 22:59:14 GMT 48.827618 1.005177 10,525 3 301 -1280
2022-06-22 22:59:13 GMT 48.823566 1.004815 10,575 3 301 -1280
2022-06-22 22:59:11 GMT 48.823566 1.004815 10,600 3 301 -1216
2022-06-22 22:59:09 GMT 48.821053 1.004599 10,625 3 302 -1216
2022-06-22 22:59:08 GMT 48.818298 1.004333 10,675 3 302 -1280
2022-06-22 22:59:06 GMT 48.816879 1.004263 10,700 3 302 -1280
2022-06-22 22:59:04 GMT 48.813950 1.003981 10,725 3 302 -1280
2022-06-22 22:59:03 GMT 48.812164 1.003803 10,750 3 302 -1280
2022-06-22 22:59:01 GMT 48.809921 1.003629 10,825 3 302 -1344
2022-06-22 22:59:00 GMT 48.807953 1.003418 10,825 3 302 -1344
2022-06-22 22:58:59 GMT 48.805298 1.003207 10,875 3 302 -1408
2022-06-22 22:58:56 GMT 48.802780 1.002995 10,925 3 302 -1472
2022-06-22 22:58:54 GMT 48.800014 1.002719 10,975 3 302 -1536
2022-06-22 22:58:53 GMT 48.798058 1.002502 11,000 3 302 -1536
2022-06-22 22:58:52 GMT 48.794403 1.002150 11,075 3 301 -1536
2022-06-22 22:58:50 GMT 48.794403 1.002150 11,075 3 301 -1536
2022-06-22 22:58:47 GMT 48.791061 1.001798 11,125 3 301 -1536
2022-06-22 22:58:46 GMT 48.787445 1.001418 11,175 4 301 -1536
2022-06-22 22:58:45 GMT 48.784378 1.001094 11,225 4 301 -1536
2022-06-22 22:58:43 GMT 48.784378 1.001094 11,250 4 301 -1536
2022-06-22 22:58:41 GMT 48.781906 1.000812 11,300 4 300 -1536
2022-06-22 22:58:39 GMT 48.778976 1.000460 11,350 4 300 -1472
2022-06-22 22:58:37 GMT 48.775761 1.000117 11,400 4 300 -1472
2022-06-22 22:58:36 GMT 48.774780 0.999973 11,425 4 300 -1408
2022-06-22 22:58:34 GMT 48.772034 0.999684 11,475 4 300 -1408
2022-06-22 22:58:33 GMT 48.770645 0.999545 11,500 4 300 -1344
2022-06-22 22:58:30 GMT 48.766342 0.999052 11,575 4 300 -1408
2022-06-22 22:58:29 GMT 48.763550 0.998770 11,625 4 300 -1408
2022-06-22 22:58:27 GMT 48.762306 0.998672 11,625 4 300 -1408
2022-06-22 22:58:25 GMT 48.758816 0.998238 11,700 4 300 -1408
2022-06-22 22:58:24 GMT 48.757744 0.998166 11,700 4 300 -1344
2022-06-22 22:58:23 GMT 48.756348 0.998021 11,725 3 301 -1344
2022-06-22 22:58:21 GMT 48.753845 0.997714 11,775 4 300 -1344
2022-06-22 22:58:19 GMT 48.750622 0.997371 11,825 4 300 -1408
2022-06-22 22:58:18 GMT 48.749641 0.997298 11,850 4 300 -1344
2022-06-22 22:58:17 GMT 48.745377 0.996868 11,900 3 301 -1344
2022-06-22 22:58:15 GMT 48.745377 0.996868 11,900 3 301 -1344
2022-06-22 22:58:13 GMT 48.740891 0.996359 11,975 3 301 -1408
2022-06-22 22:58:11 GMT 48.740891 0.996359 11,975 3 300 -1408
2022-06-22 22:58:08 GMT 48.736725 0.995953 12,050 3 301 -1344
2022-06-22 22:58:06 GMT 48.733955 0.995708 12,100 3 301 -1344
2022-06-22 22:58:04 GMT 48.731323 0.995389 12,150 3 301 -1408
2022-06-22 22:58:03 GMT 48.729813 0.995275 12,175 3 301 -1408
2022-06-22 22:58:02 GMT 48.728394 0.995108 12,200 3 301 -1344
2022-06-22 22:58:01 GMT 48.726879 0.994985 12,225 3 301 -1344
2022-06-22 22:57:59 GMT 48.723816 0.994685 12,275 3 301 -1344
2022-06-22 22:57:58 GMT 48.722717 0.994544 12,275 3 301 -1344
2022-06-22 22:57:57 GMT 48.720081 0.994263 12,325 3 301 -1344
2022-06-22 22:57:55 GMT 48.717987 0.994046 12,350 3 301 -1344
2022-06-22 22:57:54 GMT 48.717270 0.993981 12,375 3 301 -1280
2022-06-22 22:57:53 GMT 48.712418 0.993558 12,425 3 301 -1280
2022-06-22 22:57:51 GMT 48.712418 0.993558 12,450 3 301 -1280
2022-06-22 22:57:49 GMT 48.709747 0.993251 12,500 3 301 -1280
2022-06-22 22:57:48 GMT 48.708389 0.993136 12,500 3 301 -1216
2022-06-22 22:57:47 GMT 48.707245 0.992995 12,525 3 302 -1216
2022-06-22 22:57:45 GMT 48.702812 0.992600 12,600 3 302 -1152
2022-06-22 22:57:43 GMT 48.701416 0.992456 12,625 3 302 -1152
2022-06-22 22:57:41 GMT 48.699051 0.992220 12,625 3 303 -1152
2022-06-22 22:57:40 GMT 48.697506 0.992022 12,650 3 303 -1152
2022-06-22 22:57:38 GMT 48.694572 0.991733 12,725 3 303 -1152
2022-06-22 22:57:36 GMT 48.691639 0.991444 12,775 3 303 -1216
2022-06-22 22:57:34 GMT 48.687424 0.990953 12,800 4 304 -1088
2022-06-22 22:57:33 GMT 48.687424 0.990953 12,800 4 304 -1088
2022-06-22 22:57:32 GMT 48.683910 0.990576 12,850 4 304 -1216
2022-06-22 22:57:29 GMT 48.681259 0.990287 12,875 4 304 -1216
2022-06-22 22:57:28 GMT 48.680420 0.990215 12,900 4 304 -1152
2022-06-22 22:57:27 GMT 48.678589 0.990037 12,925 4 304 -1152
2022-06-22 22:57:26 GMT 48.677307 0.989896 12,950 4 305 -1152
2022-06-22 22:57:25 GMT 48.673920 0.989474 12,975 4 305 -1152
2022-06-22 22:57:23 GMT 48.672691 0.989348 13,000 4 305 -1216
2022-06-22 22:57:21 GMT 48.670990 0.989122 13,050 4 306 -1152
2022-06-22 22:57:20 GMT 48.668037 0.988770 13,050 4 306 -1152
2022-06-22 22:57:18 GMT 48.666920 0.988625 13,100 4 306 -1152
2022-06-22 22:57:17 GMT 48.663254 0.988206 13,125 4 307 -1152
2022-06-22 22:57:14 GMT 48.659134 0.987643 13,175 4 307 -1152
2022-06-22 22:57:11 GMT 48.656307 0.987324 13,225 4 308 -1152
2022-06-22 22:57:10 GMT 48.652771 0.986868 13,275 4 308 -1152
2022-06-22 22:57:08 GMT 48.652771 0.986868 13,275 4 308 -1152
2022-06-22 22:57:06 GMT 48.649929 0.986529 13,325 4 308 -1152
2022-06-22 22:57:04 GMT 48.647228 0.986168 13,400 4 308 -1088
2022-06-22 22:57:02 GMT 48.643661 0.985741 13,400 4 308 -1088
2022-06-22 22:57:00 GMT 48.641556 0.985460 13,425 4 309 -1088
2022-06-22 22:56:59 GMT 48.636566 0.984896 13,475 4 309 -1024
2022-06-22 22:56:57 GMT 48.636566 0.984896 13,500 4 309 -960
2022-06-22 22:56:56 GMT 48.632008 0.984288 13,550 4 309 -1024
2022-06-22 22:56:54 GMT 48.632008 0.984288 13,550 4 309 -1024
2022-06-22 22:56:52 GMT 48.626633 0.983628 13,600 4 309 -1024
2022-06-22 22:56:50 GMT 48.626633 0.983628 13,600 4 309 -960
2022-06-22 22:56:48 GMT 48.623749 0.983276 13,650 4 309 -960
2022-06-22 22:56:47 GMT 48.622192 0.983065 13,650 4 310 -1024
2022-06-22 22:56:46 GMT 48.619904 0.982783 13,675 4 310 -960
2022-06-22 22:56:44 GMT 48.617901 0.982554 13,700 4 310 -960
2022-06-22 22:56:43 GMT 48.616505 0.982409 13,725 4 310 -1024
2022-06-22 22:56:41 GMT 48.612362 0.981831 13,750 4 310 -1024
2022-06-22 22:56:40 GMT 48.612362 0.981831 13,775 4 309 -1024
2022-06-22 22:56:39 GMT 48.609798 0.981542 13,800 5 309 -960
2022-06-22 22:56:36 GMT 48.606949 0.981164 13,850 5 309 -960
2022-06-22 22:56:35 GMT 48.601959 0.980530 13,900 5 309 -1024
2022-06-22 22:56:33 GMT 48.601959 0.980530 13,900 5 309 -1024
2022-06-22 22:56:31 GMT 48.599232 0.980168 13,925 5 310 -1024
2022-06-22 22:56:29 GMT 48.596100 0.979755 13,950 5 310 -1024
2022-06-22 22:56:28 GMT 48.595276 0.979614 13,975 5 311 -1024
2022-06-22 22:56:27 GMT 48.590946 0.979084 14,025 5 311 -1024
2022-06-22 22:56:25 GMT 48.590946 0.979084 14,050 5 311 -1024
2022-06-22 22:56:23 GMT 48.587967 0.978651 14,050 5 312 -1024
2022-06-22 22:56:22 GMT 48.586075 0.978417 14,075 5 312 -1024
2022-06-22 22:56:21 GMT 48.582939 0.977928 14,125 5 313 -1024
2022-06-22 22:56:18 GMT 48.580051 0.977566 14,150 5 313 -1024
2022-06-22 22:56:16 GMT 48.577446 0.977205 14,175 5 314 -1024
2022-06-22 22:56:14 GMT 48.573860 0.976627 14,225 5 314 -1024
2022-06-22 22:56:11 GMT 48.570969 0.976234 14,275 5 314 -1024
2022-06-22 22:56:09 GMT 48.567490 0.975670 14,300 5 315 -1024
2022-06-22 22:56:08 GMT 48.564598 0.975253 14,325 5 315 -1024
2022-06-22 22:56:05 GMT 48.560852 0.974614 14,375 6 316 -1024
2022-06-22 22:56:03 GMT 48.559525 0.974458 14,400 6 316 -1024
2022-06-22 22:56:01 GMT 48.556637 0.973952 14,425 6 317 -1024
2022-06-22 22:56:00 GMT 48.553566 0.973446 14,500 6 318 -1024
2022-06-22 22:55:57 GMT 48.549179 0.972783 14,500 6 318 -1024
2022-06-22 22:55:55 GMT 48.547142 0.972435 14,525 6 318 -1024
2022-06-22 22:55:52 GMT 48.543045 0.971712 14,575 6 318 -1024
2022-06-22 22:55:51 GMT 48.541580 0.971515 14,600 5 319 -960
2022-06-22 22:55:50 GMT 48.540390 0.971304 14,600 5 319 -960
2022-06-22 22:55:49 GMT 48.537178 0.970772 14,650 5 319 -960
2022-06-22 22:55:47 GMT 48.535538 0.970529 14,650 5 320 -960
2022-06-22 22:55:46 GMT 48.532894 0.970122 14,700 5 320 -896
2022-06-22 22:55:43 GMT 48.528053 0.969399 14,750 5 320 -896
2022-06-22 22:55:40 GMT 48.523911 0.968769 14,775 5 320 -832
2022-06-22 22:55:38 GMT 48.522720 0.968558 14,800 5 320 -768
2022-06-22 22:55:37 GMT 48.521255 0.968346 14,800 5 320 -768
2022-06-22 22:55:35 GMT 48.518143 0.967924 14,825 5 320 -768
2022-06-22 22:55:34 GMT 48.516834 0.967664 14,850 5 320 -704
2022-06-22 22:55:33 GMT 48.515488 0.967501 14,850 5 320 -640
2022-06-22 22:55:31 GMT 48.512421 0.967008 14,875 5 320 -576
2022-06-22 22:55:30 GMT 48.510784 0.966725 14,875 5 320 -512
2022-06-22 22:55:28 GMT 48.507843 0.966304 14,900 5 320 -512
2022-06-22 22:55:26 GMT 48.505058 0.965857 14,900 5 320 -512
2022-06-22 22:55:25 GMT 48.502991 0.965529 14,925 6 319 -512
2022-06-22 22:55:24 GMT 48.501659 0.965279 14,925 6 319 -512
2022-06-22 22:55:22 GMT 48.499008 0.964895 14,950 6 318 -448
2022-06-22 22:55:21 GMT 48.497375 0.964629 14,950 6 318 -448
2022-06-22 22:55:19 GMT 48.494305 0.964123 14,975 5 317 -384
2022-06-22 22:55:17 GMT 48.491978 0.963761 14,975 5 317 -384
2022-06-22 22:55:16 GMT 48.489464 0.963400 14,975 5 317 -320
2022-06-22 22:55:14 GMT 48.486855 0.962966 15,000 5 316 -192
2022-06-22 22:55:13 GMT 48.483032 0.962360 15,000 6 316 -128
2022-06-22 22:55:09 GMT 48.479965 0.961867 15,000 6 316 0
2022-06-22 22:55:08 GMT 48.477951 0.961515 15,000 6 317 64
2022-06-22 22:55:06 GMT 48.474884 0.961022 15,000 6 317 64
2022-06-22 22:55:05 GMT 48.473541 0.960870 15,000 6 317 64
2022-06-22 22:55:03 GMT 48.470936 0.960436 15,000 6 317 0
2022-06-22 22:55:02 GMT 48.466553 0.959754 15,000 5 317 0
2022-06-22 22:55:00 GMT 48.466553 0.959754 15,000 5 317 -64
2022-06-22 22:54:58 GMT 48.464230 0.959352 15,000 5 317 -64
2022-06-22 22:54:56 GMT 48.461472 0.958909 15,000 5 316 -64
2022-06-22 22:54:55 GMT 48.459274 0.958557 15,000 4 317 64
2022-06-22 22:54:53 GMT 48.457062 0.958268 15,000 4 317 64
2022-06-22 22:54:52 GMT 48.453430 0.957690 15,000 4 316 64
2022-06-22 22:54:49 GMT 48.450638 0.957328 15,000 4 316 64
2022-06-22 22:54:48 GMT 48.449196 0.957184 15,000 3 316 64
2022-06-22 22:54:47 GMT 48.445843 0.956822 15,000 3 316 64
2022-06-22 22:54:45 GMT 48.444534 0.956656 15,000 2 316 64
2022-06-22 22:54:43 GMT 48.441605 0.956444 15,000 1 317 0
2022-06-22 22:54:41 GMT 48.438347 0.956244 15,000 1 317 0
2022-06-22 22:54:40 GMT 48.436905 0.956172 15,000 1 317 0
2022-06-22 22:54:39 GMT 48.436020 0.956100 15,000 0 318 0
2022-06-22 22:54:36 GMT 48.431030 0.955951 15,000 0 318 -64
2022-06-22 22:54:34 GMT 48.428059 0.955955 15,000 0 318 -64
2022-06-22 22:54:33 GMT 48.425594 0.955883 15,000 0 318 -64
2022-06-22 22:54:30 GMT 48.423386 0.955811 15,000 0 318 -64
2022-06-22 22:54:29 GMT 48.421005 0.955811 15,000 0 318 0
2022-06-22 22:54:28 GMT 48.419403 0.955740 15,000 0 317 0
2022-06-22 22:54:25 GMT 48.412094 0.955666 15,000 0 317 64
2022-06-22 22:54:23 GMT 48.412094 0.955666 15,000 0 317 64
2022-06-22 22:54:22 GMT 48.410603 0.955594 15,000 0 317 0
2022-06-22 22:54:21 GMT 48.407684 0.955529 15,000 0 317 0
2022-06-22 22:54:18 GMT 48.405029 0.955529 15,000 0 317 0
2022-06-22 22:54:16 GMT 48.399902 0.955388 15,000 0 317 0
2022-06-22 22:54:12 GMT 48.396683 0.955377 15,000 0 318 0
2022-06-22 22:54:10 GMT 48.394310 0.955305 15,000 0 318 0
2022-06-22 22:54:08 GMT 48.390678 0.955232 15,000 0 318 0
2022-06-22 22:54:06 GMT 48.386856 0.955177 15,000 0 318 0
2022-06-22 22:54:05 GMT 48.386116 0.955160 15,000 0 318 0
2022-06-22 22:54:03 GMT 48.383881 0.955106 15,000 0 318 0
2022-06-22 22:54:01 GMT 48.380947 0.955015 15,000 0 318 0
2022-06-22 22:54:00 GMT 48.378017 0.954943 15,000 0 318 0
2022-06-22 22:53:58 GMT 48.376526 0.954871 15,000 1 318 0
2022-06-22 22:53:57 GMT 48.374943 0.954871 15,000 1 318 0
2022-06-22 22:53:54 GMT 48.370522 0.954726 15,000 1 319 0
2022-06-22 22:53:52 GMT 48.367401 0.954654 15,000 1 319 0
2022-06-22 22:53:51 GMT 48.366238 0.954654 15,000 1 319 0
2022-06-22 22:53:49 GMT 48.363281 0.954543 15,000 1 319 0
2022-06-22 22:53:47 GMT 48.360352 0.954472 15,000 1 319 0
2022-06-22 22:53:45 GMT 48.356964 0.954332 15,000 1 319 0
2022-06-22 22:53:43 GMT 48.353855 0.954293 15,000 1 319 0
2022-06-22 22:53:41 GMT 48.350647 0.954191 15,000 1 319 0
2022-06-22 22:53:40 GMT 48.349293 0.954148 15,000 1 319 0
2022-06-22 22:53:38 GMT 48.346344 0.954050 15,000 1 319 0
2022-06-22 22:53:37 GMT 48.344879 0.953979 15,000 1 319 0
2022-06-22 22:53:35 GMT 48.341938 0.953859 15,000 1 319 0
2022-06-22 22:53:34 GMT 48.340302 0.953839 15,000 1 319 0
2022-06-22 22:53:31 GMT 48.335770 0.953698 15,000 1 318 0
2022-06-22 22:53:29 GMT 48.333115 0.953627 15,000 1 318 0
2022-06-22 22:53:28 GMT 48.329556 0.953498 15,000 1 318 0
2022-06-22 22:53:25 GMT 48.326900 0.953425 15,000 1 319 0
2022-06-22 22:53:23 GMT 48.323685 0.953346 15,000 1 319 64
2022-06-22 22:53:21 GMT 48.318382 0.953136 15,000 1 319 64
2022-06-22 22:53:19 GMT 48.318382 0.953136 15,000 1 319 0
2022-06-22 22:53:16 GMT 48.311447 0.952919 15,000 1 319 0
2022-06-22 22:53:14 GMT 48.311447 0.952919 15,000 1 319 0
2022-06-22 22:53:13 GMT 48.308533 0.952782 15,000 1 319 0
2022-06-22 22:53:10 GMT 48.305557 0.952712 15,000 1 319 0
2022-06-22 22:53:09 GMT 48.303497 0.952641 15,000 1 319 -64
2022-06-22 22:53:06 GMT 48.299240 0.952501 15,000 1 319 -64
2022-06-22 22:53:04 GMT 48.296402 0.952360 15,000 1 319 0
2022-06-22 22:53:03 GMT 48.293896 0.952269 15,000 1 318 0
2022-06-22 22:53:01 GMT 48.292603 0.952219 15,000 1 318 0
2022-06-22 22:52:59 GMT 48.289215 0.952148 15,000 1 318 0
2022-06-22 22:52:58 GMT 48.287567 0.952078 15,000 1 318 0
2022-06-22 22:52:56 GMT 48.284492 0.951980 15,000 1 318 0
2022-06-22 22:52:55 GMT 48.283192 0.951908 15,000 1 318 0
2022-06-22 22:52:53 GMT 48.280380 0.951796 15,000 1 318 0
2022-06-22 22:52:50 GMT 48.275974 0.951618 15,000 1 317 0
2022-06-22 22:52:48 GMT 48.272903 0.951546 15,000 1 317 0
2022-06-22 22:52:46 GMT 48.270126 0.951444 15,000 1 317 0
2022-06-22 22:52:45 GMT 48.267334 0.951374 15,000 1 317 64
2022-06-22 22:52:43 GMT 48.264244 0.951257 15,000 1 317 0
2022-06-22 22:52:41 GMT 48.262798 0.951185 15,000 1 317 0
2022-06-22 22:52:39 GMT 48.260006 0.951112 15,000 1 317 0
2022-06-22 22:52:38 GMT 48.258408 0.951022 15,000 1 318 0
2022-06-22 22:52:37 GMT 48.257217 0.951022 15,000 1 318 0
2022-06-22 22:52:36 GMT 48.253418 0.950881 15,000 1 318 0
2022-06-22 22:52:34 GMT 48.252502 0.950810 15,000 1 318 0
2022-06-22 22:52:32 GMT 48.249573 0.950740 15,000 1 318 0
2022-06-22 22:52:31 GMT 48.247971 0.950670 15,000 1 318 0
2022-06-22 22:52:29 GMT 48.245155 0.950534 15,000 1 318 0
2022-06-22 22:52:28 GMT 48.243713 0.950534 15,000 1 318 0
2022-06-22 22:52:26 GMT 48.240643 0.950390 15,000 1 318 64
2022-06-22 22:52:24 GMT 48.237671 0.950317 15,000 1 318 64
2022-06-22 22:52:23 GMT 48.236206 0.950247 15,000 1 318 64
2022-06-22 22:52:21 GMT 48.233425 0.950101 15,000 1 318 0
2022-06-22 22:52:19 GMT 48.230484 0.950036 15,000 1 318 0
2022-06-22 22:52:18 GMT 48.228863 0.949956 15,000 1 318 0
2022-06-22 22:52:16 GMT 48.225464 0.949811 15,000 1 318 0
2022-06-22 22:52:15 GMT 48.224022 0.949739 15,000 1 318 0
2022-06-22 22:52:13 GMT 48.221230 0.949667 15,000 1 318 0
2022-06-22 22:52:12 GMT 48.219910 0.949613 15,000 1 318 0
2022-06-22 22:52:11 GMT 48.218719 0.949543 15,000 1 318 0
2022-06-22 22:52:09 GMT 48.215607 0.949402 15,000 1 318 0
2022-06-22 22:52:07 GMT 48.212677 0.949331 15,000 1 318 0
2022-06-22 22:52:05 GMT 48.210617 0.949261 15,000 1 317 0
2022-06-22 22:52:04 GMT 48.207962 0.949161 15,000 1 317 0
2022-06-22 22:52:03 GMT 48.206516 0.949089 15,000 1 317 0
2022-06-22 22:52:01 GMT 48.203293 0.948979 15,000 1 317 0
2022-06-22 22:51:59 GMT 48.200363 0.948838 15,000 1 316 0
2022-06-22 22:51:57 GMT 48.197720 0.948800 15,000 1 316 0
2022-06-22 22:51:55 GMT 48.194508 0.948655 15,000 1 316 -64
2022-06-22 22:51:54 GMT 48.192879 0.948583 15,000 1 316 -64
2022-06-22 22:51:53 GMT 48.192169 0.948557 15,000 1 316 -64
2022-06-22 22:51:52 GMT 48.190430 0.948557 15,000 1 316 0
2022-06-22 22:51:50 GMT 48.187363 0.948416 15,000 1 316 0
2022-06-22 22:51:49 GMT 48.186035 0.948366 15,000 1 316 0
2022-06-22 22:51:48 GMT 48.182682 0.948294 15,000 1 316 0
2022-06-22 22:51:45 GMT 48.177429 0.948134 15,000 1 316 64
2022-06-22 22:51:43 GMT 48.177429 0.948134 15,000 1 316 64
2022-06-22 22:51:41 GMT 48.174210 0.948004 15,000 1 316 64
2022-06-22 22:51:40 GMT 48.169968 0.947853 15,000 1 316 0
2022-06-22 22:51:38 GMT 48.169968 0.947853 15,000 1 317 0
2022-06-22 22:51:36 GMT 48.167175 0.947782 15,000 1 317 0
2022-06-22 22:51:35 GMT 48.165710 0.947712 15,000 1 317 0
2022-06-22 22:51:34 GMT 48.164246 0.947641 15,000 1 317 0
2022-06-22 22:51:32 GMT 48.161179 0.947571 15,000 1 317 0
2022-06-22 22:51:31 GMT 48.158241 0.947430 15,000 1 317 0
2022-06-22 22:51:28 GMT 48.155312 0.947360 15,000 1 317 0
2022-06-22 22:51:26 GMT 48.153122 0.947296 15,000 1 317 0
2022-06-22 22:51:25 GMT 48.151680 0.947219 15,000 1 317 0
2022-06-22 22:51:23 GMT 48.146374 0.947078 15,000 1 317 0
2022-06-22 22:51:20 GMT 48.141998 0.946884 15,000 1 317 0
2022-06-22 22:51:17 GMT 48.137741 0.946747 15,000 1 316 0
2022-06-22 22:51:14 GMT 48.135525 0.946655 15,000 1 316 0
2022-06-22 22:51:11 GMT 48.131149 0.946541 15,000 1 317 0
2022-06-22 22:51:10 GMT 48.129684 0.946472 15,000 1 317 0
2022-06-22 22:51:08 GMT 48.127472 0.946374 15,000 1 317 0
2022-06-22 22:51:07 GMT 48.125153 0.946335 15,000 1 317 0
2022-06-22 22:51:05 GMT 48.120911 0.946162 15,000 1 317 0
2022-06-22 22:51:02 GMT 48.118397 0.946092 15,000 1 317 0
2022-06-22 22:51:00 GMT 48.116226 0.946060 15,000 1 317 0
2022-06-22 22:50:59 GMT 48.113880 0.945951 15,000 1 317 0
2022-06-22 22:50:58 GMT 48.112434 0.945951 15,000 1 317 0
2022-06-22 22:50:56 GMT 48.108479 0.945810 15,000 1 317 64
2022-06-22 22:50:54 GMT 48.106991 0.945740 15,000 1 317 64
2022-06-22 22:50:53 GMT 48.104942 0.945669 15,000 1 317 64
2022-06-22 22:50:51 GMT 48.102146 0.945599 15,000 1 317 0
2022-06-22 22:50:50 GMT 48.100704 0.945528 15,000 1 317 0
2022-06-22 22:50:48 GMT 48.097778 0.945442 15,000 1 317 0
2022-06-22 22:50:47 GMT 48.096313 0.945442 15,000 1 317 -64
2022-06-22 22:50:45 GMT 48.093208 0.945317 15,000 1 317 -64
2022-06-22 22:50:44 GMT 48.091625 0.945247 15,000 1 317 -64
2022-06-22 22:50:41 GMT 48.087482 0.945106 15,000 1 317 0
2022-06-22 22:50:40 GMT 48.084549 0.945030 15,000 1 317 0
2022-06-22 22:50:38 GMT 48.082970 0.944965 15,000 1 317 0
2022-06-22 22:50:37 GMT 48.081478 0.944895 15,000 1 317 0
2022-06-22 22:50:34 GMT 48.077362 0.944756 15,000 1 317 0
2022-06-22 22:50:33 GMT 48.075760 0.944687 15,000 1 317 0
2022-06-22 22:50:32 GMT 48.074448 0.944683 15,000 1 317 0
2022-06-22 22:50:31 GMT 48.072399 0.944613 15,000 1 317 0
2022-06-22 22:50:29 GMT 48.069443 0.944481 15,000 1 317 0
2022-06-22 22:50:27 GMT 48.066536 0.944402 15,000 1 317 0
2022-06-22 22:50:25 GMT 48.058594 0.944069 15,000 1 317 -64
2022-06-22 22:50:22 GMT 48.058594 0.944069 15,000 1 317 0
2022-06-22 22:50:19 GMT 48.050125 0.943794 15,000 1 317 0
2022-06-22 22:50:16 GMT 48.050125 0.943794 15,000 1 317 0
2022-06-22 22:50:14 GMT 48.047791 0.943726 15,000 1 317 0
2022-06-22 22:50:12 GMT 48.044678 0.943588 15,000 1 317 0
2022-06-22 22:50:10 GMT 48.041748 0.943451 15,000 1 317 0
2022-06-22 22:50:09 GMT 48.038681 0.943382 15,000 1 317 0
2022-06-22 22:50:07 GMT 48.037067 0.943275 15,000 1 317 0
2022-06-22 22:50:05 GMT 48.034740 0.943204 15,000 1 317 0
2022-06-22 22:50:04 GMT 48.032505 0.943134 15,000 1 317 0
2022-06-22 22:50:03 GMT 48.029900 0.942993 15,000 1 317 0
2022-06-22 22:50:01 GMT 48.028271 0.942923 15,000 1 318 0
2022-06-22 22:50:00 GMT 48.025616 0.942852 15,000 1 318 0
2022-06-22 22:49:57 GMT 48.020775 0.942641 15,000 1 318 0
2022-06-22 22:49:54 GMT 48.018448 0.942558 15,000 1 318 0
2022-06-22 22:49:53 GMT 48.016388 0.942490 15,000 1 318 0
2022-06-22 22:49:51 GMT 48.011974 0.942289 15,000 1 318 0
2022-06-22 22:49:48 GMT 48.009750 0.942215 15,000 1 318 0
2022-06-22 22:49:47 GMT 48.007690 0.942146 15,000 1 318 0
2022-06-22 22:49:45 GMT 48.003876 0.942007 15,000 1 318 0
2022-06-22 22:49:43 GMT 48.001968 0.941872 15,000 1 318 0
2022-06-22 22:49:42 GMT 48.000366 0.941872 15,000 1 318 0
2022-06-22 22:49:41 GMT 47.997437 0.941734 15,000 1 318 0
2022-06-22 22:49:39 GMT 47.996101 0.941655 15,000 1 317 0
2022-06-22 22:49:38 GMT 47.990387 0.941460 15,000 1 317 0
2022-06-22 22:49:35 GMT 47.990387 0.941460 15,000 1 317 0
2022-06-22 22:49:33 GMT 47.986862 0.941322 15,000 1 317 0
2022-06-22 22:49:32 GMT 47.985394 0.941303 15,000 1 317 0
2022-06-22 22:49:30 GMT 47.982182 0.941162 15,000 1 317 0
2022-06-22 22:49:28 GMT 47.979065 0.941021 15,000 1 317 0
2022-06-22 22:49:25 GMT 47.972626 0.940842 15,000 1 318 0
2022-06-22 22:49:22 GMT 47.970291 0.940704 15,000 1 318 0
2022-06-22 22:49:21 GMT 47.968822 0.940669 15,000 1 318 0
2022-06-22 22:49:20 GMT 47.967499 0.940636 15,000 1 318 0
2022-06-22 22:49:19 GMT 47.963795 0.940528 15,000 1 318 0
2022-06-22 22:49:15 GMT 47.960724 0.940387 15,000 1 318 0
2022-06-22 22:49:14 GMT 47.957932 0.940292 15,000 1 318 0
2022-06-22 22:49:12 GMT 47.956329 0.940224 15,000 1 318 0
2022-06-22 22:49:09 GMT 47.951599 0.940035 15,000 1 318 0
2022-06-22 22:49:08 GMT 47.948666 0.939894 15,000 1 318 0
2022-06-22 22:49:06 GMT 47.947037 0.939824 15,000 1 318 0
2022-06-22 22:49:04 GMT 47.944988 0.939754 15,000 1 318 0
2022-06-22 22:49:03 GMT 47.942780 0.939674 15,000 1 318 0
2022-06-22 22:49:02 GMT 47.941177 0.939606 15,000 1 318 0
2022-06-22 22:48:59 GMT 47.935867 0.939400 15,000 1 317 0
2022-06-22 22:48:57 GMT 47.934422 0.939331 15,000 1 317 0
2022-06-22 22:48:56 GMT 47.932930 0.939331 15,000 1 317 0
2022-06-22 22:48:55 GMT 47.929253 0.939190 15,000 1 317 0
2022-06-22 22:48:53 GMT 47.927948 0.939125 15,000 1 317 0
2022-06-22 22:48:51 GMT 47.924881 0.938988 15,000 1 317 0
2022-06-22 22:48:50 GMT 47.924011 0.938988 15,000 1 317 0
2022-06-22 22:48:48 GMT 47.920643 0.938838 15,000 1 316 0
2022-06-22 22:48:46 GMT 47.918453 0.938768 15,000 1 316 64
2022-06-22 22:48:45 GMT 47.916405 0.938697 15,000 1 316 64
2022-06-22 22:48:44 GMT 47.914913 0.938627 15,000 1 316 64
2022-06-22 22:48:43 GMT 47.910957 0.938556 15,000 1 316 64
2022-06-22 22:48:40 GMT 47.910233 0.938507 15,000 1 316 64
2022-06-22 22:48:39 GMT 47.906296 0.938370 15,000 1 316 64
2022-06-22 22:48:38 GMT 47.906296 0.938370 15,000 1 316 64
2022-06-22 22:48:37 GMT 47.902763 0.938275 15,000 0 317 0
2022-06-22 22:48:35 GMT 47.901489 0.938232 15,000 0 317 0
2022-06-22 22:48:33 GMT 47.898697 0.938164 15,000 0 317 0
2022-06-22 22:48:32 GMT 47.894291 0.938063 15,000 1 317 0
2022-06-22 22:48:30 GMT 47.894291 0.938063 15,000 1 317 0
2022-06-22 22:48:27 GMT 47.890057 0.937993 15,000 1 317 -64
2022-06-22 22:48:25 GMT 47.887253 0.937889 15,000 1 317 -64
2022-06-22 22:48:23 GMT 47.884796 0.937852 15,000 1 317 -64
2022-06-22 22:48:22 GMT 47.882446 0.937752 15,000 2 317 -64
2022-06-22 22:48:20 GMT 47.877869 0.937477 15,000 3 317 -64
2022-06-22 22:48:17 GMT 47.873337 0.937134 15,000 4 317 0
2022-06-22 22:48:14 GMT 47.866638 0.936232 15,000 11 315 0
2022-06-22 22:48:11 GMT 47.866638 0.936232 15,000 11 315 0
2022-06-22 22:48:09 GMT 47.863724 0.935623 15,000 11 315 0
2022-06-22 22:48:08 GMT 47.862305 0.935280 15,000 14 315 0
2022-06-22 22:48:07 GMT 47.860729 0.934753 15,000 14 315 0
2022-06-22 22:48:04 GMT 47.857315 0.933495 15,000 19 315 0
2022-06-22 22:48:02 GMT 47.855469 0.932711 15,000 20 315 0
2022-06-22 22:48:01 GMT 47.852966 0.931366 15,000 22 315 0
2022-06-22 22:47:59 GMT 47.850494 0.929855 15,000 25 316 -64
2022-06-22 22:47:58 GMT 47.849277 0.929119 15,000 29 321 -64
2022-06-22 22:47:56 GMT 47.846375 0.926903 15,000 32 322 -128
2022-06-22 22:47:55 GMT 47.845226 0.925950 15,000 32 322 -128
2022-06-22 22:47:54 GMT 47.843037 0.924049 15,000 38 322 -64
2022-06-22 22:47:52 GMT 47.840103 0.921021 15,000 38 322 -64
2022-06-22 22:47:51 GMT 47.839050 0.919830 15,000 43 322 -64
2022-06-22 22:47:50 GMT 47.837769 0.918320 15,025 43 322 -64
2022-06-22 22:47:48 GMT 47.836624 0.916878 15,025 45 322 -64
2022-06-22 22:47:47 GMT 47.832516 0.911091 15,025 48 322 -64
2022-06-22 22:47:45 GMT 47.832516 0.911091 15,025 52 323 0
2022-06-22 22:47:42 GMT 47.829304 0.905527 15,000 55 324 64
2022-06-22 22:47:39 GMT 47.827583 0.902147 15,000 57 324 64
2022-06-22 22:47:37 GMT 47.825729 0.898132 15,000 60 325 128
2022-06-22 22:47:36 GMT 47.825089 0.896622 15,000 63 326 128
2022-06-22 22:47:32 GMT 47.822369 0.889118 15,000 67 328 128
2022-06-22 22:47:31 GMT 47.821484 0.886230 14,975 70 329 64
2022-06-22 22:47:29 GMT 47.819996 0.880526 14,975 73 330 0
2022-06-22 22:47:28 GMT 47.818737 0.874681 14,975 78 331 -64
2022-06-22 22:47:26 GMT 47.818737 0.874681 14,975 78 331 -64
2022-06-22 22:47:25 GMT 47.817581 0.867096 14,975 82 332 -64
2022-06-22 22:47:23 GMT 47.817581 0.867096 14,975 82 332 -64
2022-06-22 22:47:21 GMT 47.817154 0.863483 15,000 86 332 0
2022-06-22 22:47:20 GMT 47.816734 0.858060 15,000 86 332 0
2022-06-22 22:47:17 GMT 47.816528 0.854393 15,000 87 332 0
2022-06-22 22:47:15 GMT 47.816364 0.851018 15,000 87 332 0
2022-06-22 22:47:12 GMT 47.816177 0.843905 15,000 88 332 0
2022-06-22 22:47:11 GMT 47.816086 0.841651 15,000 88 332 0
2022-06-22 22:47:09 GMT 47.816025 0.837090 15,000 88 332 0
2022-06-22 22:47:08 GMT 47.815887 0.832077 15,000 88 332 0
2022-06-22 22:47:05 GMT 47.815750 0.825485 15,000 88 332 0
2022-06-22 22:47:02 GMT 47.815659 0.822052 15,000 88 332 0
2022-06-22 22:47:01 GMT 47.815479 0.813833 15,000 88 332 0
2022-06-22 22:46:59 GMT 47.815479 0.813833 15,000 88 332 0
2022-06-22 22:46:57 GMT 47.815384 0.808594 15,000 88 332 0
2022-06-22 22:46:56 GMT 47.815338 0.806509 15,000 88 332 0
2022-06-22 22:46:55 GMT 47.815292 0.804044 15,000 88 332 0
2022-06-22 22:46:54 GMT 47.815201 0.799461 15,000 88 332 0
2022-06-22 22:46:52 GMT 47.815155 0.797195 15,000 88 332 0
2022-06-22 22:46:50 GMT 47.815014 0.791016 15,000 88 332 0
2022-06-22 22:46:47 GMT 47.814926 0.787376 15,000 88 332 0
2022-06-22 22:46:46 GMT 47.814873 0.783480 15,000 88 332 0
2022-06-22 22:46:45 GMT 47.814781 0.781015 15,000 88 332 0
2022-06-22 22:46:44 GMT 47.814781 0.779184 15,000 88 332 0
2022-06-22 22:46:43 GMT 47.814594 0.772071 15,000 88 332 0
2022-06-22 22:46:41 GMT 47.814594 0.772071 15,000 88 332 0
2022-06-22 22:46:40 GMT 47.814548 0.769395 15,000 88 332 0
2022-06-22 22:46:38 GMT 47.814453 0.765451 15,000 87 333 -64
2022-06-22 22:46:35 GMT 47.814220 0.755240 15,000 87 333 0
2022-06-22 22:46:33 GMT 47.814220 0.755240 15,000 87 333 0
2022-06-22 22:46:31 GMT 47.814102 0.750847 15,000 87 333 0
2022-06-22 22:46:30 GMT 47.814037 0.748127 15,000 87 334 0
2022-06-22 22:46:29 GMT 47.813992 0.745803 15,000 87 334 0
2022-06-22 22:46:27 GMT 47.813896 0.741225 15,000 87 334 0
2022-06-22 22:46:25 GMT 47.813709 0.732563 15,000 87 335 0
2022-06-22 22:46:23 GMT 47.813709 0.732563 15,000 87 336 0
2022-06-22 22:46:21 GMT 47.813599 0.727707 15,000 87 336 0
2022-06-22 22:46:20 GMT 47.813522 0.725168 15,000 87 336 0
2022-06-22 22:46:18 GMT 47.813416 0.720566 15,000 88 337 0
2022-06-22 22:46:17 GMT 47.813385 0.718478 15,000 88 337 0
2022-06-22 22:46:16 GMT 47.813244 0.713618 15,000 88 338 0
2022-06-22 22:46:14 GMT 47.813198 0.711787 15,000 88 339 0
2022-06-22 22:46:13 GMT 47.813152 0.709463 15,000 88 339 0
2022-06-22 22:46:12 GMT 47.813061 0.704604 15,000 88 340 0
2022-06-22 22:46:10 GMT 47.813004 0.702507 15,000 88 340 0
2022-06-22 22:46:08 GMT 47.812920 0.697843 15,000 88 340 0
2022-06-22 22:46:07 GMT 47.812733 0.690589 15,000 88 340 0
2022-06-22 22:46:05 GMT 47.812733 0.690589 15,000 88 340 0
2022-06-22 22:46:04 GMT 47.812687 0.688265 15,000 88 340 0
2022-06-22 22:46:02 GMT 47.812592 0.683624 15,000 88 340 0
2022-06-22 22:46:00 GMT 47.812500 0.679180 15,000 88 340 0
2022-06-22 22:45:59 GMT 47.812454 0.677032 15,000 88 340 0
2022-06-22 22:45:58 GMT 47.812408 0.673531 15,000 88 340 0
2022-06-22 22:45:56 GMT 47.812222 0.663757 15,000 88 340 0
2022-06-22 22:45:54 GMT 47.812222 0.663757 15,000 88 340 0
2022-06-22 22:45:53 GMT 47.812176 0.661926 15,000 88 340 0
2022-06-22 22:45:49 GMT 47.811989 0.653264 15,000 88 339 0
2022-06-22 22:45:48 GMT 47.811939 0.650940 15,000 88 339 0
2022-06-22 22:45:45 GMT 47.811756 0.643264 15,000 88 339 0
2022-06-22 22:45:43 GMT 47.811661 0.638404 15,000 88 339 0
2022-06-22 22:45:41 GMT 47.811584 0.633705 15,000 88 339 0
2022-06-22 22:45:40 GMT 47.811478 0.628333 15,000 88 339 0
2022-06-22 22:45:37 GMT 47.811382 0.625094 15,000 87 339 0
2022-06-22 22:45:36 GMT 47.811310 0.622307 15,000 87 339 0
2022-06-22 22:45:35 GMT 47.811264 0.619972 15,000 87 339 0
2022-06-22 22:45:34 GMT 47.811104 0.612981 15,000 87 339 0
2022-06-22 22:45:31 GMT 47.811008 0.609530 15,000 87 339 0
2022-06-22 22:45:29 GMT 47.810898 0.605072 15,000 87 339 0
2022-06-22 22:45:26 GMT 47.810684 0.596220 15,000 87 339 0
2022-06-22 22:45:24 GMT 47.810638 0.593896 15,000 87 339 0
2022-06-22 22:45:22 GMT 47.810532 0.589279 15,000 87 339 0
2022-06-22 22:45:20 GMT 47.810406 0.584599 15,000 87 339 0
2022-06-22 22:45:18 GMT 47.810303 0.580627 15,000 87 339 0
2022-06-22 22:45:16 GMT 47.810165 0.575066 15,000 87 339 0
2022-06-22 22:45:15 GMT 47.810078 0.571782 15,000 87 339 0
2022-06-22 22:45:13 GMT 47.809937 0.567375 15,000 87 339 0
2022-06-22 22:45:10 GMT 47.809799 0.562275 15,000 87 339 0
2022-06-22 22:45:09 GMT 47.809708 0.559035 15,000 87 339 0
2022-06-22 22:45:07 GMT 47.809616 0.555496 15,000 87 339 0
2022-06-22 22:45:04 GMT 47.809475 0.549246 15,000 87 339 0
2022-06-22 22:45:02 GMT 47.809334 0.544598 15,000 87 339 0
2022-06-22 22:45:01 GMT 47.809288 0.541992 15,000 87 339 0
2022-06-22 22:44:59 GMT 47.809147 0.535513 15,000 87 339 0
2022-06-22 22:44:56 GMT 47.809010 0.530654 15,000 87 339 0
2022-06-22 22:44:54 GMT 47.808929 0.525764 15,000 88 339 0
2022-06-22 22:44:52 GMT 47.808777 0.520653 15,000 88 339 0
2022-06-22 22:44:51 GMT 47.808746 0.518555 15,000 88 339 0
2022-06-22 22:44:49 GMT 47.808681 0.514808 15,000 88 339 0
2022-06-22 22:44:48 GMT 47.808590 0.511569 15,000 88 338 0
2022-06-22 22:44:47 GMT 47.808563 0.509216 15,000 88 338 0
2022-06-22 22:44:45 GMT 47.808426 0.503654 15,000 88 338 0
2022-06-22 22:44:43 GMT 47.808334 0.499741 15,000 88 338 0
2022-06-22 22:44:40 GMT 47.808170 0.492272 15,000 88 338 0
2022-06-22 22:44:38 GMT 47.808060 0.487175 15,000 88 339 0
2022-06-22 22:44:37 GMT 47.808014 0.484840 15,000 88 339 0
2022-06-22 22:44:36 GMT 47.807831 0.477631 15,000 87 339 0
2022-06-22 22:44:34 GMT 47.807831 0.477631 15,000 87 339 0
2022-06-22 22:44:33 GMT 47.807751 0.473257 15,000 87 339 0
2022-06-22 22:44:31 GMT 47.807693 0.470695 15,000 87 339 0
2022-06-22 22:44:30 GMT 47.807465 0.461838 15,000 87 339 0
2022-06-22 22:44:27 GMT 47.807426 0.459313 15,000 87 339 0
2022-06-22 22:44:25 GMT 47.807373 0.457237 15,000 87 339 0
2022-06-22 22:44:24 GMT 47.807144 0.448820 15,000 87 339 0
2022-06-22 22:44:22 GMT 47.807144 0.448820 15,000 87 339 0
2022-06-22 22:44:19 GMT 47.807007 0.442818 15,000 87 339 0
2022-06-22 22:44:18 GMT 47.806915 0.438115 15,000 87 338 0
2022-06-22 22:44:15 GMT 47.806774 0.433467 15,000 87 338 0
2022-06-22 22:44:13 GMT 47.806686 0.430046 15,000 87 338 0
2022-06-22 22:44:11 GMT 47.806549 0.423729 15,000 87 338 0
2022-06-22 22:44:09 GMT 47.806320 0.413773 15,000 87 338 0
2022-06-22 22:44:06 GMT 47.806320 0.413773 15,000 87 337 0
2022-06-22 22:44:03 GMT 47.806046 0.403130 15,000 87 337 0
2022-06-22 22:43:59 GMT 47.805862 0.395988 15,000 87 337 0
2022-06-22 22:43:57 GMT 47.805752 0.391353 15,000 87 337 0
2022-06-22 22:43:55 GMT 47.805634 0.387886 15,000 87 337 0
2022-06-22 22:43:51 GMT 47.805424 0.378183 15,000 87 337 0
2022-06-22 22:43:48 GMT 47.805283 0.373324 15,000 87 337 0
2022-06-22 22:43:46 GMT 47.805130 0.366600 15,000 87 337 0
2022-06-22 22:43:43 GMT 47.804993 0.360832 15,000 87 337 0
2022-06-22 22:43:40 GMT 47.804817 0.353887 15,000 87 337 0
2022-06-22 22:43:38 GMT 47.804718 0.350464 15,000 87 337 0
2022-06-22 22:43:37 GMT 47.804634 0.346281 15,000 87 337 0
2022-06-22 22:43:35 GMT 47.804489 0.341194 15,000 87 337 0
2022-06-22 22:43:32 GMT 47.804352 0.336844 15,000 87 337 0
2022-06-22 22:43:29 GMT 47.804169 0.329660 15,000 87 337 0
2022-06-22 22:43:27 GMT 47.803982 0.322970 15,000 87 337 0
2022-06-22 22:43:25 GMT 47.803886 0.318815 15,000 87 337 0
2022-06-22 22:43:23 GMT 47.803749 0.313955 15,000 87 337 0
2022-06-22 22:43:19 GMT 47.803562 0.306350 15,000 87 337 0
2022-06-22 22:43:16 GMT 47.803391 0.299377 15,000 87 337 0
2022-06-22 22:43:14 GMT 47.803188 0.291983 15,000 87 337 0
2022-06-22 22:43:12 GMT 47.803097 0.288250 15,000 87 337 0
2022-06-22 22:43:11 GMT 47.803024 0.285233 15,000 87 337 0
2022-06-22 22:43:09 GMT 47.802750 0.275757 15,000 87 337 0
2022-06-22 22:43:06 GMT 47.802750 0.275757 15,000 87 337 0
2022-06-22 22:43:05 GMT 47.802677 0.272968 15,000 87 337 0
2022-06-22 22:43:02 GMT 47.802338 0.259140 15,000 87 337 0
2022-06-22 22:42:59 GMT 47.802338 0.259140 15,000 87 337 0
2022-06-22 22:42:57 GMT 47.802155 0.252892 15,000 87 337 0
2022-06-22 22:42:53 GMT 47.801926 0.244308 15,000 87 337 0
2022-06-22 22:42:50 GMT 47.801792 0.238741 15,000 87 337 0
2022-06-22 22:42:46 GMT 47.801605 0.230220 15,000 87 337 0
2022-06-22 22:42:45 GMT 47.801514 0.226980 15,000 87 337 0
2022-06-22 22:42:42 GMT 47.801281 0.218881 15,000 87 337 0
2022-06-22 22:42:38 GMT 47.801102 0.210114 15,000 87 336 0
2022-06-22 22:42:33 GMT 47.800537 0.188880 15,000 87 336 0
2022-06-22 22:42:29 GMT 47.800537 0.188880 15,000 87 336 0
2022-06-22 22:42:26 GMT 47.800304 0.180359 15,000 87 336 0
2022-06-22 22:42:21 GMT 47.799976 0.168105 15,000 87 336 0
2022-06-22 22:42:19 GMT 47.799976 0.168105 15,000 87 336 0
2022-06-22 22:42:17 GMT 47.799744 0.159161 15,000 87 336 0
2022-06-22 22:42:13 GMT 47.799500 0.152229 15,000 87 336 0
2022-06-22 22:42:10 GMT 47.799316 0.145775 15,000 87 336 0
2022-06-22 22:42:08 GMT 47.799133 0.140900 15,000 87 336 0
2022-06-22 22:42:05 GMT 47.798950 0.134239 15,000 87 336 0
2022-06-22 22:42:02 GMT 47.798580 0.124089 15,000 87 336 0
2022-06-22 22:41:58 GMT 47.798401 0.118309 15,000 87 336 0
2022-06-22 22:41:57 GMT 47.798309 0.115768 15,000 87 336 0
2022-06-22 22:41:55 GMT 47.798161 0.111413 15,000 88 335 0
2022-06-22 22:41:51 GMT 47.797928 0.102891 15,000 88 335 0
2022-06-22 22:41:47 GMT 47.797882 0.093032 15,000 92 334 0
2022-06-22 22:41:45 GMT 47.797928 0.087257 15,000 97 332 0
2022-06-22 22:41:42 GMT 47.798115 0.081764 15,000 97 332 0
2022-06-22 22:41:39 GMT 47.798676 0.074792 15,000 106 330 0
2022-06-22 22:41:37 GMT 47.799591 0.067635 15,000 106 330 0
2022-06-22 22:41:34 GMT 47.801468 0.057819 15,000 114 328 0
2022-06-22 22:41:31 GMT 47.801468 0.057819 15,000 127 326 0
2022-06-22 22:41:28 GMT 47.804123 0.048752 15,000 127 326 0
2022-06-22 22:41:25 GMT 47.805798 0.044016 15,000 127 326 0
2022-06-22 22:41:21 GMT 47.809010 0.036692 15,000 133 326 0
2022-06-22 22:41:17 GMT 47.812637 0.030212 15,000 143 324 0
2022-06-22 22:41:14 GMT 47.815666 0.025635 15,000 143 324 0
2022-06-22 22:41:11 GMT 47.822601 0.017395 15,000 163 320 0
2022-06-22 22:41:08 GMT 47.822601 0.017395 15,000 163 320 0
2022-06-22 22:41:05 GMT 47.825954 0.014226 15,000 163 320 0
2022-06-22 22:41:04 GMT 47.830517 0.010705 15,000 163 320 0
2022-06-22 22:41:02 GMT 47.830517 0.010705 15,000 163 320 0
2022-06-22 22:40:59 GMT 47.834053 0.008662 15,000 163 320 0
2022-06-22 22:40:58 GMT 47.835312 0.008028 15,000 165 312 -64
2022-06-22 22:40:56 GMT 47.837723 0.006866 15,000 167 312 0
2022-06-22 22:40:53 GMT 47.842525 0.005211 15,000 172 312 0
2022-06-22 22:40:52 GMT 47.844994 0.004578 15,000 175 313 0
2022-06-22 22:40:51 GMT 47.846558 0.004326 15,000 176 312 0
2022-06-22 22:40:48 GMT 47.849648 0.003944 15,000 182 313 0
2022-06-22 22:40:47 GMT 47.851364 0.003845 15,000 182 313 0
2022-06-22 22:40:46 GMT 47.852829 0.003845 15,000 184 313 0
2022-06-22 22:40:44 GMT 47.855621 0.003983 15,000 187 313 0
2022-06-22 22:40:42 GMT 47.861526 0.005013 15,000 195 315 0
2022-06-22 22:40:40 GMT 47.861526 0.005013 15,000 195 315 0
2022-06-22 22:40:38 GMT 47.864265 0.005845 15,000 196 316 0
2022-06-22 22:40:37 GMT 47.865967 0.006454 15,000 199 316 0
2022-06-22 22:40:35 GMT 47.868362 0.007465 15,000 201 317 0
2022-06-22 22:40:33 GMT 47.872559 0.009613 15,000 206 318 0
2022-06-22 22:40:31 GMT 47.875397 0.011398 15,000 207 319 0
2022-06-22 22:40:29 GMT 47.877777 0.013115 15,000 209 320 0
2022-06-22 22:40:28 GMT 47.880421 0.015141 15,000 210 319 0
2022-06-22 22:40:25 GMT 47.882980 0.017254 15,000 211 320 0
2022-06-22 22:40:23 GMT 47.885681 0.019578 15,000 211 320 0
2022-06-22 22:40:22 GMT 47.886936 0.020705 15,000 212 321 0
2022-06-22 22:40:21 GMT 47.888985 0.022536 15,000 212 321 0
2022-06-22 22:40:19 GMT 47.890896 0.024226 15,000 212 321 0
2022-06-22 22:40:18 GMT 47.893341 0.026436 15,000 212 322 0
2022-06-22 22:40:16 GMT 47.894714 0.027672 15,000 212 322 0
2022-06-22 22:40:14 GMT 47.897278 0.029938 15,000 212 322 0
2022-06-22 22:40:10 GMT 47.901215 0.033508 15,000 212 322 -64
2022-06-22 22:40:07 GMT 47.905060 0.036873 15,000 211 320 -64
2022-06-22 22:40:04 GMT 47.908997 0.040443 15,000 211 320 0
2022-06-22 22:40:00 GMT 47.913940 0.044838 15,000 211 320 0
2022-06-22 22:39:58 GMT 47.919159 0.049507 15,000 211 320 0
2022-06-22 22:39:56 GMT 47.919159 0.049507 15,000 212 319 64
2022-06-22 22:39:54 GMT 47.923714 0.053594 15,000 212 320 0
2022-06-22 22:39:50 GMT 47.926414 0.055988 15,000 212 320 0
2022-06-22 22:39:47 GMT 47.930557 0.059721 15,000 212 320 0
2022-06-22 22:39:45 GMT 47.933117 0.062045 15,000 212 320 0
2022-06-22 22:39:44 GMT 47.934357 0.063171 15,000 212 320 0
2022-06-22 22:39:43 GMT 47.935638 0.064270 15,000 212 320 0
2022-06-22 22:39:41 GMT 47.939804 0.068047 15,000 212 320 0
2022-06-22 22:39:38 GMT 47.941589 0.069695 15,000 212 320 0
2022-06-22 22:39:36 GMT 47.944244 0.072098 15,000 212 320 0
2022-06-22 22:39:35 GMT 47.947952 0.075394 15,000 212 320 0
2022-06-22 22:39:33 GMT 47.947952 0.075394 15,000 212 320 -64
2022-06-22 22:39:31 GMT 47.951599 0.078735 15,000 212 320 0
2022-06-22 22:39:30 GMT 47.952763 0.079721 15,000 212 319 0
2022-06-22 22:39:29 GMT 47.955788 0.082468 15,000 212 319 0
2022-06-22 22:39:27 GMT 47.957291 0.083839 15,000 212 318 0
2022-06-22 22:39:25 GMT 47.957928 0.084440 15,000 212 318 0
2022-06-22 22:39:24 GMT 47.962967 0.088921 15,000 212 318 0
2022-06-22 22:39:22 GMT 47.964352 0.090215 15,000 211 318 0
2022-06-22 22:39:20 GMT 47.966496 0.092116 15,000 211 318 0
2022-06-22 22:39:17 GMT 47.968414 0.093796 15,000 211 318 64
2022-06-22 22:39:15 GMT 47.970684 0.095849 15,000 211 317 0
2022-06-22 22:39:14 GMT 47.971943 0.096975 15,000 211 317 0
2022-06-22 22:39:13 GMT 47.973198 0.098102 15,000 211 317 0
2022-06-22 22:39:11 GMT 47.975739 0.100319 15,000 211 317 -64
2022-06-22 22:39:09 GMT 47.978256 0.102585 15,000 211 317 0
2022-06-22 22:39:06 GMT 47.982044 0.105990 15,000 211 317 0
2022-06-22 22:39:03 GMT 47.985809 0.109314 15,000 211 317 0
2022-06-22 22:39:01 GMT 47.988327 0.111580 15,000 211 317 0
2022-06-22 22:38:59 GMT 47.991119 0.114018 15,000 211 317 0
2022-06-22 22:38:58 GMT 47.994751 0.117258 15,000 211 317 0
2022-06-22 22:38:56 GMT 47.994751 0.117258 15,000 211 317 0
2022-06-22 22:38:55 GMT 47.996521 0.118878 15,000 211 317 0
2022-06-22 22:38:53 GMT 48.001175 0.122962 15,000 212 316 0
2022-06-22 22:38:51 GMT 48.001175 0.122962 15,000 212 316 0
2022-06-22 22:38:49 GMT 48.004944 0.126343 15,000 212 315 0
2022-06-22 22:38:46 GMT 48.007927 0.129019 15,000 212 315 0
2022-06-22 22:38:44 GMT 48.010437 0.131287 15,000 212 315 0
2022-06-22 22:38:42 GMT 48.012177 0.132866 15,000 212 315 0
2022-06-22 22:38:41 GMT 48.013412 0.133965 15,000 212 315 0
2022-06-22 22:38:40 GMT 48.014694 0.135132 15,000 212 315 0
2022-06-22 22:38:39 GMT 48.019547 0.139526 15,000 212 315 0
2022-06-22 22:38:37 GMT 48.022034 0.141766 15,000 212 315 0
2022-06-22 22:38:35 GMT 48.022034 0.141766 15,000 212 315 0
2022-06-22 22:38:32 GMT 48.025150 0.144583 15,000 212 315 64
2022-06-22 22:38:30 GMT 48.028130 0.147259 15,000 212 315 64
2022-06-22 22:38:28 GMT 48.029991 0.148949 15,000 212 315 64
2022-06-22 22:38:26 GMT 48.033112 0.151766 15,000 212 315 0
2022-06-22 22:38:24 GMT 48.036137 0.154442 15,000 212 316 0
2022-06-22 22:38:23 GMT 48.037262 0.155457 15,000 212 316 0
2022-06-22 22:38:21 GMT 48.039257 0.157259 15,000 212 316 0
2022-06-22 22:38:20 GMT 48.041023 0.158879 15,000 212 316 0
2022-06-22 22:38:19 GMT 48.042141 0.159865 15,000 212 316 0
2022-06-22 22:38:15 GMT 48.046146 0.163457 15,000 212 316 0
2022-06-22 22:38:14 GMT 48.047543 0.164724 15,000 212 317 -64
2022-06-22 22:38:13 GMT 48.048660 0.165756 15,000 211 317 0
2022-06-22 22:38:10 GMT 48.054291 0.170837 15,000 211 317 64
2022-06-22 22:38:09 GMT 48.054291 0.170837 15,000 211 317 64
2022-06-22 22:38:07 GMT 48.058685 0.174751 15,000 211 317 64
2022-06-22 22:38:05 GMT 48.061844 0.177567 15,000 211 317 64
2022-06-22 22:38:03 GMT 48.063000 0.178598 15,000 211 317 0
2022-06-22 22:38:01 GMT 48.065090 0.180500 15,000 211 317 64
2022-06-22 22:37:59 GMT 48.066349 0.181627 15,000 211 317 0
2022-06-22 22:37:57 GMT 48.068756 0.183746 15,000 211 317 0
2022-06-22 22:37:54 GMT 48.072773 0.187331 15,000 211 317 0
2022-06-22 22:37:52 GMT 48.075428 0.189725 15,000 211 317 0
2022-06-22 22:37:51 GMT 48.076950 0.191025 15,000 211 317 0
2022-06-22 22:37:49 GMT 48.078827 0.192754 15,000 211 317 0
2022-06-22 22:37:48 GMT 48.079926 0.193771 15,000 212 316 0
2022-06-22 22:37:46 GMT 48.083202 0.196698 15,000 212 316 0
2022-06-22 22:37:43 GMT 48.087112 0.200148 15,000 212 316 0
2022-06-22 22:37:42 GMT 48.089626 0.202402 15,000 212 316 0
2022-06-22 22:37:38 GMT 48.092743 0.205219 15,000 212 316 0
2022-06-22 22:37:36 GMT 48.094620 0.206886 15,000 212 316 0
2022-06-22 22:37:34 GMT 48.101028 0.212585 15,000 211 315 0
2022-06-22 22:37:32 GMT 48.101028 0.212585 15,000 211 315 0
2022-06-22 22:37:30 GMT 48.103638 0.214920 15,000 211 314 0
2022-06-22 22:37:28 GMT 48.104897 0.216064 15,000 211 314 0
2022-06-22 22:37:27 GMT 48.106522 0.217529 15,000 211 314 0
2022-06-22 22:37:26 GMT 48.107254 0.218216 15,000 211 314 0
2022-06-22 22:37:24 GMT 48.109783 0.220431 15,000 211 315 0
2022-06-22 22:37:22 GMT 48.112530 0.222896 15,000 211 315 0
2022-06-22 22:37:20 GMT 48.115768 0.225838 15,000 211 315 0
2022-06-22 22:37:18 GMT 48.118114 0.227966 15,000 211 315 0
2022-06-22 22:37:17 GMT 48.120026 0.229657 15,000 211 315 0
2022-06-22 22:37:15 GMT 48.121124 0.230644 15,000 211 315 0
2022-06-22 22:37:13 GMT 48.123749 0.232966 15,000 211 315 0
2022-06-22 22:37:12 GMT 48.125519 0.234558 15,000 211 315 0
2022-06-22 22:37:11 GMT 48.127258 0.236137 15,000 211 315 0
2022-06-22 22:37:09 GMT 48.129410 0.238060 15,000 211 316 0
2022-06-22 22:37:07 GMT 48.131290 0.239727 15,000 211 316 0
2022-06-22 22:37:06 GMT 48.133198 0.241418 15,000 211 316 0
2022-06-22 22:37:04 GMT 48.134922 0.242967 15,000 211 316 0
2022-06-22 22:37:03 GMT 48.137573 0.245291 15,000 211 316 0
2022-06-22 22:37:00 GMT 48.141220 0.248566 15,000 211 317 0
2022-06-22 22:36:57 GMT 48.145752 0.252617 15,000 211 317 0
2022-06-22 22:36:55 GMT 48.146885 0.253601 15,000 211 317 0
2022-06-22 22:36:54 GMT 48.148144 0.254728 15,000 211 317 0
2022-06-22 22:36:52 GMT 48.149910 0.256277 15,000 211 317 0
2022-06-22 22:36:50 GMT 48.155457 0.261200 15,000 211 317 0
2022-06-22 22:36:48 GMT 48.155457 0.261200 15,000 211 316 0
2022-06-22 22:36:46 GMT 48.157963 0.263461 15,000 211 316 0
2022-06-22 22:36:44 GMT 48.161129 0.266202 15,000 211 316 0
2022-06-22 22:36:42 GMT 48.163410 0.268225 15,000 211 316 0
2022-06-22 22:36:41 GMT 48.164520 0.269235 15,000 211 316 0
2022-06-22 22:36:39 GMT 48.167042 0.271478 15,000 211 316 0
2022-06-22 22:36:37 GMT 48.169830 0.273954 15,000 211 316 0
2022-06-22 22:36:35 GMT 48.171463 0.275381 15,000 211 316 -64
2022-06-22 22:36:33 GMT 48.173977 0.277622 15,000 211 316 -64
2022-06-22 22:36:32 GMT 48.175232 0.278813 15,000 211 317 -64
2022-06-22 22:36:31 GMT 48.178726 0.281958 15,000 212 316 0
2022-06-22 22:36:28 GMT 48.182404 0.285211 15,000 212 316 0
2022-06-22 22:36:27 GMT 48.182404 0.285211 15,000 212 316 64
2022-06-22 22:36:25 GMT 48.184872 0.287451 15,000 212 316 64
2022-06-22 22:36:24 GMT 48.186035 0.288462 15,000 212 316 64
2022-06-22 22:36:21 GMT 48.190155 0.292194 15,000 212 316 0
2022-06-22 22:36:19 GMT 48.192039 0.293884 15,000 211 317 0
2022-06-22 22:36:17 GMT 48.197296 0.298603 15,000 211 317 0
2022-06-22 22:36:15 GMT 48.197296 0.298603 15,000 211 317 0
2022-06-22 22:36:13 GMT 48.199219 0.300293 15,000 211 317 0
2022-06-22 22:36:12 GMT 48.200329 0.301329 15,000 211 317 0
2022-06-22 22:36:10 GMT 48.203842 0.304448 15,000 211 318 0
2022-06-22 22:36:08 GMT 48.206268 0.306631 15,000 211 318 0
2022-06-22 22:36:07 GMT 48.207504 0.307758 15,000 211 318 0
2022-06-22 22:36:06 GMT 48.209915 0.309858 15,000 211 318 0
2022-06-22 22:36:02 GMT 48.213181 0.312829 15,000 211 317 0
2022-06-22 22:35:58 GMT 48.220901 0.319688 15,000 211 317 0
2022-06-22 22:35:54 GMT 48.223415 0.322001 15,000 211 317 0
2022-06-22 22:35:51 GMT 48.227325 0.325470 15,000 211 317 0
2022-06-22 22:35:49 GMT 48.229748 0.327638 15,000 211 317 0
2022-06-22 22:35:48 GMT 48.233780 0.331210 15,000 211 317 0
2022-06-22 22:35:46 GMT 48.233780 0.331210 15,000 211 317 0
2022-06-22 22:35:45 GMT 48.235016 0.332336 15,000 211 317 0
2022-06-22 22:35:43 GMT 48.237801 0.334866 15,000 211 317 0
2022-06-22 22:35:41 GMT 48.239685 0.336562 15,000 211 317 0
2022-06-22 22:35:40 GMT 48.241608 0.338252 15,000 211 317 0
2022-06-22 22:35:39 GMT 48.242844 0.339379 15,000 211 317 0
2022-06-22 22:35:36 GMT 48.246002 0.342196 15,000 211 317 0
2022-06-22 22:35:35 GMT 48.247787 0.343745 15,000 211 317 0
2022-06-22 22:35:34 GMT 48.249023 0.344872 15,000 211 317 0
2022-06-22 22:35:33 GMT 48.251678 0.347267 15,000 211 317 0
2022-06-22 22:35:31 GMT 48.252792 0.348238 15,000 211 317 0
2022-06-22 22:35:28 GMT 48.256348 0.351422 15,000 211 317 0
2022-06-22 22:35:26 GMT 48.260101 0.354815 15,000 211 317 0
2022-06-22 22:35:25 GMT 48.260101 0.354815 15,000 211 317 0
2022-06-22 22:35:23 GMT 48.262661 0.357056 15,000 211 317 0
2022-06-22 22:35:22 GMT 48.264011 0.358284 15,000 211 317 0
2022-06-22 22:35:21 GMT 48.265182 0.359309 15,000 211 317 0
2022-06-22 22:35:17 GMT 48.270859 0.364380 15,000 211 317 0
2022-06-22 22:35:15 GMT 48.273369 0.366596 15,000 211 317 0
2022-06-22 22:35:14 GMT 48.274521 0.367619 15,000 211 317 64
2022-06-22 22:35:12 GMT 48.277046 0.369921 15,000 211 317 0
2022-06-22 22:35:10 GMT 48.279419 0.372056 15,000 211 317 0
2022-06-22 22:35:08 GMT 48.282074 0.374451 15,000 211 318 0
2022-06-22 22:35:06 GMT 48.285873 0.377831 15,000 211 318 0
2022-06-22 22:35:05 GMT 48.285873 0.377831 15,000 211 318 0
2022-06-22 22:35:03 GMT 48.288025 0.379733 15,000 211 318 0
2022-06-22 22:35:01 GMT 48.291290 0.382715 15,000 211 318 -64
2022-06-22 22:34:59 GMT 48.293701 0.384874 15,000 211 318 0
2022-06-22 22:34:57 GMT 48.295712 0.386690 15,000 211 318 0
2022-06-22 22:34:56 GMT 48.297016 0.387846 15,000 212 318 0
2022-06-22 22:34:54 GMT 48.299377 0.390015 15,000 212 318 0
2022-06-22 22:34:53 GMT 48.300880 0.391388 15,000 212 318 0
2022-06-22 22:34:51 GMT 48.303268 0.393536 15,000 212 318 0
2022-06-22 22:34:50 GMT 48.304790 0.394930 15,000 212 318 0
2022-06-22 22:34:49 GMT 48.305813 0.395797 15,000 212 318 0
2022-06-22 22:34:46 GMT 48.309677 0.399339 15,000 212 317 0
2022-06-22 22:34:44 GMT 48.312332 0.401776 15,000 212 317 0
2022-06-22 22:34:43 GMT 48.313568 0.402902 15,000 212 317 0
2022-06-22 22:34:41 GMT 48.316223 0.405297 15,000 212 317 0
2022-06-22 22:34:38 GMT 48.320847 0.409593 15,000 212 317 0
2022-06-22 22:34:35 GMT 48.324966 0.413396 15,000 212 317 0
2022-06-22 22:34:31 GMT 48.328716 0.416830 15,000 212 317 0
2022-06-22 22:34:30 GMT 48.329975 0.417986 15,000 212 317 0
2022-06-22 22:34:27 GMT 48.332863 0.420588 15,000 212 318 0
2022-06-22 22:34:26 GMT 48.334488 0.422129 15,000 212 318 0
2022-06-22 22:34:24 GMT 48.337749 0.425070 15,000 212 318 0
2022-06-22 22:34:22 GMT 48.340164 0.427270 15,000 212 318 0
2022-06-22 22:34:20 GMT 48.342545 0.429453 15,000 212 318 0
2022-06-22 22:34:18 GMT 48.344685 0.431430 15,000 212 318 0
2022-06-22 22:34:17 GMT 48.346455 0.433020 15,000 212 318 64
2022-06-22 22:34:16 GMT 48.347214 0.433678 15,000 212 319 64
2022-06-22 22:34:13 GMT 48.353394 0.439312 15,000 212 319 0
2022-06-22 22:34:10 GMT 48.356552 0.442200 15,000 212 319 0
2022-06-22 22:34:08 GMT 48.357834 0.443327 15,000 212 319 0
2022-06-22 22:34:07 GMT 48.358978 0.444368 15,000 212 319 0
2022-06-22 22:34:05 GMT 48.362141 0.447187 15,000 212 319 0
2022-06-22 22:34:03 GMT 48.363911 0.448777 15,000 211 320 0
2022-06-22 22:34:02 GMT 48.365204 0.449946 15,000 211 320 0
2022-06-22 22:34:01 GMT 48.366440 0.451073 15,000 212 319 -64
2022-06-22 22:33:59 GMT 48.369125 0.453475 15,000 211 319 -64
2022-06-22 22:33:58 GMT 48.370651 0.454876 15,000 211 319 -64
2022-06-22 22:33:57 GMT 48.373035 0.457017 15,000 211 319 0
2022-06-22 22:33:55 GMT 48.375320 0.459102 15,000 211 319 0
2022-06-22 22:33:52 GMT 48.377972 0.461498 15,000 211 318 0
2022-06-22 22:33:49 GMT 48.382782 0.465792 15,000 211 318 0
2022-06-22 22:33:47 GMT 48.384201 0.467060 15,000 211 318 -64
2022-06-22 22:33:45 GMT 48.386814 0.469449 15,000 211 317 0
2022-06-22 22:33:44 GMT 48.390610 0.472835 15,000 211 317 0
2022-06-22 22:33:42 GMT 48.390610 0.472835 15,000 211 317 0
2022-06-22 22:33:40 GMT 48.393101 0.475086 15,000 211 317 0
2022-06-22 22:33:39 GMT 48.394402 0.476243 15,000 211 317 0
2022-06-22 22:33:37 GMT 48.397018 0.478610 15,000 212 317 64
2022-06-22 22:33:36 GMT 48.398266 0.479712 15,000 212 317 64
2022-06-22 22:33:35 GMT 48.400780 0.482025 15,000 212 317 0
2022-06-22 22:33:33 GMT 48.401943 0.483037 15,000 212 317 0
2022-06-22 22:33:32 GMT 48.404297 0.485229 15,000 212 317 0
2022-06-22 22:33:29 GMT 48.406952 0.487554 15,000 212 317 0
2022-06-22 22:33:26 GMT 48.410706 0.491004 15,000 212 317 0
2022-06-22 22:33:24 GMT 48.413132 0.493188 15,000 212 318 64
2022-06-22 22:33:22 GMT 48.414745 0.494674 15,000 212 318 0
2022-06-22 22:33:20 GMT 48.416889 0.496625 15,000 212 318 0
2022-06-22 22:33:18 GMT 48.419540 0.498962 15,000 212 318 0
2022-06-22 22:33:17 GMT 48.420914 0.500230 15,000 212 318 0
2022-06-22 22:33:15 GMT 48.424850 0.503822 15,000 212 318 0
2022-06-22 22:33:12 GMT 48.427963 0.506709 15,000 212 318 0
2022-06-22 22:33:11 GMT 48.429363 0.507973 15,000 212 318 0
2022-06-22 22:33:09 GMT 48.431644 0.509997 15,000 212 318 0
2022-06-22 22:33:08 GMT 48.432770 0.511076 15,000 212 318 0
2022-06-22 22:33:06 GMT 48.434765 0.512888 15,000 212 318 0
2022-06-22 22:33:05 GMT 48.436890 0.514808 15,000 212 318 0
2022-06-22 22:33:04 GMT 48.438263 0.516076 15,000 212 318 0
2022-06-22 22:33:02 GMT 48.440781 0.518400 15,000 212 318 0
2022-06-22 22:33:01 GMT 48.441925 0.519456 15,000 212 318 0
2022-06-22 22:32:59 GMT 48.444443 0.521710 15,000 212 318 0
2022-06-22 22:32:58 GMT 48.445816 0.522977 15,000 212 317 0
2022-06-22 22:32:56 GMT 48.447937 0.524886 15,000 212 317 0
2022-06-22 22:32:54 GMT 48.450439 0.527203 15,000 212 317 0
2022-06-22 22:32:53 GMT 48.451569 0.528211 15,000 212 317 0
2022-06-22 22:32:51 GMT 48.454224 0.530596 15,000 212 317 0
2022-06-22 22:32:49 GMT 48.456619 0.532766 15,000 212 317 -64
2022-06-22 22:32:46 GMT 48.461014 0.536781 15,000 212 318 -64
2022-06-22 22:32:42 GMT 48.464905 0.540302 15,000 212 318 0
2022-06-22 22:32:41 GMT 48.467026 0.542305 15,000 212 318 0
2022-06-22 22:32:40 GMT 48.468422 0.543534 15,000 212 318 0
2022-06-22 22:32:38 GMT 48.470657 0.545630 15,000 212 318 0
2022-06-22 22:32:35 GMT 48.474976 0.549528 15,000 212 318 0
2022-06-22 22:32:34 GMT 48.478088 0.552345 15,000 212 318 0
2022-06-22 22:32:32 GMT 48.478756 0.552930 15,000 212 319 0
2022-06-22 22:32:30 GMT 48.480015 0.554087 15,000 212 320 0
2022-06-22 22:32:29 GMT 48.484669 0.558351 15,000 212 320 0
2022-06-22 22:32:27 GMT 48.484669 0.558351 15,000 212 320 0
2022-06-22 22:32:25 GMT 48.488625 0.561893 15,000 212 321 0
2022-06-22 22:32:23 GMT 48.489761 0.562979 15,000 212 321 0
2022-06-22 22:32:22 GMT 48.491135 0.564247 15,000 212 321 -64
2022-06-22 22:32:20 GMT 48.493793 0.566663 15,000 212 322 0
2022-06-22 22:32:19 GMT 48.497749 0.570277 15,000 212 322 0
2022-06-22 22:32:17 GMT 48.497749 0.570277 15,000 212 322 0
2022-06-22 22:32:16 GMT 48.500820 0.573024 15,000 212 323 0
2022-06-22 22:32:14 GMT 48.503357 0.575374 15,000 212 323 0
2022-06-22 22:32:12 GMT 48.504917 0.576782 15,000 212 323 64
2022-06-22 22:32:08 GMT 48.507992 0.579529 15,000 212 323 64
2022-06-22 22:32:06 GMT 48.511204 0.582420 15,000 211 324 0
2022-06-22 22:32:05 GMT 48.514786 0.585672 15,000 211 324 0
2022-06-22 22:32:03 GMT 48.514786 0.585672 15,000 211 324 0
2022-06-22 22:32:02 GMT 48.517593 0.588262 15,000 211 324 0
2022-06-22 22:32:00 GMT 48.518875 0.589388 15,000 211 324 0
2022-06-22 22:31:58 GMT 48.521351 0.591599 15,000 211 324 0
2022-06-22 22:31:57 GMT 48.522747 0.592900 15,000 212 325 0
2022-06-22 22:31:55 GMT 48.525448 0.595358 15,000 212 325 0
2022-06-22 22:31:53 GMT 48.528008 0.597671 15,000 212 325 0
2022-06-22 22:31:50 GMT 48.532291 0.601574 15,000 212 325 0
2022-06-22 22:31:47 GMT 48.537186 0.606009 15,000 212 324 0
2022-06-22 22:31:44 GMT 48.539886 0.608474 15,000 212 324 0
2022-06-22 22:31:42 GMT 48.541168 0.609600 15,000 212 324 0
2022-06-22 22:31:41 GMT 48.542953 0.611220 15,000 212 324 64
2022-06-22 22:31:39 GMT 48.545654 0.613685 15,000 212 324 0
2022-06-22 22:31:37 GMT 48.549911 0.617558 15,000 212 323 0
2022-06-22 22:31:35 GMT 48.551422 0.618993 15,000 212 323 0
2022-06-22 22:31:33 GMT 48.553471 0.620872 15,000 212 323 0
2022-06-22 22:31:32 GMT 48.554626 0.621925 15,000 212 323 0
2022-06-22 22:31:30 GMT 48.557831 0.624812 15,000 212 323 0
2022-06-22 22:31:29 GMT 48.559013 0.625859 15,000 212 323 0
2022-06-22 22:31:28 GMT 48.560394 0.627136 15,000 212 323 0
2022-06-22 22:31:25 GMT 48.564606 0.631010 15,000 212 323 -64
2022-06-22 22:31:23 GMT 48.566925 0.633087 15,000 212 323 -64
2022-06-22 22:31:21 GMT 48.569321 0.635306 15,000 212 321 0
2022-06-22 22:31:20 GMT 48.570602 0.636484 15,000 212 321 0
2022-06-22 22:31:18 GMT 48.573532 0.639179 15,000 212 321 0
2022-06-22 22:31:16 GMT 48.575684 0.641151 15,000 212 321 0
2022-06-22 22:31:14 GMT 48.577744 0.643052 15,000 212 321 0
2022-06-22 22:31:12 GMT 48.579773 0.644869 15,000 212 321 0
2022-06-22 22:31:11 GMT 48.581680 0.646644 15,000 212 321 64
2022-06-22 22:31:09 GMT 48.584194 0.648988 15,000 212 321 64
2022-06-22 22:31:08 GMT 48.585617 0.650236 15,000 212 321 64
2022-06-22 22:31:06 GMT 48.588154 0.652530 15,000 212 321 64
2022-06-22 22:31:05 GMT 48.589409 0.653687 15,000 212 321 0
2022-06-22 22:31:02 GMT 48.593491 0.657419 15,000 212 321 0
2022-06-22 22:31:00 GMT 48.596008 0.659743 15,000 212 321 0
2022-06-22 22:30:59 GMT 48.597279 0.660914 15,000 212 321 0
2022-06-22 22:30:57 GMT 48.599838 0.663227 15,000 212 321 0
2022-06-22 22:30:56 GMT 48.602142 0.665377 15,000 212 321 0
2022-06-22 22:30:53 GMT 48.604679 0.667709 15,000 212 321 -64
2022-06-22 22:30:51 GMT 48.607590 0.670377 15,000 212 321 0
2022-06-22 22:30:49 GMT 48.609894 0.672479 15,000 212 321 64
2022-06-22 22:30:47 GMT 48.612305 0.674673 15,000 212 321 64
2022-06-22 22:30:45 GMT 48.614826 0.676960 15,000 212 321 0
2022-06-22 22:30:44 GMT 48.616131 0.678117 15,000 212 321 0
2022-06-22 22:30:43 GMT 48.617523 0.679392 15,000 212 321 0
2022-06-22 22:30:40 GMT 48.620556 0.682237 15,000 212 321 0
2022-06-22 22:30:39 GMT 48.622601 0.684043 15,000 212 321 0
2022-06-22 22:30:38 GMT 48.624001 0.685344 15,000 212 321 0
2022-06-22 22:30:37 GMT 48.626404 0.687561 15,000 212 321 0
2022-06-22 22:30:34 GMT 48.629105 0.690026 15,000 212 321 0
2022-06-22 22:30:33 GMT 48.630341 0.691153 15,000 212 321 0
2022-06-22 22:30:32 GMT 48.631622 0.692350 15,000 212 321 64
2022-06-22 22:30:30 GMT 48.636337 0.696646 15,000 212 321 0
2022-06-22 22:30:28 GMT 48.639130 0.699222 15,000 212 321 0
2022-06-22 22:30:26 GMT 48.639130 0.699222 15,000 212 322 0
2022-06-22 22:30:25 GMT 48.643204 0.702984 15,000 212 322 -64
2022-06-22 22:30:23 GMT 48.643204 0.702984 15,000 212 322 0
2022-06-22 22:30:21 GMT 48.644989 0.704604 15,000 212 322 0
2022-06-22 22:30:20 GMT 48.646854 0.706378 15,000 212 322 0
2022-06-22 22:30:19 GMT 48.648022 0.707389 15,000 212 322 0
2022-06-22 22:30:17 GMT 48.650665 0.709886 15,000 212 322 0
2022-06-22 22:30:15 GMT 48.653465 0.712449 15,000 212 321 0
2022-06-22 22:30:12 GMT 48.656387 0.715168 15,000 212 321 0
2022-06-22 22:30:11 GMT 48.658310 0.716928 15,000 212 321 64
2022-06-22 22:30:09 GMT 48.660961 0.719388 15,000 212 321 0
2022-06-22 22:30:07 GMT 48.663483 0.721717 15,000 212 321 0
2022-06-22 22:30:06 GMT 48.664490 0.722633 15,000 212 321 0
2022-06-22 22:30:04 GMT 48.668427 0.726295 15,000 212 321 0
2022-06-22 22:30:01 GMT 48.671082 0.728760 15,000 212 321 0
2022-06-22 22:29:59 GMT 48.673252 0.730735 15,000 212 321 0
2022-06-22 22:29:58 GMT 48.676300 0.733549 15,000 212 321 0
2022-06-22 22:29:56 GMT 48.677441 0.734566 15,000 212 321 0
2022-06-22 22:29:55 GMT 48.678978 0.736012 15,000 212 320 0
2022-06-22 22:29:53 GMT 48.681118 0.737963 15,000 212 320 -64
2022-06-22 22:29:52 GMT 48.682755 0.739464 15,000 212 321 0
2022-06-22 22:29:50 GMT 48.685169 0.741722 15,000 212 321 0
2022-06-22 22:29:49 GMT 48.686565 0.742950 15,000 212 321 0
2022-06-22 22:29:47 GMT 48.688335 0.744613 15,000 212 321 0
2022-06-22 22:29:45 GMT 48.691780 0.747793 15,000 212 321 0
2022-06-22 22:29:44 GMT 48.691780 0.747793 15,000 212 320 0
2022-06-22 22:29:42 GMT 48.694199 0.749958 15,000 212 320 0
2022-06-22 22:29:41 GMT 48.695572 0.751225 15,000 212 320 0
2022-06-22 22:29:40 GMT 48.699371 0.754747 15,000 212 320 0
2022-06-22 22:29:38 GMT 48.701183 0.756394 15,000 212 320 0
2022-06-22 22:29:37 GMT 48.701183 0.756394 15,000 212 320 0
2022-06-22 22:29:35 GMT 48.703835 0.758852 15,000 212 320 0
2022-06-22 22:29:33 GMT 48.706348 0.761165 15,000 212 320 0
2022-06-22 22:29:32 GMT 48.707748 0.762423 15,000 212 320 0
2022-06-22 22:29:30 GMT 48.709656 0.764200 15,000 212 320 0
2022-06-22 22:29:29 GMT 48.710907 0.765381 15,000 212 320 0
2022-06-22 22:29:27 GMT 48.714111 0.768268 15,000 212 321 64
2022-06-22 22:29:25 GMT 48.715984 0.770055 15,000 212 322 0
2022-06-22 22:29:24 GMT 48.717133 0.771085 15,000 212 322 0
2022-06-22 22:29:22 GMT 48.721199 0.774825 15,000 212 322 0
2022-06-22 22:29:19 GMT 48.724133 0.777572 15,000 212 322 0
2022-06-22 22:29:18 GMT 48.725510 0.778832 15,000 212 322 0
2022-06-22 22:29:15 GMT 48.729446 0.782494 15,000 212 323 0
2022-06-22 22:29:13 GMT 48.731873 0.784748 15,000 212 323 0
2022-06-22 22:29:11 GMT 48.735306 0.787980 15,000 212 323 0
2022-06-22 22:29:09 GMT 48.736702 0.789281 15,000 212 323 0
2022-06-22 22:29:08 GMT 48.737957 0.790437 15,000 212 323 64
2022-06-22 22:29:06 GMT 48.740662 0.792988 15,000 212 323 64
2022-06-22 22:29:05 GMT 48.741917 0.794196 15,000 213 324 64
2022-06-22 22:29:03 GMT 48.744324 0.796438 15,000 213 324 64
2022-06-22 22:29:01 GMT 48.746338 0.798340 15,000 213 324 64
2022-06-22 22:29:00 GMT 48.750156 0.802002 15,000 213 324 0
2022-06-22 22:28:58 GMT 48.750156 0.802002 15,000 213 324 -64
2022-06-22 22:28:56 GMT 48.753323 0.804965 15,000 213 324 -64
2022-06-22 22:28:55 GMT 48.754623 0.806194 15,000 213 326 -64
2022-06-22 22:28:53 GMT 48.757278 0.808724 15,000 213 325 -64
2022-06-22 22:28:51 GMT 48.759094 0.810459 15,000 213 325 -64
2022-06-22 22:28:48 GMT 48.762909 0.814115 15,000 212 326 0
2022-06-22 22:28:47 GMT 48.767395 0.818341 15,000 212 327 0
2022-06-22 22:28:45 GMT 48.767395 0.818341 15,000 212 326 0
2022-06-22 22:28:44 GMT 48.768822 0.819638 15,000 211 327 -64
2022-06-22 22:28:42 GMT 48.771244 0.821879 15,000 211 326 -64
2022-06-22 22:28:41 GMT 48.775131 0.825454 15,000 210 327 -64
2022-06-22 22:28:39 GMT 48.775131 0.825454 15,000 209 327 -64
2022-06-22 22:28:37 GMT 48.779064 0.828890 15,000 207 326 0
2022-06-22 22:28:34 GMT 48.781860 0.831158 15,000 206 327 0
2022-06-22 22:28:32 GMT 48.784046 0.832793 15,000 205 326 0
2022-06-22 22:28:31 GMT 48.787582 0.835322 15,000 201 326 64
2022-06-22 22:28:28 GMT 48.792797 0.838430 15,000 197 326 0
2022-06-22 22:28:26 GMT 48.792797 0.838430 15,000 191 326 0
2022-06-22 22:28:24 GMT 48.795685 0.839750 15,000 191 326 0
2022-06-22 22:28:21 GMT 48.799362 0.840960 15,000 188 325 64
2022-06-22 22:28:19 GMT 48.802917 0.842003 15,000 185 326 64
2022-06-22 22:28:17 GMT 48.805923 0.842550 15,000 182 326 64
2022-06-22 22:28:14 GMT 48.811020 0.842849 15,000 176 325 0
2022-06-22 22:28:13 GMT 48.813885 0.842695 15,000 173 324 0
2022-06-22 22:28:11 GMT 48.815422 0.842550 15,000 172 324 0
2022-06-22 22:28:10 GMT 48.819580 0.841863 15,000 169 324 0
2022-06-22 22:28:08 GMT 48.821503 0.841299 15,000 166 324 -64
2022-06-22 22:28:05 GMT 48.823429 0.840671 15,000 164 324 -64
2022-06-22 22:28:04 GMT 48.825027 0.840102 15,000 163 323 -64
2022-06-22 22:28:03 GMT 48.828644 0.838553 15,000 160 325 -64
2022-06-22 22:28:02 GMT 48.830063 0.837778 15,000 157 324 0
2022-06-22 22:27:59 GMT 48.831573 0.836862 15,000 154 324 0
2022-06-22 22:27:57 GMT 48.834869 0.834679 15,000 153 324 0
2022-06-22 22:27:56 GMT 48.836510 0.833588 15,000 150 322 0
2022-06-22 22:27:55 GMT 48.837936 0.832426 15,000 145 321 0
2022-06-22 22:27:54 GMT 48.839264 0.831299 15,000 145 321 0
2022-06-22 22:27:52 GMT 48.841770 0.828962 15,000 144 320 0
2022-06-22 22:27:51 GMT 48.843155 0.827566 15,000 142 321 0
2022-06-22 22:27:49 GMT 48.845539 0.824914 15,000 139 319 0
2022-06-22 22:27:48 GMT 48.847916 0.821932 15,000 136 319 0
2022-06-22 22:27:45 GMT 48.851360 0.817036 15,000 132 317 0
2022-06-22 22:27:42 GMT 48.852383 0.815373 15,000 130 317 0
2022-06-22 22:27:40 GMT 48.854385 0.811904 15,000 126 317 64
2022-06-22 22:27:38 GMT 48.858482 0.803520 15,000 117 317 64
2022-06-22 22:27:36 GMT 48.861462 0.795569 14,975 117 317 64
2022-06-22 22:27:32 GMT 48.861462 0.795569 14,975 110 317 -64
2022-06-22 22:27:31 GMT 48.863205 0.789466 14,975 110 317 -64
2022-06-22 22:27:29 GMT 48.863205 0.789466 15,000 109 317 -64
2022-06-22 22:27:27 GMT 48.864254 0.785017 15,000 107 317 -64
2022-06-22 22:27:25 GMT 48.865128 0.780804 15,000 107 317 -64
2022-06-22 22:27:24 GMT 48.865585 0.778691 15,000 106 317 0
2022-06-22 22:27:23 GMT 48.866547 0.773761 15,000 106 317 0
2022-06-22 22:27:19 GMT 48.867325 0.769466 15,000 106 317 0
2022-06-22 22:27:18 GMT 48.867966 0.766296 15,000 106 317 0
2022-06-22 22:27:16 GMT 48.868881 0.761578 15,000 106 317 0
2022-06-22 22:27:14 GMT 48.869568 0.757916 15,000 106 318 0
2022-06-22 22:27:12 GMT 48.870758 0.751718 15,000 106 318 0
2022-06-22 22:27:10 GMT 48.871143 0.749817 15,000 106 318 0
2022-06-22 22:27:08 GMT 48.871857 0.746155 15,000 106 318 0
2022-06-22 22:27:06 GMT 48.872494 0.742734 15,000 106 318 0
2022-06-22 22:27:05 GMT 48.873055 0.739698 15,000 106 318 0
2022-06-22 22:27:04 GMT 48.873470 0.737602 15,000 106 318 0
2022-06-22 22:27:02 GMT 48.874355 0.733121 15,000 106 318 0
2022-06-22 22:27:01 GMT 48.874775 0.730952 15,000 106 318 0
2022-06-22 22:26:59 GMT 48.875565 0.726647 15,000 106 318 0
2022-06-22 22:26:57 GMT 48.876171 0.723435 15,000 106 318 64
2022-06-22 22:26:55 GMT 48.877197 0.718087 15,000 106 318 64
2022-06-22 22:26:54 GMT 48.877991 0.714041 15,000 106 318 0
2022-06-22 22:26:52 GMT 48.878403 0.711646 15,000 106 318 0
2022-06-22 22:26:50 GMT 48.879013 0.708474 15,000 106 318 0
2022-06-22 22:26:48 GMT 48.880688 0.699656 15,000 106 318 -64
2022-06-22 22:26:46 GMT 48.880688 0.699656 15,000 105 318 -64
2022-06-22 22:26:44 GMT 48.881516 0.695378 15,000 105 318 -64
2022-06-22 22:26:42 GMT 48.882980 0.687420 15,000 105 317 0
2022-06-22 22:26:40 GMT 48.883343 0.685489 15,000 105 317 64
2022-06-22 22:26:39 GMT 48.883900 0.682453 15,000 105 317 0
2022-06-22 22:26:36 GMT 48.885132 0.676011 15,000 105 317 0
2022-06-22 22:26:34 GMT 48.885773 0.672349 15,000 105 317 0
2022-06-22 22:26:32 GMT 48.886322 0.669391 15,000 105 317 0
2022-06-22 22:26:31 GMT 48.886971 0.665974 15,000 105 317 0
2022-06-22 22:26:29 GMT 48.888565 0.656926 15,000 105 317 0
2022-06-22 22:26:27 GMT 48.888565 0.656926 15,000 105 317 0
2022-06-22 22:26:25 GMT 48.889297 0.653053 15,000 104 317 0
2022-06-22 22:26:23 GMT 48.890076 0.648545 15,000 104 317 0
2022-06-22 22:26:22 GMT 48.890415 0.646603 15,000 104 317 0
2022-06-22 22:26:20 GMT 48.891350 0.641471 15,000 104 317 0
2022-06-22 22:26:19 GMT 48.891582 0.639954 15,000 104 317 64
2022-06-22 22:26:17 GMT 48.892185 0.636484 15,000 104 317 64
2022-06-22 22:26:16 GMT 48.892559 0.634316 15,000 104 317 64
2022-06-22 22:26:14 GMT 48.893070 0.631352 15,000 104 317 64
2022-06-22 22:26:12 GMT 48.893955 0.625932 15,000 104 317 0
2022-06-22 22:26:11 GMT 48.894287 0.623967 15,000 104 317 -64
2022-06-22 22:26:09 GMT 48.895027 0.619643 15,000 104 317 -64
2022-06-22 22:26:07 GMT 48.895660 0.615798 15,000 104 318 -64
2022-06-22 22:26:05 GMT 48.896576 0.610586 15,000 105 318 -64
2022-06-22 22:26:03 GMT 48.897308 0.606502 15,000 106 318 -64
2022-06-22 22:26:02 GMT 48.898087 0.602276 15,000 107 317 0
2022-06-22 22:25:59 GMT 48.898750 0.598827 15,000 107 317 0
2022-06-22 22:25:58 GMT 48.899216 0.596731 15,000 107 317 0
2022-06-22 22:25:57 GMT 48.899689 0.594389 15,000 108 316 0
2022-06-22 22:25:55 GMT 48.900742 0.589529 15,000 107 316 0
2022-06-22 22:25:54 GMT 48.901199 0.587416 15,000 107 315 64
2022-06-22 22:25:52 GMT 48.902069 0.583402 15,000 105 316 0
2022-06-22 22:25:51 GMT 48.902481 0.581289 15,000 104 316 0
2022-06-22 22:25:49 GMT 48.903683 0.574397 15,000 100 314 64
2022-06-22 22:25:46 GMT 48.904266 0.570303 15,000 100 314 64
2022-06-22 22:25:45 GMT 48.904633 0.567064 15,000 95 317 0
2022-06-22 22:25:43 GMT 48.904861 0.563965 15,000 93 317 0
2022-06-22 22:25:42 GMT 48.905228 0.558401 15,000 89 318 0
2022-06-22 22:25:40 GMT 48.905266 0.556400 15,000 88 318 0
2022-06-22 22:25:38 GMT 48.905273 0.551922 15,000 85 318 0
2022-06-22 22:25:36 GMT 48.904999 0.544809 15,000 82 319 -64
2022-06-22 22:25:34 GMT 48.904816 0.542415 15,000 81 319 -64
2022-06-22 22:25:33 GMT 48.904430 0.538186 15,000 77 320 -64
2022-06-22 22:25:31 GMT 48.904198 0.536451 15,000 75 321 -64
2022-06-22 22:25:30 GMT 48.903122 0.529457 15,000 72 321 -64
2022-06-22 22:25:28 GMT 48.903122 0.529457 15,000 71 320 -64
2022-06-22 22:25:25 GMT 48.901840 0.523259 15,000 67 322 0
2022-06-22 22:25:24 GMT 48.900845 0.519249 15,000 64 322 0
2022-06-22 22:25:22 GMT 48.900101 0.516780 15,000 62 323 0
2022-06-22 22:25:21 GMT 48.898361 0.511498 15,000 59 323 0
2022-06-22 22:25:18 GMT 48.896713 0.506991 15,000 55 325 0
2022-06-22 22:25:16 GMT 48.895935 0.505089 15,000 53 326 0
2022-06-22 22:25:15 GMT 48.893417 0.499667 15,000 47 328 64
2022-06-22 22:25:13 GMT 48.893417 0.499667 15,000 47 328 64
2022-06-22 22:25:11 GMT 48.890991 0.495300 15,000 45 328 64
2022-06-22 22:25:10 GMT 48.888927 0.491927 15,000 42 330 64
2022-06-22 22:25:07 GMT 48.887253 0.489325 15,000 41 330 0
2022-06-22 22:25:06 GMT 48.886135 0.487735 15,000 38 331 0
2022-06-22 22:25:04 GMT 48.883667 0.484627 15,000 34 333 -64
2022-06-22 22:25:02 GMT 48.881836 0.482483 15,000 34 333 -64
2022-06-22 22:25:00 GMT 48.879570 0.480074 15,000 30 333 0
2022-06-22 22:24:59 GMT 48.877663 0.478122 15,000 29 333 0
2022-06-22 22:24:58 GMT 48.876312 0.476966 15,000 26 334 64
2022-06-22 22:24:56 GMT 48.871471 0.473279 15,000 21 336 0
2022-06-22 22:24:53 GMT 48.870209 0.472412 15,000 19 335 -64
2022-06-22 22:24:52 GMT 48.867001 0.470533 15,000 16 337 -64
2022-06-22 22:24:50 GMT 48.861832 0.468116 15,000 12 338 -64
2022-06-22 22:24:48 GMT 48.861832 0.468116 15,000 10 338 -64
2022-06-22 22:24:46 GMT 48.857666 0.466849 15,000 6 339 -64
2022-06-22 22:24:43 GMT 48.854736 0.466144 15,000 6 339 -64
2022-06-22 22:24:42 GMT 48.853359 0.465907 15,025 3 339 -64
2022-06-22 22:24:40 GMT 48.849449 0.465473 15,025 359 340 0
2022-06-22 22:24:38 GMT 48.845680 0.465546 15,000 353 341 64
2022-06-22 22:24:35 GMT 48.841770 0.465907 15,000 353 341 64
2022-06-22 22:24:34 GMT 48.840088 0.466215 15,000 348 340 64
2022-06-22 22:24:31 GMT 48.835281 0.467482 15,000 343 341 64
2022-06-22 22:24:30 GMT 48.833763 0.468075 15,000 343 341 64
2022-06-22 22:24:29 GMT 48.829529 0.469882 15,000 339 342 0
2022-06-22 22:24:26 GMT 48.827572 0.470967 15,000 338 343 64
2022-06-22 22:24:24 GMT 48.825943 0.471919 15,000 336 343 64
2022-06-22 22:24:23 GMT 48.824524 0.472835 15,000 334 343 64
2022-06-22 22:24:21 GMT 48.821228 0.475229 15,000 331 343 0
2022-06-22 22:24:20 GMT 48.819809 0.476356 15,000 328 343 -64
2022-06-22 22:24:18 GMT 48.817062 0.478750 15,000 324 343 -128
2022-06-22 22:24:16 GMT 48.813374 0.482459 15,000 322 342 -64
2022-06-22 22:24:13 GMT 48.809875 0.486568 15,000 298 339 64
2022-06-22 22:24:11 GMT 48.808067 0.488964 15,000 298 339 64
2022-06-22 22:24:08 GMT 48.804199 0.494596 15,000 298 339 64
2022-06-22 22:24:07 GMT 48.803055 0.496568 15,000 298 339 64
2022-06-22 22:24:04 GMT 48.799026 0.504174 15,000 298 339 64
2022-06-22 22:24:01 GMT 48.796417 0.510160 14,975 298 339 64
2022-06-22 22:23:59 GMT 48.794334 0.515996 14,975 293 339 0
2022-06-22 22:23:57 GMT 48.794334 0.515996 14,975 293 339 0
2022-06-22 22:23:56 GMT 48.793636 0.518381 15,000 289 338 -64
2022-06-22 22:23:54 GMT 48.792053 0.524019 15,000 289 338 -64
2022-06-22 22:23:51 GMT 48.790936 0.528717 15,000 288 337 -64
2022-06-22 22:23:50 GMT 48.790192 0.532331 15,000 287 337 0
2022-06-22 22:23:47 GMT 48.789185 0.537344 15,000 287 337 0
2022-06-22 22:23:45 GMT 48.788326 0.541583 15,000 287 337 64
2022-06-22 22:23:43 GMT 48.787445 0.545919 15,000 287 337 64
2022-06-22 22:23:41 GMT 48.786621 0.550162 15,000 287 337 64
2022-06-22 22:23:38 GMT 48.785255 0.556978 15,000 287 337 64
2022-06-22 22:23:36 GMT 48.784325 0.561459 15,000 288 337 0
2022-06-22 22:23:33 GMT 48.782593 0.570092 15,000 288 337 0
2022-06-22 22:23:29 GMT 48.780670 0.579599 15,000 287 337 0
2022-06-22 22:23:27 GMT 48.779808 0.583866 15,000 287 337 0
2022-06-22 22:23:24 GMT 48.777992 0.592900 15,000 287 337 0
2022-06-22 22:23:22 GMT 48.777992 0.592900 15,000 287 337 0
2022-06-22 22:23:20 GMT 48.777107 0.597454 15,000 287 336 0
2022-06-22 22:23:19 GMT 48.776459 0.600634 15,000 287 336 0
2022-06-22 22:23:17 GMT 48.775772 0.604248 15,000 287 336 0
2022-06-22 22:23:15 GMT 48.774734 0.609380 15,000 287 336 0
2022-06-22 22:23:14 GMT 48.773991 0.613283 15,000 287 336 64
2022-06-22 22:23:11 GMT 48.772919 0.618704 15,000 287 336 64
2022-06-22 22:23:09 GMT 48.771851 0.624341 15,000 287 336 0
2022-06-22 22:23:07 GMT 48.770966 0.628823 15,000 287 336 0
2022-06-22 22:23:05 GMT 48.770004 0.633827 15,000 286 336 0
2022-06-22 22:23:03 GMT 48.769318 0.637418 15,000 286 336 -64
2022-06-22 22:23:01 GMT 48.768452 0.641977 15,000 286 336 -64
2022-06-22 22:22:59 GMT 48.767799 0.645591 15,000 286 336 -64
2022-06-22 22:22:57 GMT 48.767006 0.649856 15,000 286 336 -64
2022-06-22 22:22:55 GMT 48.765976 0.655518 15,000 286 335 -64
2022-06-22 22:22:53 GMT 48.765335 0.658968 15,000 286 335 -64
2022-06-22 22:22:51 GMT 48.764305 0.664601 15,025 287 335 -64
2022-06-22 22:22:47 GMT 48.762585 0.673635 15,025 286 334 0
2022-06-22 22:22:45 GMT 48.761887 0.677177 15,025 286 335 0
2022-06-22 22:22:43 GMT 48.761047 0.681731 15,000 285 335 0
2022-06-22 22:22:40 GMT 48.759476 0.691012 15,000 281 335 0
2022-06-22 22:22:38 GMT 48.759155 0.693336 15,000 274 334 0
2022-06-22 22:22:36 GMT 48.758488 0.698861 15,000 274 334 0
2022-06-22 22:22:34 GMT 48.758163 0.703486 15,000 273 335 0
2022-06-22 22:22:32 GMT 48.758022 0.706956 15,000 269 335 0
2022-06-22 22:22:31 GMT 48.757835 0.712088 15,000 268 334 0
2022-06-22 22:22:29 GMT 48.757835 0.714906 15,000 266 334 0
2022-06-22 22:22:28 GMT 48.758209 0.723074 15,000 264 334 -64
2022-06-22 22:22:26 GMT 48.758209 0.723074 15,000 262 334 -64
2022-06-22 22:22:25 GMT 48.758347 0.725098 15,000 261 334 -64
2022-06-22 22:22:23 GMT 48.758766 0.729723 15,000 257 334 0
2022-06-22 22:22:22 GMT 48.759418 0.734566 15,000 255 334 0
2022-06-22 22:22:20 GMT 48.759697 0.736373 15,000 254 334 64
2022-06-22 22:22:19 GMT 48.760437 0.740662 15,000 251 333 64
2022-06-22 22:22:16 GMT 48.761375 0.745119 15,000 247 333 64
2022-06-22 22:22:15 GMT 48.761745 0.746853 15,000 247 333 64
2022-06-22 22:22:13 GMT 48.763779 0.754113 15,000 243 333 -64
2022-06-22 22:22:09 GMT 48.766029 0.760731 15,000 239 332 -64
2022-06-22 22:22:08 GMT 48.767380 0.764345 15,000 235 331 0
2022-06-22 22:22:06 GMT 48.768356 0.766719 15,000 235 331 0
2022-06-22 22:22:03 GMT 48.770599 0.771649 15,000 231 331 0
2022-06-22 22:21:59 GMT 48.774353 0.778691 15,000 226 330 128
2022-06-22 22:21:57 GMT 48.776962 0.782846 15,000 222 330 128
2022-06-22 22:21:55 GMT 48.779064 0.785884 15,000 216 330 0
2022-06-22 22:21:52 GMT 48.782501 0.790452 15,000 216 330 0
2022-06-22 22:21:51 GMT 48.783691 0.791861 15,000 216 330 0
2022-06-22 22:21:48 GMT 48.789726 0.798171 15,000 211 330 -64
2022-06-22 22:21:46 GMT 48.789726 0.798171 15,000 210 329 -64
2022-06-22 22:21:44 GMT 48.792343 0.800523 15,000 207 330 0
2022-06-22 22:21:43 GMT 48.793671 0.801579 15,000 207 330 0
2022-06-22 22:21:41 GMT 48.796383 0.803664 15,000 205 330 0
2022-06-22 22:21:40 GMT 48.799175 0.805616 15,000 203 329 0
2022-06-22 22:21:37 GMT 48.802109 0.807567 15,000 202 329 64
2022-06-22 22:21:36 GMT 48.802109 0.807567 15,000 202 329 64
2022-06-22 22:21:34 GMT 48.805344 0.809537 15,000 201 329 64
2022-06-22 22:21:33 GMT 48.808319 0.811298 15,000 201 330 0
2022-06-22 22:21:30 GMT 48.811325 0.812988 15,000 201 330 -64
2022-06-22 22:21:29 GMT 48.813080 0.813904 15,000 201 330 -128
2022-06-22 22:21:28 GMT 48.817188 0.816241 15,000 201 330 -128
2022-06-22 22:21:26 GMT 48.817188 0.816241 15,000 202 331 -128
2022-06-22 22:21:23 GMT 48.821777 0.818904 15,000 201 331 -64
2022-06-22 22:21:22 GMT 48.822922 0.819608 15,025 201 331 -64
2022-06-22 22:21:20 GMT 48.824638 0.820650 15,000 201 330 64
2022-06-22 22:21:19 GMT 48.830338 0.823834 15,000 199 330 64
2022-06-22 22:21:17 GMT 48.830338 0.823834 15,000 198 330 0
2022-06-22 22:21:15 GMT 48.833111 0.825203 15,000 195 328 64
2022-06-22 22:21:13 GMT 48.835300 0.826143 15,000 193 329 64
2022-06-22 22:21:11 GMT 48.837952 0.827227 15,000 190 328 0
2022-06-22 22:21:09 GMT 48.841072 0.828167 15,000 188 328 0
2022-06-22 22:21:08 GMT 48.842560 0.828600 15,000 185 328 0
2022-06-22 22:21:06 GMT 48.846771 0.829327 15,000 183 327 -64
2022-06-22 22:21:04 GMT 48.849777 0.829612 15,000 177 324 -64
2022-06-22 22:21:02 GMT 48.852631 0.829679 15,000 175 323 -64
2022-06-22 22:21:01 GMT 48.854294 0.829540 15,000 173 323 0
2022-06-22 22:21:00 GMT 48.858215 0.829186 15,000 167 320 0
2022-06-22 22:20:56 GMT 48.861877 0.828271 15,000 167 320 0
2022-06-22 22:20:54 GMT 48.863937 0.827778 15,000 164 321 0
2022-06-22 22:20:50 GMT 48.869934 0.825276 15,000 159 321 0
2022-06-22 22:20:48 GMT 48.872726 0.823763 15,000 154 320 0
2022-06-22 22:20:47 GMT 48.874100 0.822918 15,000 154 320 0
2022-06-22 22:20:45 GMT 48.876251 0.821439 15,000 152 320 0
2022-06-22 22:20:44 GMT 48.882408 0.816530 15,000 149 319 0
2022-06-22 22:20:42 GMT 48.882408 0.816530 15,000 146 319 0
2022-06-22 22:20:40 GMT 48.884766 0.814256 15,000 143 318 0
2022-06-22 22:20:39 GMT 48.886002 0.812988 15,000 142 319 0
2022-06-22 22:20:37 GMT 48.886459 0.812425 15,000 141 318 0
2022-06-22 22:20:36 GMT 48.888245 0.810453 15,000 139 318 0
2022-06-22 22:20:34 GMT 48.890415 0.807784 15,000 136 318 0
2022-06-22 22:20:32 GMT 48.892593 0.804819 15,000 135 318 0
2022-06-22 22:20:31 GMT 48.893768 0.803086 15,000 132 317 -64
2022-06-22 22:20:29 GMT 48.895798 0.799819 15,000 130 317 -64
2022-06-22 22:20:28 GMT 48.896656 0.798388 15,000 128 316 -64
2022-06-22 22:20:27 GMT 48.899357 0.793329 15,000 126 316 -64
2022-06-22 22:20:25 GMT 48.899357 0.793329 15,000 124 316 -64
2022-06-22 22:20:23 GMT 48.900890 0.790076 15,000 122 315 -64
2022-06-22 22:20:22 GMT 48.901684 0.788269 15,000 122 315 -64
2022-06-22 22:20:18 GMT 48.905918 0.777138 15,000 115 314 0
2022-06-22 22:20:16 GMT 48.906281 0.776156 15,000 112 316 64
2022-06-22 22:20:14 GMT 48.907471 0.772353 15,000 109 316 64
2022-06-22 22:20:13 GMT 48.908020 0.770311 15,000 106 316 128
2022-06-22 22:20:11 GMT 48.909180 0.765284 15,000 105 316 128
2022-06-22 22:20:09 GMT 48.910061 0.761020 15,000 103 317 128
2022-06-22 22:20:07 GMT 48.910950 0.755451 14,975 93 315 -64
2022-06-22 22:20:04 GMT 48.911728 0.746648 14,975 93 315 -64
2022-06-22 22:20:02 GMT 48.911728 0.746648 14,975 92 316 -64
2022-06-22 22:20:00 GMT 48.911922 0.741577 15,000 90 318 -64
2022-06-22 22:19:59 GMT 48.911957 0.739535 15,000 89 318 -64
2022-06-22 22:19:58 GMT 48.911957 0.737070 15,000 89 318 -64
2022-06-22 22:19:56 GMT 48.911922 0.730663 15,000 89 318 0
2022-06-22 22:19:53 GMT 48.911877 0.725965 15,000 89 318 0
2022-06-22 22:19:52 GMT 48.911831 0.723724 15,000 89 318 0
2022-06-22 22:19:51 GMT 48.911831 0.719460 15,000 89 318 0
2022-06-22 22:19:49 GMT 48.911785 0.717219 15,000 89 318 0
2022-06-22 22:19:47 GMT 48.911728 0.712985 15,000 89 318 0
2022-06-22 22:19:46 GMT 48.911690 0.710353 15,000 89 318 0
2022-06-22 22:19:45 GMT 48.911682 0.707914 15,000 89 318 0
2022-06-22 22:19:42 GMT 48.911598 0.701679 15,000 89 317 0
2022-06-22 22:19:40 GMT 48.911545 0.696998 15,000 89 317 0
2022-06-22 22:19:39 GMT 48.911507 0.690765 15,000 89 317 0
2022-06-22 22:19:37 GMT 48.911453 0.688336 15,000 89 317 0
2022-06-22 22:19:34 GMT 48.911407 0.680941 15,000 89 317 0
2022-06-22 22:19:31 GMT 48.911362 0.676504 15,000 89 317 0
2022-06-22 22:19:29 GMT 48.911316 0.672279 15,000 89 317 0
2022-06-22 22:19:28 GMT 48.911270 0.670311 15,000 89 317 0
2022-06-22 22:19:26 GMT 48.911224 0.665448 15,000 88 317 0
2022-06-22 22:19:25 GMT 48.911179 0.663444 15,000 88 317 0
2022-06-22 22:19:24 GMT 48.911179 0.661433 15,000 88 317 0
2022-06-22 22:19:22 GMT 48.911133 0.657208 15,000 88 317 0
2022-06-22 22:19:20 GMT 48.911087 0.652530 15,000 88 317 0
2022-06-22 22:19:19 GMT 48.911041 0.648338 15,000 88 317 64
2022-06-22 22:19:15 GMT 48.910904 0.637700 15,000 88 317 0
2022-06-22 22:19:13 GMT 48.910904 0.637700 15,000 88 317 64
2022-06-22 22:19:11 GMT 48.910858 0.634531 15,000 88 317 64
2022-06-22 22:19:10 GMT 48.910809 0.631425 15,000 88 317 0
2022-06-22 22:19:09 GMT 48.910713 0.627016 15,000 88 317 -64
2022-06-22 22:19:07 GMT 48.910721 0.625023 15,000 88 317 0
2022-06-22 22:19:06 GMT 48.910675 0.622559 15,000 88 317 0
2022-06-22 22:19:05 GMT 48.910622 0.618342 15,000 88 317 0
2022-06-22 22:19:03 GMT 48.910576 0.616102 15,000 88 317 -64
2022-06-22 22:19:02 GMT 48.910446 0.609460 15,000 88 317 0
2022-06-22 22:19:00 GMT 48.910446 0.609460 15,000 88 317 0
2022-06-22 22:18:58 GMT 48.910400 0.604741 15,000 88 317 0
2022-06-22 22:18:57 GMT 48.910355 0.602558 15,000 88 317 0
2022-06-22 22:18:55 GMT 48.910248 0.597671 15,000 88 317 0
2022-06-22 22:18:54 GMT 48.910248 0.595430 15,000 88 317 0
2022-06-22 22:18:51 GMT 48.910015 0.585022 15,000 88 317 0
2022-06-22 22:18:49 GMT 48.910015 0.585022 15,000 88 317 -64
2022-06-22 22:18:47 GMT 48.909878 0.575915 15,000 88 317 0
2022-06-22 22:18:45 GMT 48.909878 0.575915 15,000 88 317 0
2022-06-22 22:18:43 GMT 48.909782 0.572518 15,000 88 317 0
2022-06-22 22:18:41 GMT 48.909668 0.565232 15,000 88 317 64
2022-06-22 22:18:39 GMT 48.909595 0.562977 15,000 88 317 64
2022-06-22 22:18:37 GMT 48.909504 0.559002 15,000 87 317 0
2022-06-22 22:18:35 GMT 48.909409 0.554376 15,000 87 317 0
2022-06-22 22:18:34 GMT 48.909363 0.551702 15,000 87 317 0
2022-06-22 22:18:32 GMT 48.909271 0.548594 15,000 87 317 0
2022-06-22 22:18:31 GMT 48.909180 0.544763 15,000 87 318 0
2022-06-22 22:18:29 GMT 48.909039 0.540354 15,000 87 318 0
2022-06-22 22:18:27 GMT 48.908943 0.536089 15,000 87 318 0
2022-06-22 22:18:25 GMT 48.908615 0.526287 15,000 87 319 0
2022-06-22 22:18:23 GMT 48.908527 0.523368 15,000 87 319 0
2022-06-22 22:18:20 GMT 48.908432 0.520260 15,000 87 319 0
2022-06-22 22:18:19 GMT 48.908340 0.518237 15,000 87 320 -64
2022-06-22 22:18:17 GMT 48.908203 0.513540 15,000 87 320 -64
2022-06-22 22:18:16 GMT 48.908112 0.510160 15,000 88 320 -64
2022-06-22 22:18:15 GMT 48.908066 0.507906 15,000 88 320 -64
2022-06-22 22:18:13 GMT 48.907974 0.504808 15,000 90 320 0
2022-06-22 22:18:11 GMT 48.907883 0.499174 15,000 90 320 0
2022-06-22 22:18:09 GMT 48.907928 0.490864 15,000 91 320 64
2022-06-22 22:18:07 GMT 48.907928 0.490864 15,000 91 320 64
2022-06-22 22:18:05 GMT 48.907967 0.486651 15,000 91 321 64
2022-06-22 22:18:04 GMT 48.908058 0.481953 15,000 86 322 0
2022-06-22 22:18:01 GMT 48.908157 0.477201 15,000 86 322 0
2022-06-22 22:17:59 GMT 48.908108 0.472701 15,000 82 323 -64
2022-06-22 22:17:58 GMT 48.908020 0.468398 15,000 82 323 -64
2022-06-22 22:17:55 GMT 48.907597 0.461643 15,000 78 324 -64
2022-06-22 22:17:53 GMT 48.907288 0.459665 15,000 78 324 -64
2022-06-22 22:17:52 GMT 48.906464 0.452763 15,000 68 325 0
2022-06-22 22:17:50 GMT 48.906464 0.452763 15,000 68 325 0
2022-06-22 22:17:47 GMT 48.905266 0.446175 15,000 68 325 0
2022-06-22 22:17:46 GMT 48.903683 0.439525 15,000 58 325 0
2022-06-22 22:17:44 GMT 48.902473 0.435406 15,000 58 325 0
2022-06-22 22:17:42 GMT 48.902473 0.435406 15,000 58 325 0
2022-06-22 22:17:40 GMT 48.900753 0.430346 15,000 54 326 0
2022-06-22 22:17:38 GMT 48.899918 0.428185 15,000 54 326 0
2022-06-22 22:17:36 GMT 48.897766 0.422974 15,000 48 328 0
2022-06-22 22:17:34 GMT 48.896004 0.419215 15,000 48 328 0
2022-06-22 22:17:32 GMT 48.892235 0.412349 15,000 45 329 0
2022-06-22 22:17:30 GMT 48.892235 0.412349 15,000 43 329 0
2022-06-22 22:17:28 GMT 48.890213 0.409241 15,000 37 331 0
2022-06-22 22:17:27 GMT 48.888107 0.406283 15,000 37 331 0
2022-06-22 22:17:24 GMT 48.885670 0.403169 15,000 36 331 0
2022-06-22 22:17:23 GMT 48.884319 0.401651 15,000 33 332 64
2022-06-22 22:17:22 GMT 48.883343 0.400495 15,000 31 332 64
2022-06-22 22:17:21 GMT 48.880363 0.397604 15,000 28 333 64
2022-06-22 22:17:19 GMT 48.875149 0.393195 15,000 25 334 64
2022-06-22 22:17:16 GMT 48.875149 0.393195 15,000 24 334 0
2022-06-22 22:17:14 GMT 48.873146 0.391822 15,000 18 336 -64
2022-06-22 22:17:13 GMT 48.871582 0.390789 15,000 18 336 -64
2022-06-22 22:17:11 GMT 48.868835 0.389240 15,000 13 336 0
2022-06-22 22:17:09 GMT 48.861694 0.386112 15,000 9 337 64
2022-06-22 22:17:07 GMT 48.861694 0.386112 15,000 9 337 64
2022-06-22 22:17:05 GMT 48.860321 0.385648 15,000 3 338 64
2022-06-22 22:17:03 GMT 48.855690 0.384594 15,000 3 338 64
2022-06-22 22:17:01 GMT 48.853363 0.384310 15,000 359 339 0
2022-06-22 22:16:59 GMT 48.849590 0.384016 15,000 353 339 0
2022-06-22 22:16:56 GMT 48.843613 0.384310 15,000 351 340 0
2022-06-22 22:16:54 GMT 48.842056 0.384592 15,000 348 340 -64
2022-06-22 22:16:51 GMT 48.836510 0.386112 15,000 344 340 -64
2022-06-22 22:16:49 GMT 48.834045 0.386986 15,000 342 340 0
2022-06-22 22:16:47 GMT 48.830978 0.388324 15,000 339 340 0
2022-06-22 22:16:45 GMT 48.828316 0.389726 15,000 338 340 0
2022-06-22 22:16:44 GMT 48.826828 0.390593 15,000 335 341 0
2022-06-22 22:16:41 GMT 48.822006 0.394029 15,000 324 341 0
2022-06-22 22:16:40 GMT 48.820728 0.395002 15,000 324 341 0
2022-06-22 22:16:38 GMT 48.818115 0.397268 15,000 324 341 0
2022-06-22 22:16:35 GMT 48.814087 0.401424 15,000 323 341 0
2022-06-22 22:16:34 GMT 48.812908 0.402663 15,000 319 340 0
2022-06-22 22:16:32 GMT 48.808640 0.408255 15,000 315 341 0
2022-06-22 22:16:30 GMT 48.808640 0.408255 15,000 315 341 0
2022-06-22 22:16:28 GMT 48.806030 0.412128 15,000 310 341 -64
2022-06-22 22:16:27 GMT 48.804855 0.414083 15,000 308 342 -64
2022-06-22 22:16:23 GMT 48.799713 0.424312 15,000 299 342 64
2022-06-22 22:16:21 GMT 48.799713 0.424312 15,000 299 342 64
2022-06-22 22:16:18 GMT 48.797405 0.430057 15,000 295 342 0
2022-06-22 22:16:15 GMT 48.794861 0.437763 15,000 290 341 64
2022-06-22 22:16:13 GMT 48.793854 0.441777 15,000 287 342 0
2022-06-22 22:16:11 GMT 48.793030 0.445158 15,000 287 342 0
2022-06-22 22:16:09 GMT 48.791931 0.450862 15,000 279 342 0
2022-06-22 22:16:08 GMT 48.791245 0.455510 15,000 279 342 0
2022-06-22 22:16:06 GMT 48.790970 0.457412 15,000 276 341 -64
2022-06-22 22:16:04 GMT 48.790516 0.462076 15,000 275 340 -64
2022-06-22 22:16:03 GMT 48.790329 0.464461 15,000 273 341 -64
2022-06-22 22:16:01 GMT 48.790096 0.468943 15,000 268 339 0
2022-06-22 22:16:00 GMT 48.790054 0.476074 15,000 268 339 0
2022-06-22 22:15:58 GMT 48.790054 0.476074 15,000 260 338 0
2022-06-22 22:15:56 GMT 48.790329 0.482965 15,000 260 338 0
2022-06-22 22:15:55 GMT 48.790516 0.485495 15,000 260 338 0
2022-06-22 22:15:53 GMT 48.790703 0.487880 15,000 259 337 64
2022-06-22 22:15:51 GMT 48.791260 0.492506 15,000 256 336 64
2022-06-22 22:15:50 GMT 48.792053 0.497276 15,000 253 335 0
2022-06-22 22:15:48 GMT 48.792473 0.499517 15,000 251 335 0
2022-06-22 22:15:46 GMT 48.794357 0.507906 15,000 246 335 0
2022-06-22 22:15:43 GMT 48.794987 0.510069 15,000 244 334 0
2022-06-22 22:15:41 GMT 48.796894 0.516213 15,000 240 334 -64
2022-06-22 22:15:39 GMT 48.798199 0.519899 15,000 237 332 -64
2022-06-22 22:15:37 GMT 48.800106 0.524380 15,000 234 333 -64
2022-06-22 22:15:35 GMT 48.801361 0.527344 15,000 232 332 -64
2022-06-22 22:15:33 GMT 48.803741 0.531921 15,000 228 331 0
2022-06-22 22:15:32 GMT 48.804577 0.533487 15,000 228 331 0
2022-06-22 22:15:28 GMT 48.808624 0.540137 15,000 221 330 192
2022-06-22 22:15:25 GMT 48.813309 0.546499 14,975 211 329 -64
2022-06-22 22:15:21 GMT 48.819672 0.553190 14,975 211 329 -64
2022-06-22 22:15:19 GMT 48.819672 0.553190 15,000 210 329 -64
2022-06-22 22:15:17 GMT 48.821228 0.554598 15,000 208 329 -64
2022-06-22 22:15:16 GMT 48.822685 0.555821 15,000 208 329 -64
2022-06-22 22:15:14 GMT 48.828876 0.560736 15,000 208 329 0
2022-06-22 22:15:12 GMT 48.828876 0.560736 15,000 207 329 0
2022-06-22 22:15:11 GMT 48.830109 0.561711 15,000 207 329 0
2022-06-22 22:15:07 GMT 48.834461 0.565073 15,000 207 329 0
2022-06-22 22:15:06 GMT 48.835812 0.566085 15,000 208 330 64
2022-06-22 22:15:04 GMT 48.842056 0.570867 15,000 207 329 0
2022-06-22 22:15:02 GMT 48.842056 0.570867 15,000 207 329 0
2022-06-22 22:15:00 GMT 48.844894 0.573120 15,000 207 329 0
2022-06-22 22:14:58 GMT 48.848145 0.575585 15,000 207 329 64
2022-06-22 22:14:57 GMT 48.848145 0.575585 15,000 207 329 64
2022-06-22 22:14:55 GMT 48.851578 0.578191 15,000 207 328 64
2022-06-22 22:14:52 GMT 48.858215 0.583332 15,000 207 328 64
2022-06-22 22:14:50 GMT 48.858215 0.583332 15,000 207 328 64
2022-06-22 22:14:48 GMT 48.861328 0.585726 15,000 207 328 0
2022-06-22 22:14:47 GMT 48.862812 0.586901 15,000 207 328 0
2022-06-22 22:14:46 GMT 48.866211 0.589503 15,000 207 328 -64
2022-06-22 22:14:43 GMT 48.867561 0.590515 15,000 207 328 -64
2022-06-22 22:14:42 GMT 48.869560 0.592105 15,000 207 328 -64
2022-06-22 22:14:41 GMT 48.872131 0.594036 15,000 207 327 -64
2022-06-22 22:14:38 GMT 48.874603 0.595938 15,000 207 327 0
2022-06-22 22:14:36 GMT 48.877441 0.598121 15,000 207 327 0
2022-06-22 22:14:34 GMT 48.881607 0.601290 15,000 207 326 64
2022-06-22 22:14:32 GMT 48.882660 0.602135 15,000 207 326 0
2022-06-22 22:14:30 GMT 48.884972 0.603887 15,000 207 326 0
2022-06-22 22:14:28 GMT 48.889671 0.607501 15,000 208 326 0
2022-06-22 22:14:26 GMT 48.893967 0.610868 15,000 208 326 0
2022-06-22 22:14:24 GMT 48.893967 0.610868 15,000 208 326 -64
2022-06-22 22:14:23 GMT 48.896347 0.612769 15,000 208 326 -64
2022-06-22 22:14:20 GMT 48.899029 0.614873 15,000 208 327 -64
2022-06-22 22:14:18 GMT 48.901871 0.617114 15,000 208 327 -64
2022-06-22 22:14:17 GMT 48.904953 0.619530 15,000 208 327 -64
2022-06-22 22:14:14 GMT 48.906967 0.621150 15,000 208 328 -64
2022-06-22 22:14:13 GMT 48.908432 0.622318 15,000 208 328 -64
2022-06-22 22:14:12 GMT 48.910576 0.624052 15,000 208 328 -64
2022-06-22 22:14:09 GMT 48.913136 0.626076 15,000 208 329 -64
2022-06-22 22:14:07 GMT 48.915710 0.628122 15,025 208 330 0
2022-06-22 22:14:05 GMT 48.917725 0.629742 15,025 208 330 0
2022-06-22 22:14:04 GMT 48.919746 0.631352 15,000 208 332 64
2022-06-22 22:14:03 GMT 48.923004 0.633954 15,000 208 332 64
2022-06-22 22:14:00 GMT 48.925186 0.635658 15,000 208 332 64
2022-06-22 22:13:58 GMT 48.927109 0.637137 15,000 210 334 64
2022-06-22 22:13:57 GMT 48.931988 0.641182 15,000 212 336 64
2022-06-22 22:13:55 GMT 48.931988 0.641182 15,000 212 336 64
2022-06-22 22:13:54 GMT 48.933243 0.642207 15,000 213 337 64
2022-06-22 22:13:52 GMT 48.936264 0.645095 14,975 217 339 0
2022-06-22 22:13:51 GMT 48.939156 0.647904 14,975 218 341 0
2022-06-22 22:13:48 GMT 48.940567 0.649461 14,975 219 341 -64
2022-06-22 22:13:47 GMT 48.942696 0.651952 15,000 220 342 -64
2022-06-22 22:13:45 GMT 48.944836 0.654482 15,000 222 343 0
2022-06-22 22:13:44 GMT 48.946049 0.655999 15,000 223 343 0
2022-06-22 22:13:43 GMT 48.948441 0.659180 15,000 224 344 0
2022-06-22 22:13:41 GMT 48.949631 0.660799 15,000 227 344 0
2022-06-22 22:13:40 GMT 48.951920 0.664180 15,000 228 345 0
2022-06-22 22:13:38 GMT 48.953156 0.666081 15,000 229 345 0
2022-06-22 22:13:37 GMT 48.954147 0.667709 15,000 229 345 0
2022-06-22 22:13:36 GMT 48.957405 0.673346 15,000 231 346 0
2022-06-22 22:13:34 GMT 48.957405 0.673346 15,000 233 346 0
2022-06-22 22:13:32 GMT 48.960388 0.679040 15,000 235 347 0
2022-06-22 22:13:31 GMT 48.960388 0.679040 15,000 235 346 0
2022-06-22 22:13:30 GMT 48.961349 0.681011 15,000 236 347 0
2022-06-22 22:13:28 GMT 48.963177 0.685055 15,000 239 348 0
2022-06-22 22:13:26 GMT 48.964947 0.689103 15,000 240 348 0
2022-06-22 22:13:24 GMT 48.967255 0.695026 15,000 246 349 -64
2022-06-22 22:13:20 GMT 48.970207 0.703703 15,000 247 349 -64
2022-06-22 22:13:16 GMT 48.973747 0.716352 15,000 251 349 0
2022-06-22 22:13:14 GMT 48.973747 0.716352 15,000 253 349 0
2022-06-22 22:13:10 GMT 48.975468 0.724519 15,000 258 349 64
2022-06-22 22:13:06 GMT 48.977142 0.734711 15,000 260 350 64
2022-06-22 22:13:03 GMT 48.977890 0.741505 15,000 266 351 0
2022-06-22 22:13:01 GMT 48.978333 0.747915 15,000 272 353 0
2022-06-22 22:12:58 GMT 48.978493 0.754298 15,000 272 353 0
2022-06-22 22:12:54 GMT 48.978378 0.765170 15,000 275 353 0
2022-06-22 22:12:50 GMT 48.977890 0.775042 15,000 276 353 0
2022-06-22 22:12:47 GMT 48.977417 0.782212 15,000 277 353 0
2022-06-22 22:12:43 GMT 48.976818 0.791088 15,000 277 353 0
2022-06-22 22:12:40 GMT 48.976257 0.798749 15,000 277 353 0
2022-06-22 22:12:37 GMT 48.975769 0.806227 15,000 276 354 0
2022-06-22 22:12:34 GMT 48.975327 0.812627 15,000 276 354 0
2022-06-22 22:12:30 GMT 48.974579 0.823059 15,000 276 354 -64
2022-06-22 22:12:27 GMT 48.973373 0.840599 15,000 277 353 0
2022-06-22 22:12:24 GMT 48.973373 0.840599 15,000 276 353 0
2022-06-22 22:12:20 GMT 48.972954 0.847248 15,000 276 353 0
2022-06-22 22:12:17 GMT 48.972336 0.856159 15,000 276 353 0
2022-06-22 22:12:15 GMT 48.971512 0.868272 15,000 277 353 0
2022-06-22 22:12:12 GMT 48.971512 0.868272 15,000 277 353 64
2022-06-22 22:12:09 GMT 48.971092 0.873919 15,000 277 353 64
2022-06-22 22:12:07 GMT 48.970642 0.880878 15,000 277 353 64
2022-06-22 22:12:05 GMT 48.970348 0.885050 15,000 277 355 0
2022-06-22 22:12:03 GMT 48.970020 0.889748 15,000 277 355 0
2022-06-22 22:12:00 GMT 48.969463 0.897915 15,000 277 355 0
2022-06-22 22:11:57 GMT 48.968903 0.905649 15,000 277 355 0
2022-06-22 22:11:55 GMT 48.968487 0.911576 15,000 277 355 0
2022-06-22 22:11:53 GMT 48.968250 0.915335 15,000 277 355 0
2022-06-22 22:11:50 GMT 48.967648 0.923502 15,000 277 355 0
2022-06-22 22:11:47 GMT 48.967117 0.931162 15,000 277 355 0
2022-06-22 22:11:43 GMT 48.965412 0.954943 15,000 277 355 0
2022-06-22 22:11:37 GMT 48.965412 0.954943 15,000 277 354 0
2022-06-22 22:11:35 GMT 48.964993 0.960653 15,000 277 354 0
2022-06-22 22:11:33 GMT 48.964760 0.964123 15,000 277 353 0
2022-06-22 22:11:30 GMT 48.964005 0.974473 15,000 277 353 0
2022-06-22 22:11:26 GMT 48.963364 0.983349 15,000 277 352 0
2022-06-22 22:11:23 GMT 48.963085 0.987252 15,000 277 352 0
2022-06-22 22:11:21 GMT 48.962723 0.992150 15,000 277 352 0
2022-06-22 22:11:19 GMT 48.962296 0.997804 15,000 277 351 -64
2022-06-22 22:11:16 GMT 48.961781 1.004960 15,000 277 352 0
2022-06-22 22:11:13 GMT 48.961121 1.014263 15,000 277 351 0
2022-06-22 22:11:09 GMT 48.959827 1.032643 15,000 277 350 0
2022-06-22 22:11:06 GMT 48.959827 1.032643 15,000 277 350 0
2022-06-22 22:11:03 GMT 48.959454 1.037774 15,000 277 350 0
2022-06-22 22:11:01 GMT 48.959221 1.041171 15,000 277 350 0
2022-06-22 22:10:59 GMT 48.958755 1.047821 15,000 277 348 0
2022-06-22 22:10:56 GMT 48.958054 1.057575 15,000 277 348 0
2022-06-22 22:10:53 GMT 48.957684 1.062710 15,000 277 348 0
2022-06-22 22:10:50 GMT 48.957314 1.067770 15,000 276 348 0
2022-06-22 22:10:46 GMT 48.956497 1.079477 15,000 276 347 0
2022-06-22 22:10:44 GMT 48.956150 1.084322 15,000 276 347 0
2022-06-22 22:10:41 GMT 48.954800 1.104271 15,000 276 346 0
2022-06-22 22:10:36 GMT 48.954800 1.104271 15,000 276 346 0
2022-06-22 22:10:33 GMT 48.954391 1.110042 15,000 276 346 0
2022-06-22 22:10:31 GMT 48.954006 1.116124 15,000 276 346 0
2022-06-22 22:10:26 GMT 48.953110 1.128916 15,000 276 345 0
2022-06-22 22:10:24 GMT 48.952797 1.133760 15,000 276 345 0
2022-06-22 22:10:21 GMT 48.952377 1.139542 15,000 276 345 0
2022-06-22 22:10:17 GMT 48.951553 1.151663 15,000 276 345 0
2022-06-22 22:10:15 GMT 48.951305 1.155516 15,000 276 345 0
2022-06-22 22:10:11 GMT 48.950657 1.164912 15,000 276 345 0
2022-06-22 22:10:06 GMT 48.949860 1.176523 15,000 276 345 0
2022-06-22 22:10:03 GMT 48.948898 1.190256 15,000 277 347 0
2022-06-22 22:10:00 GMT 48.948898 1.190256 15,000 277 345 64
2022-06-22 22:09:57 GMT 48.948303 1.198707 15,000 277 347 0
2022-06-22 22:09:55 GMT 48.947983 1.203073 15,000 277 347 0
2022-06-22 22:09:53 GMT 48.947536 1.209363 15,000 277 347 0
2022-06-22 22:09:51 GMT 48.947117 1.214495 15,000 277 348 0
2022-06-22 22:09:47 GMT 48.946514 1.222952 15,000 277 348 0
2022-06-22 22:09:44 GMT 48.945877 1.231173 15,000 277 347 0
2022-06-22 22:09:41 GMT 48.945442 1.236757 15,000 277 347 0
2022-06-22 22:09:39 GMT 48.944366 1.250117 15,000 277 347 64
2022-06-22 22:09:36 GMT 48.944366 1.250117 15,000 277 347 0
2022-06-22 22:09:33 GMT 48.943768 1.257356 15,000 277 346 0
2022-06-22 22:09:31 GMT 48.943485 1.261187 15,000 277 346 -64
2022-06-22 22:09:29 GMT 48.942417 1.274703 15,000 277 346 0
2022-06-22 22:09:26 GMT 48.942417 1.274703 15,000 277 346 64
2022-06-22 22:09:24 GMT 48.942261 1.276879 15,000 277 346 64
2022-06-22 22:09:21 GMT 48.941620 1.284837 15,000 277 346 0
2022-06-22 22:09:19 GMT 48.941299 1.289203 15,000 277 346 -64
2022-06-22 22:09:15 GMT 48.940292 1.301739 15,000 277 346 -64
2022-06-22 22:09:12 GMT 48.939903 1.306795 15,000 277 345 0
2022-06-22 22:09:09 GMT 48.939148 1.315965 15,000 277 345 0
2022-06-22 22:09:06 GMT 48.938553 1.323430 15,000 277 345 64
2022-06-22 22:09:02 GMT 48.937992 1.330936 15,000 277 345 0
2022-06-22 22:08:59 GMT 48.937408 1.338149 15,000 277 345 0
2022-06-22 22:08:56 GMT 48.936722 1.346529 15,000 278 344 0
2022-06-22 22:08:53 GMT 48.936226 1.352764 15,000 278 344 0
2022-06-22 22:08:50 GMT 48.935665 1.359703 15,000 278 344 0
2022-06-22 22:08:48 GMT 48.935341 1.363606 15,000 278 344 0
2022-06-22 22:08:45 GMT 48.934753 1.371249 15,000 278 344 0
2022-06-22 22:08:42 GMT 48.934067 1.379629 15,000 278 344 0
2022-06-22 22:08:38 GMT 48.933384 1.388325 15,000 278 344 0
2022-06-22 22:08:35 GMT 48.932327 1.401532 15,000 278 344 0
2022-06-22 22:08:33 GMT 48.932327 1.401532 15,000 278 344 0
2022-06-22 22:08:30 GMT 48.931870 1.407236 15,000 278 344 0
2022-06-22 22:08:28 GMT 48.931274 1.414208 15,000 278 344 0
2022-06-22 22:08:25 GMT 48.930771 1.420476 15,000 278 344 0
2022-06-22 22:08:23 GMT 48.930359 1.425476 15,000 278 344 0
2022-06-22 22:08:20 GMT 48.929428 1.436535 15,000 278 344 0
2022-06-22 22:08:15 GMT 48.928162 1.451886 15,000 278 344 0
2022-06-22 22:08:12 GMT 48.928162 1.451886 15,000 278 344 0
2022-06-22 22:08:09 GMT 48.927658 1.458074 15,000 278 344 0
2022-06-22 22:08:07 GMT 48.926743 1.468647 15,000 278 344 0
2022-06-22 22:08:05 GMT 48.926743 1.468647 15,000 278 344 0
2022-06-22 22:08:02 GMT 48.926285 1.474140 15,000 278 344 0
2022-06-22 22:07:59 GMT 48.925144 1.488069 15,000 278 344 -64
2022-06-22 22:07:57 GMT 48.925144 1.488069 15,000 278 344 -64
2022-06-22 22:07:55 GMT 48.924679 1.493129 15,000 278 344 -64
2022-06-22 22:07:52 GMT 48.923492 1.507028 15,000 278 344 0
2022-06-22 22:07:49 GMT 48.923492 1.507028 15,000 278 344 0
2022-06-22 22:07:45 GMT 48.922726 1.516113 15,000 278 344 64
2022-06-22 22:07:42 GMT 48.922119 1.523052 15,000 278 344 0
2022-06-22 22:07:39 GMT 48.921341 1.531748 15,000 278 345 0
2022-06-22 22:07:35 GMT 48.919876 1.548579 15,000 278 345 0
2022-06-22 22:07:32 GMT 48.919231 1.555794 15,000 278 347 0
2022-06-22 22:07:28 GMT 48.919231 1.555794 15,000 278 347 0
2022-06-22 22:07:25 GMT 48.918457 1.564918 15,000 278 347 64
2022-06-22 22:07:22 GMT 48.917931 1.570973 15,000 278 347 0
2022-06-22 22:07:19 GMT 48.917324 1.577984 15,000 278 348 -64
2022-06-22 22:07:17 GMT 48.916672 1.585200 15,000 278 346 0
2022-06-22 22:07:14 GMT 48.916161 1.590994 15,000 278 346 0
2022-06-22 22:07:11 GMT 48.915649 1.597282 15,000 278 346 0
2022-06-22 22:07:08 GMT 48.914951 1.605233 15,000 278 345 -64
2022-06-22 22:07:05 GMT 48.914299 1.612750 15,000 278 345 64
2022-06-22 22:07:03 GMT 48.913879 1.617737 15,000 278 344 64
2022-06-22 22:06:59 GMT 48.913136 1.625904 15,000 278 344 0
2022-06-22 22:06:57 GMT 48.912735 1.630695 15,000 278 344 0
2022-06-22 22:06:55 GMT 48.911831 1.641300 15,000 278 344 -64
2022-06-22 22:06:53 GMT 48.911831 1.641300 15,000 278 344 -64
2022-06-22 22:06:51 GMT 48.911411 1.645853 15,000 278 345 0
2022-06-22 22:06:47 GMT 48.910675 1.654992 15,000 278 345 0
2022-06-22 22:06:45 GMT 48.910156 1.661248 15,000 278 345 0
2022-06-22 22:06:42 GMT 48.909595 1.667970 15,000 277 345 0
2022-06-22 22:06:39 GMT 48.908897 1.676355 15,000 277 345 -64
2022-06-22 22:06:36 GMT 48.908386 1.682860 15,000 277 345 0
2022-06-22 22:06:34 GMT 48.907974 1.687880 15,000 277 345 0
2022-06-22 22:06:31 GMT 48.907455 1.694135 15,000 277 345 64
2022-06-22 22:06:27 GMT 48.906616 1.704471 15,000 278 345 64
2022-06-22 22:06:25 GMT 48.906151 1.710036 15,000 278 345 0
2022-06-22 22:06:23 GMT 48.905731 1.715346 15,000 278 345 0
2022-06-22 22:06:21 GMT 48.905411 1.718656 15,000 278 345 0
2022-06-22 22:06:16 GMT 48.904335 1.731431 15,000 278 345 0
2022-06-22 22:06:13 GMT 48.903732 1.738442 15,000 278 345 -64
2022-06-22 22:06:10 GMT 48.903313 1.743212 15,000 278 344 0
2022-06-22 22:06:07 GMT 48.902481 1.752812 15,000 278 344 0
2022-06-22 22:06:04 GMT 48.902008 1.758102 15,000 278 343 0
2022-06-22 22:06:02 GMT 48.901657 1.762672 15,000 278 343 0
2022-06-22 22:05:58 GMT 48.900742 1.773376 15,000 278 342 0
2022-06-22 22:05:55 GMT 48.900238 1.779856 15,000 278 342 0
2022-06-22 22:05:53 GMT 48.899734 1.785771 15,000 278 341 0
2022-06-22 22:05:49 GMT 48.899029 1.794385 15,000 278 341 0
2022-06-22 22:05:46 GMT 48.897724 1.810504 15,000 278 341 0
2022-06-22 22:05:43 GMT 48.897724 1.810504 15,000 278 340 0
2022-06-22 22:05:39 GMT 48.897026 1.818816 15,000 278 341 0
2022-06-22 22:05:36 GMT 48.896423 1.826188 15,000 278 341 64
2022-06-22 22:05:34 GMT 48.896118 1.829717 15,000 278 341 0
2022-06-22 22:05:32 GMT 48.895630 1.835440 15,000 278 341 0
2022-06-22 22:05:29 GMT 48.894978 1.843029 15,000 278 341 0
2022-06-22 22:05:25 GMT 48.894325 1.850835 15,000 278 341 -64
2022-06-22 22:05:23 GMT 48.893600 1.859436 15,000 278 341 -64
2022-06-22 22:05:19 GMT 48.893005 1.866338 15,000 278 341 0
2022-06-22 22:05:14 GMT 48.891720 1.880830 15,000 278 341 64
2022-06-22 22:05:11 GMT 48.891449 1.884437 15,000 278 341 0
2022-06-22 22:05:09 GMT 48.890808 1.891268 15,000 278 342 0
2022-06-22 22:05:07 GMT 48.890511 1.895069 15,000 278 342 0
2022-06-22 22:05:05 GMT 48.890182 1.898466 15,000 278 342 0
2022-06-22 22:05:03 GMT 48.889114 1.910537 15,000 278 342 -64
2022-06-22 22:05:00 GMT 48.889114 1.910537 15,000 278 342 -64
2022-06-22 22:04:57 GMT 48.888336 1.919086 15,000 279 341 0
2022-06-22 22:04:54 GMT 48.887375 1.929298 15,000 279 341 0
2022-06-22 22:04:50 GMT 48.886139 1.942608 15,000 279 341 0
2022-06-22 22:04:47 GMT 48.886139 1.942608 15,000 279 341 0
2022-06-22 22:04:45 GMT 48.885773 1.946411 15,000 279 341 64
2022-06-22 22:04:42 GMT 48.884972 1.954916 15,000 279 341 0
2022-06-22 22:04:38 GMT 48.884274 1.962288 15,000 279 341 0
2022-06-22 22:04:34 GMT 48.883202 1.973853 15,000 279 341 0
2022-06-22 22:04:32 GMT 48.882782 1.977900 15,000 279 341 0
2022-06-22 22:04:30 GMT 48.882362 1.982599 15,000 279 341 0
2022-06-22 22:04:27 GMT 48.881790 1.988807 15,000 279 341 0
2022-06-22 22:04:25 GMT 48.880779 1.999223 15,000 279 342 0
2022-06-22 22:04:23 GMT 48.880455 2.002981 15,000 279 342 0
2022-06-22 22:04:17 GMT 48.878872 2.020111 15,000 278 341 0
2022-06-22 22:04:14 GMT 48.878872 2.020111 15,000 278 341 -64
2022-06-22 22:04:11 GMT 48.878220 2.027189 15,000 278 341 0
2022-06-22 22:04:08 GMT 48.877487 2.035006 15,000 278 341 64
2022-06-22 22:04:05 GMT 48.876938 2.041415 15,000 278 342 0
2022-06-22 22:04:03 GMT 48.876389 2.047612 15,000 278 342 0
2022-06-22 22:03:58 GMT 48.875427 2.058528 15,000 278 342 0
2022-06-22 22:03:56 GMT 48.875008 2.063044 15,000 278 342 -64
2022-06-22 22:03:54 GMT 48.874588 2.068032 15,000 278 342 0
2022-06-22 22:03:52 GMT 48.873734 2.077543 15,000 278 343 0
2022-06-22 22:03:47 GMT 48.872726 2.088992 15,000 278 344 0
2022-06-22 22:03:45 GMT 48.872726 2.088992 15,000 278 344 0
2022-06-22 22:03:41 GMT 48.871937 2.097810 15,000 278 344 -64
2022-06-22 22:03:38 GMT 48.871143 2.106628 15,000 278 344 0
2022-06-22 22:03:34 GMT 48.870255 2.116418 15,000 278 344 0
2022-06-22 22:03:32 GMT 48.869888 2.120289 15,000 278 344 0
2022-06-22 22:03:30 GMT 48.869522 2.124305 15,000 278 344 64
2022-06-22 22:03:28 GMT 48.868912 2.130986 15,000 278 344 64
2022-06-22 22:03:26 GMT 48.868214 2.138937 15,000 278 345 64
2022-06-22 22:03:22 GMT 48.867645 2.144869 15,000 278 345 64
2022-06-22 22:03:19 GMT 48.867046 2.151586 15,000 278 346 0
2022-06-22 22:03:16 GMT 48.866318 2.159729 15,000 278 346 0
2022-06-22 22:03:13 GMT 48.865814 2.165504 15,000 278 346 0
2022-06-22 22:03:11 GMT 48.864532 2.179702 15,000 278 345 0
2022-06-22 22:03:07 GMT 48.864532 2.179702 15,000 278 345 0
2022-06-22 22:03:05 GMT 48.863976 2.185701 15,000 278 345 64
2022-06-22 22:03:03 GMT 48.863571 2.190223 15,000 278 345 64
2022-06-22 22:03:01 GMT 48.863022 2.196209 15,000 279 344 0
2022-06-22 22:02:57 GMT 48.862381 2.203393 15,000 279 344 0
2022-06-22 22:02:54 GMT 48.861694 2.210565 15,000 279 344 64
2022-06-22 22:02:52 GMT 48.861137 2.216492 15,000 279 344 64
2022-06-22 22:02:49 GMT 48.860413 2.224379 15,000 279 344 0
2022-06-22 22:02:46 GMT 48.859726 2.231774 15,000 279 344 64
2022-06-22 22:02:42 GMT 48.858994 2.239910 15,000 279 344 0
2022-06-22 22:02:39 GMT 48.858170 2.248535 15,000 279 343 0
2022-06-22 22:02:36 GMT 48.857758 2.253042 15,000 279 343 0
2022-06-22 22:02:34 GMT 48.857208 2.258747 15,000 279 343 0
2022-06-22 22:02:32 GMT 48.856339 2.268043 15,000 279 343 0
2022-06-22 22:02:27 GMT 48.855644 2.275688 15,000 279 343 0
2022-06-22 22:02:25 GMT 48.855103 2.281424 15,000 279 343 0
2022-06-22 22:02:22 GMT 48.854340 2.289276 15,000 279 343 0
2022-06-22 22:02:19 GMT 48.853874 2.294263 15,000 279 343 0
2022-06-22 22:02:16 GMT 48.853226 2.300931 15,000 279 343 0
2022-06-22 22:02:14 GMT 48.852757 2.305683 15,000 279 344 -64
2022-06-22 22:02:12 GMT 48.851944 2.314242 15,000 279 344 -64
2022-06-22 22:02:10 GMT 48.851715 2.316636 15,000 279 344 -64
2022-06-22 22:02:07 GMT 48.850986 2.323825 15,000 279 344 -64
2022-06-22 22:02:04 GMT 48.850197 2.332210 15,025 279 345 -64
2022-06-22 22:02:02 GMT 48.849335 2.340792 15,025 279 345 -64
2022-06-22 22:02:00 GMT 48.849335 2.340792 15,025 279 346 -64
2022-06-22 22:01:57 GMT 48.848614 2.348472 15,025 279 346 0
2022-06-22 22:01:54 GMT 48.847961 2.354736 15,025 279 347 0
2022-06-22 22:01:51 GMT 48.846909 2.365582 15,000 279 353 64
2022-06-22 22:01:49 GMT 48.846268 2.372061 15,000 279 353 64
2022-06-22 22:01:47 GMT 48.846268 2.372061 15,000 279 350 0
2022-06-22 22:01:45 GMT 48.845726 2.377673 15,000 279 352 0
2022-06-22 22:01:43 GMT 48.845352 2.381075 15,000 279 353 0
2022-06-22 22:01:39 GMT 48.844330 2.391333 15,000 279 353 64
2022-06-22 22:01:36 GMT 48.843819 2.396682 15,000 279 353 64
2022-06-22 22:01:33 GMT 48.842880 2.406006 15,000 279 353 256
2022-06-22 22:01:31 GMT 48.842422 2.410654 14,975 279 352 384
2022-06-22 22:01:28 GMT 48.841919 2.415513 14,975 279 351 512
2022-06-22 22:01:26 GMT 48.841324 2.421570 14,950 279 348 640
2022-06-22 22:01:24 GMT 48.840775 2.426922 14,925 279 347 832
2022-06-22 22:01:21 GMT 48.839905 2.435584 14,850 279 345 1152
2022-06-22 22:01:19 GMT 48.839584 2.438965 14,825 279 345 1216
2022-06-22 22:01:16 GMT 48.838898 2.445867 14,750 279 344 1344
2022-06-22 22:01:14 GMT 48.837708 2.457628 14,675 279 344 1472
2022-06-22 22:01:11 GMT 48.837708 2.457628 14,675 279 344 1600
2022-06-22 22:01:09 GMT 48.837112 2.463543 14,575 279 344 1664
2022-06-22 22:01:06 GMT 48.836472 2.469741 14,500 279 344 1792
2022-06-22 22:01:04 GMT 48.835968 2.474811 14,400 279 343 2048
2022-06-22 22:01:01 GMT 48.835114 2.483850 14,300 279 343 2304
2022-06-22 22:00:59 GMT 48.834648 2.488620 14,225 278 343 2496
2022-06-22 22:00:56 GMT 48.834087 2.494547 14,125 278 341 2496
2022-06-22 22:00:54 GMT 48.833038 2.506432 13,950 277 341 2496
2022-06-22 22:00:51 GMT 48.832626 2.512348 13,850 276 340 2432
2022-06-22 22:00:48 GMT 48.832626 2.512348 13,800 276 340 2368
2022-06-22 22:00:46 GMT 48.831894 2.525447 13,475 267 334 1600
2022-06-22 22:00:43 GMT 48.831894 2.525447 13,625 272 338 1984
2022-06-22 22:00:40 GMT 48.831806 2.532999 13,500 268 335 1728
2022-06-22 22:00:38 GMT 48.831848 2.536081 13,475 267 334 1600
2022-06-22 22:00:36 GMT 48.832043 2.542179 13,400 263 332 1536
2022-06-22 22:00:34 GMT 48.832352 2.546575 13,350 260 330 1472
2022-06-22 22:00:30 GMT 48.833496 2.556152 13,275 257 328 1344
2022-06-22 22:00:28 GMT 48.834091 2.559744 13,225 255 325 1216
2022-06-22 22:00:26 GMT 48.834961 2.564815 13,175 254 323 1152
2022-06-22 22:00:24 GMT 48.835785 2.569181 13,150 254 321 1088
2022-06-22 22:00:21 GMT 48.837486 2.577812 13,075 254 318 1088
2022-06-22 22:00:18 GMT 48.838371 2.582293 13,025 254 315 1024
2022-06-22 22:00:16 GMT 48.839813 2.589675 12,925 254 309 1152
2022-06-22 22:00:14 GMT 48.841599 2.598900 12,925 254 309 1152
2022-06-22 22:00:11 GMT 48.842468 2.603478 12,875 254 306 1728
2022-06-22 22:00:08 GMT 48.842468 2.603478 12,825 254 306 1984
2022-06-22 22:00:06 GMT 48.843262 2.607591 12,750 254 305 2304
2022-06-22 22:00:04 GMT 48.844025 2.611436 12,600 255 304 2560
2022-06-22 21:59:59 GMT 48.845772 2.620673 12,475 254 303 2560
2022-06-22 21:59:56 GMT 48.847229 2.628479 12,325 254 303 2496
2022-06-22 21:59:53 GMT 48.848057 2.632743 12,175 254 302 2496
2022-06-22 21:59:51 GMT 48.849152 2.638479 12,075 254 302 2432
2022-06-22 21:59:49 GMT 48.851032 2.648283 12,000 254 301 2432
2022-06-22 21:59:46 GMT 48.851032 2.648283 11,850 255 301 2432
2022-06-22 21:59:44 GMT 48.851761 2.652142 11,850 255 301 2432
2022-06-22 21:59:41 GMT 48.852989 2.658619 11,700 255 300 2432
2022-06-22 21:59:39 GMT 48.853779 2.662884 11,625 255 300 2432
2022-06-22 21:59:37 GMT 48.854370 2.665945 11,525 255 300 2496
2022-06-22 21:59:34 GMT 48.855515 2.672213 11,400 255 300 2496
2022-06-22 21:59:30 GMT 48.857071 2.680453 11,300 255 299 2560
2022-06-22 21:59:27 GMT 48.858204 2.686519 11,200 255 299 2560
2022-06-22 21:59:24 GMT 48.859451 2.693411 11,000 255 299 2560
2022-06-22 21:59:21 GMT 48.860458 2.698834 10,875 255 299 2496
2022-06-22 21:59:17 GMT 48.861969 2.707144 10,725 255 298 2432
2022-06-22 21:59:14 GMT 48.863091 2.713117 10,600 255 297 2368
2022-06-22 21:59:11 GMT 48.864162 2.718972 10,475 255 297 2304
2022-06-22 21:59:07 GMT 48.865700 2.727211 10,375 255 297 2304
2022-06-22 21:59:04 GMT 48.866814 2.732994 10,225 254 296 2304
2022-06-22 21:59:01 GMT 48.868423 2.741371 10,050 254 296 2304
2022-06-22 21:58:57 GMT 48.869514 2.747160 9,950 254 295 2304
2022-06-22 21:58:55 GMT 48.870255 2.750737 9,850 254 294 2304
2022-06-22 21:58:53 GMT 48.871983 2.759448 9,375 254 294 2304
2022-06-22 21:58:51 GMT 48.871983 2.759448 9,700 253 295 2368
2022-06-22 21:58:46 GMT 48.873566 2.767326 9,550 254 294 2432
2022-06-22 21:58:44 GMT 48.875244 2.775668 9,375 254 294 2432
2022-06-22 21:58:40 GMT 48.876034 2.779613 9,300 254 293 2432
2022-06-22 21:58:37 GMT 48.877197 2.785757 8,750 255 293 2432
2022-06-22 21:58:35 GMT 48.877941 2.789660 9,000 254 293 2432
2022-06-22 21:58:33 GMT 48.878731 2.793852 9,000 254 293 2432
2022-06-22 21:58:30 GMT 48.879776 2.799823 8,875 253 293 2368
2022-06-22 21:58:26 GMT 48.881199 2.806935 8,725 250 292 2304
2022-06-22 21:58:24 GMT 48.882431 2.812359 8,625 246 291 2176
2022-06-22 21:58:22 GMT 48.883209 2.814965 8,575 244 291 2112
2022-06-22 21:58:19 GMT 48.884972 2.820451 8,475 239 289 2112
2022-06-22 21:58:16 GMT 48.887203 2.826233 8,350 235 287 2112
2022-06-22 21:58:14 GMT 48.889160 2.830318 8,275 230 287 2112
2022-06-22 21:58:10 GMT 48.892319 2.836022 8,125 224 285 2112
2022-06-22 21:58:05 GMT 48.897079 2.842853 7,975 217 283 2048
2022-06-22 21:58:03 GMT 48.899261 2.845387 7,900 213 283 1920
2022-06-22 21:58:00 GMT 48.901611 2.847853 7,825 208 281 1856
2022-06-22 21:57:55 GMT 48.908386 2.853276 7,650 200 279 1728
2022-06-22 21:57:53 GMT 48.910526 2.854566 7,600 197 278 1792
2022-06-22 21:57:49 GMT 48.913925 2.856164 7,500 192 277 1920
2022-06-22 21:57:45 GMT 48.919418 2.857819 7,350 186 276 2240
2022-06-22 21:57:43 GMT 48.923080 2.858417 7,250 183 275 2560
2022-06-22 21:57:39 GMT 48.926514 2.858628 7,125 181 275 2624
2022-06-22 21:57:35 GMT 48.932362 2.858758 6,775 181 275 2816
2022-06-22 21:57:33 GMT 48.935669 2.858769 6,800 179 276 2816
2022-06-22 21:57:30 GMT 48.939102 2.858769 6,675 179 276 2752
2022-06-22 21:57:25 GMT 48.949310 2.858558 6,400 178 276 2496
2022-06-22 21:57:22 GMT 48.949310 2.858558 6,325 177 276 2240
2022-06-22 21:57:20 GMT 48.951599 2.858417 6,275 177 275 2112
2022-06-22 21:57:15 GMT 48.960983 2.857783 6,050 176 273 2176
2022-06-22 21:57:13 GMT 48.960983 2.857783 6,000 173 273 2560
2022-06-22 21:57:10 GMT 48.964249 2.857385 5,900 173 273 2560
2022-06-22 21:57:05 GMT 48.970963 2.856164 5,650 167 274 2816
2022-06-22 21:57:03 GMT 48.973465 2.855433 5,550 164 275 2816
2022-06-22 21:57:00 GMT 48.977238 2.853843 5,425 160 276 2816
2022-06-22 21:56:55 GMT 48.985012 2.849145 5,150 152 277 2560
2022-06-22 21:56:53 GMT 48.988678 2.846022 4,975 144 277 2368
2022-06-22 21:56:50 GMT 48.988678 2.846022 4,975 144 277 2368
2022-06-22 21:56:45 GMT 48.993805 2.840248 4,775 136 276 2304
2022-06-22 21:56:43 GMT 48.995811 2.837508 4,700 132 276 2176
2022-06-22 21:56:40 GMT 48.998428 2.833205 4,600 127 275 1600
2022-06-22 21:56:34 GMT 49.002823 2.823838 4,500 116 269 704
2022-06-22 21:56:29 GMT 49.005447 2.815608 4,450 108 264 448
2022-06-22 21:56:23 GMT 49.007355 2.804549 4,400 96 256 832
2022-06-22 21:56:14 GMT 49.007870 2.789154 4,200 86 252 1472
2022-06-22 21:56:12 GMT 49.007767 2.786091 4,175 85 250 1280
2022-06-22 21:56:03 GMT 49.006889 2.769422 4,025 85 239 768
2022-06-22 21:55:53 GMT 49.006165 2.752427 3,925 87 227 768
2022-06-22 21:55:50 GMT 49.006073 2.749962 3,875 87 224 896
2022-06-22 21:55:43 GMT 49.005215 2.724682 3,725 85 211 1728
2022-06-22 21:55:34 GMT 49.005215 2.724682 3,575 85 211 1984
2022-06-22 21:55:32 GMT 49.005066 2.721722 3,525 85 211 2112
2022-06-22 21:55:24 GMT 49.004379 2.710172 3,250 84 212 2048
2022-06-22 21:55:22 GMT 49.004150 2.706440 3,150 84 212 1984
2022-06-22 21:55:15 GMT 49.003445 2.695626 2,950 84 207 1152
2022-06-22 21:55:12 GMT 49.003212 2.691940 2,900 84 206 1088
2022-06-22 21:55:04 GMT 49.002468 2.679580 2,700 84 202 2048
2022-06-22 21:55:02 GMT 49.002319 2.677565 2,625 84 202 2048
2022-06-22 21:54:52 GMT 49.001446 2.663317 2,050 85 199 1600
2022-06-22 21:54:43 GMT 49.000763 2.649395 2,050 85 195 2112
2022-06-22 21:54:42 GMT 49.000698 2.648139 2,000 85 194 2112
2022-06-22 21:54:41 GMT 49.000465 2.643874 1,900 85 194 2304
2022-06-22 21:54:39 GMT 49.000465 2.643874 1,900 85 194 2304
2022-06-22 21:54:37 GMT 49.000328 2.641128 1,800 85 193 2432
2022-06-22 21:54:35 GMT 49.000233 2.638815 1,750 85 193 2432
2022-06-22 21:54:33 GMT 49.000095 2.636141 1,650 85 192 2368
2022-06-22 21:54:31 GMT 48.999954 2.633538 1,550 85 192 2304
2022-06-22 21:54:29 GMT 48.999710 2.627916 1,450 85 191 2304
2022-06-22 21:54:27 GMT 48.999710 2.627916 1,425 85 190 2240
2022-06-22 21:54:26 GMT 48.999619 2.626578 1,375 85 190 2240
2022-06-22 21:54:23 GMT 48.999435 2.623338 1,300 85 189 2304
2022-06-22 21:54:22 GMT 48.999390 2.622000 1,200 85 189 2368
2022-06-22 21:54:21 GMT 48.999298 2.620521 1,200 85 188 2432
2022-06-22 21:54:19 GMT 48.999165 2.617999 1,075 85 188 2688
2022-06-22 21:54:18 GMT 48.999069 2.616436 1,025 85 189 2816
2022-06-22 21:54:17 GMT 48.998932 2.613951 975 85 189 2816
2022-06-22 21:54:15 GMT 48.998840 2.612352 925 85 189 2752
2022-06-22 21:54:13 GMT 48.998699 2.609831 825 85 189 2432
2022-06-22 21:54:12 GMT 48.998650 2.608747 800 85 189 2304
2022-06-22 21:54:10 GMT 48.998512 2.605928 725 85 188 2176
2022-06-22 21:54:09 GMT 48.998466 2.604627 675 85 189 2240
2022-06-22 21:54:07 GMT 48.998291 2.601999 600 85 188 2176
2022-06-22 21:54:06 GMT 48.998245 2.600661 575 85 189 2304
2022-06-22 21:54:04 GMT 48.998108 2.597914 500 85 188 2112
2022-06-22 21:54:03 GMT 48.998016 2.596506 475 85 187 1792
2022-06-22 21:54:02 GMT 48.997952 2.595375 475 85 186 1472
2022-06-22 21:53:56 GMT 48.997559 2.587844 400 84 168 0
2022-06-22 21:53:53 GMT 48.997208 2.581137 425 84 136 0
2022-06-22 21:53:50 GMT 48.996368 2.565466 425 84 136 0
2022-06-22 21:53:32 GMT 48.996368 2.565466 0 84 80
2022-06-22 21:53:30 GMT 48.996300 2.564314 0 84 72
2022-06-22 21:53:26 GMT 48.996208 2.562455 0 84 53
2022-06-22 21:53:25 GMT 48.996162 2.561575 0 84 44
2022-06-22 21:53:21 GMT 48.996117 2.560712 0 84 30
2022-06-22 21:53:20 GMT 48.996094 2.560395 0 87 25
2022-06-22 21:53:18 GMT 48.996082 2.560043 0 87 18
2022-06-22 21:53:16 GMT 48.996067 2.559778 0 87 14
2022-06-22 21:53:15 GMT 48.996071 2.559691 0 87 12
2022-06-22 21:53:13 GMT 48.996059 2.559498 0 87 9
2022-06-22 21:53:10 GMT 48.996048 2.559321 0 87 7
2022-06-22 21:53:09 GMT 48.996044 2.559182 0 87 6
2022-06-22 21:53:07 GMT 48.996044 2.559182 0 87 6
2022-06-22 21:53:06 GMT 48.996044 2.559110 0 87 6
2022-06-22 21:53:04 GMT 48.996033 2.559056 0 87 6
2022-06-22 21:53:03 GMT 48.996037 2.559022 0 90 6
2022-06-22 21:53:01 GMT 48.996010 2.558929 0 95 6
2022-06-22 21:52:58 GMT 48.995998 2.558839 0 104 5
2022-06-22 21:52:57 GMT 48.995979 2.558705 0 118 6
2022-06-22 21:52:54 GMT 48.995975 2.558658 0 123 6
2022-06-22 21:52:52 GMT 48.995975 2.558622 0 126 6
2022-06-22 21:52:50 GMT 48.995979 2.558547 0 137 6
2022-06-22 21:52:47 GMT 48.995987 2.558441 0 149 7
2022-06-22 21:52:46 GMT 48.996021 2.558333 0 163 7
2022-06-22 21:52:44 GMT 48.996037 2.558318 0 165 7
2022-06-22 21:52:43 GMT 48.996094 2.558265 0 171 8
2022-06-22 21:52:41 GMT 48.996128 2.558247 0 174 9
2022-06-22 21:52:39 GMT 48.996220 2.558242 0 174 10
2022-06-22 21:52:37 GMT 48.996391 2.558212 0 174 9
2022-06-22 21:52:34 GMT 48.996391 2.558212 0 174 9
2022-06-22 21:52:32 GMT 48.996475 2.558206 0 174 9
2022-06-22 21:52:30 GMT 48.996555 2.558188 0 174 9
2022-06-22 21:52:29 GMT 48.996620 2.558195 0 174 8
2022-06-22 21:52:27 GMT 48.996700 2.558177 0 174 8
2022-06-22 21:52:25 GMT 48.996742 2.558170 0 174 8
2022-06-22 21:52:24 GMT 48.996822 2.558152 0 174 8
2022-06-22 21:52:22 GMT 48.996872 2.558159 0 174 7
2022-06-22 21:52:20 GMT 48.996918 2.558134 0 174 7
2022-06-22 21:52:19 GMT 48.996964 2.558134 0 177 7
2022-06-22 21:52:18 GMT 48.996998 2.558116 0 177 7
2022-06-22 21:52:17 GMT 48.997055 2.558107 0 180 7
2022-06-22 21:52:15 GMT 48.997089 2.558107 0 180 8
2022-06-22 21:52:12 GMT 48.997173 2.558098 0 182 8
2022-06-22 21:52:10 GMT 48.997250 2.558071 0 188 8
2022-06-22 21:52:08 GMT 48.997318 2.558071 0 191 8
2022-06-22 21:52:07 GMT 48.997353 2.558071 0 196 8
2022-06-22 21:52:04 GMT 48.997467 2.558054 0 208 8
2022-06-22 21:52:02 GMT 48.997536 2.558071 0 219 9
2022-06-22 21:51:59 GMT 48.997627 2.558134 0 230 10
2022-06-22 21:51:57 GMT 48.997707 2.558242 0 239 10
2022-06-22 21:51:56 GMT 48.997742 2.558315 0 241 10
2022-06-22 21:51:55 GMT 48.997776 2.558371 0 244 10
2022-06-22 21:51:53 GMT 48.997814 2.558495 0 247 10
2022-06-22 21:51:51 GMT 48.997860 2.558604 0 253 9
2022-06-22 21:51:50 GMT 48.997879 2.558670 0 253 10
2022-06-22 21:51:47 GMT 48.997929 2.558857 0 258 11
2022-06-22 21:51:41 GMT 48.997974 2.559218 0 267 11
2022-06-22 21:51:30 GMT 48.997990 2.559959 0 267 11
2022-06-22 21:51:19 GMT 48.998028 2.560906 0 264 15
2022-06-22 21:51:18 GMT 48.998035 2.561025 0 264 15
2022-06-22 21:51:16 GMT 48.998047 2.561224 0 264 15
2022-06-22 21:51:15 GMT 48.998047 2.561332 0 264 14
2022-06-22 21:51:14 GMT 48.998058 2.561621 0 264 14
2022-06-22 21:51:12 GMT 48.998058 2.561621 0 264 15
2022-06-22 21:51:10 GMT 48.998070 2.561838 0 264 15
2022-06-22 21:51:09 GMT 48.998081 2.561911 0 264 15
2022-06-22 21:51:06 GMT 48.998108 2.562315 0 264 17
2022-06-22 21:51:04 GMT 48.998116 2.562471 0 264 18
2022-06-22 21:51:02 GMT 48.998127 2.562706 0 267 19
2022-06-22 21:51:01 GMT 48.998127 2.562832 0 267 19
2022-06-22 21:50:58 GMT 48.998138 2.563049 0 267 20
2022-06-22 21:50:57 GMT 48.998154 2.563265 0 264 20
2022-06-22 21:50:55 GMT 48.998173 2.563555 0 264 19
2022-06-22 21:50:53 GMT 48.998196 2.563952 0 264 19
2022-06-22 21:50:51 GMT 48.998211 2.564339 0 264 18
2022-06-22 21:50:49 GMT 48.998219 2.564458 0 264 18
2022-06-22 21:50:48 GMT 48.998234 2.564568 0 264 18
2022-06-22 21:50:46 GMT 48.998245 2.564802 0 267 18
2022-06-22 21:50:44 GMT 48.998245 2.565026 0 267 18
2022-06-22 21:50:43 GMT 48.998257 2.565220 0 267 18
2022-06-22 21:50:41 GMT 48.998268 2.565416 0 267 19
2022-06-22 21:50:38 GMT 48.998280 2.565723 0 264 18
2022-06-22 21:50:37 GMT 48.998302 2.565958 0 264 18
2022-06-22 21:50:35 GMT 48.998302 2.566085 0 264 18
2022-06-22 21:50:34 GMT 48.998314 2.566338 0 264 17
2022-06-22 21:50:31 GMT 48.998337 2.566663 0 264 18
2022-06-22 21:50:29 GMT 48.998348 2.566916 0 264 19
2022-06-22 21:50:26 GMT 48.998371 2.567332 0 264 20
2022-06-22 21:50:23 GMT 48.998394 2.567892 0 264 20
2022-06-22 21:50:21 GMT 48.998394 2.567892 0 264 20
2022-06-22 21:50:20 GMT 48.998417 2.568160 0 264 19
2022-06-22 21:50:17 GMT 48.998428 2.568379 0 264 19
2022-06-22 21:50:16 GMT 48.998440 2.568565 0 264 19
2022-06-22 21:50:15 GMT 48.998444 2.568687 0 264 19
2022-06-22 21:50:13 GMT 48.998466 2.568976 0 264 19
2022-06-22 21:50:10 GMT 48.998474 2.569322 0 267 19
2022-06-22 21:50:08 GMT 48.998486 2.569533 0 264 19
2022-06-22 21:50:05 GMT 48.998512 2.569988 0 264 19
2022-06-22 21:50:04 GMT 48.998524 2.570114 0 264 19
2022-06-22 21:50:01 GMT 48.998558 2.570801 0 264 18
2022-06-22 21:49:59 GMT 48.998558 2.570801 0 264 18
2022-06-22 21:49:58 GMT 48.998569 2.571162 0 264 18
2022-06-22 21:49:56 GMT 48.998577 2.571276 0 264 18
2022-06-22 21:49:53 GMT 48.998589 2.571470 0 264 18
2022-06-22 21:49:52 GMT 48.998600 2.571699 0 264 18
2022-06-22 21:49:51 GMT 48.998611 2.571769 0 264 18
2022-06-22 21:49:50 GMT 48.998611 2.571892 0 264 18
2022-06-22 21:49:48 GMT 48.998634 2.572156 0 264 18
2022-06-22 21:49:46 GMT 48.998646 2.572456 0 264 18
2022-06-22 21:49:45 GMT 48.998650 2.572517 0 264 18
2022-06-22 21:49:41 GMT 48.998680 2.573002 0 264 18
2022-06-22 21:49:39 GMT 48.998714 2.573635 0 264 17
2022-06-22 21:49:36 GMT 48.998714 2.573635 0 264 17
2022-06-22 21:49:33 GMT 48.998722 2.573945 0 264 17
2022-06-22 21:49:29 GMT 48.998749 2.574357 0 264 17
2022-06-22 21:49:27 GMT 48.998768 2.574704 0 264 17
2022-06-22 21:49:25 GMT 48.998779 2.574939 0 264 17
2022-06-22 21:49:24 GMT 48.998791 2.575047 0 264 17
2022-06-22 21:49:20 GMT 48.998802 2.575463 0 264 18
2022-06-22 21:49:17 GMT 48.998829 2.575748 0 264 18
2022-06-22 21:49:14 GMT 48.998837 2.576077 0 267 18
2022-06-22 21:49:10 GMT 48.998871 2.576619 0 264 18
2022-06-22 21:48:55 GMT 48.998955 2.578354 0 264 14
2022-06-22 21:48:46 GMT 48.999001 2.579113 0 264 11
2022-06-22 21:48:29 GMT 48.999058 2.580269 0 264 10
2022-06-22 21:48:27 GMT 48.999069 2.580431 0 264 10
2022-06-22 21:48:23 GMT 48.999092 2.580678 0 264 11
2022-06-22 21:47:55 GMT 48.999222 2.582673 0 210 8
2022-06-22 21:47:38 GMT 48.999767 2.582932 0 194 11
2022-06-22 21:47:01 GMT 49.000896 2.582564 0 84 11
2022-06-22 21:46:37 GMT 49.000797 2.580625 0 84 10
2022-06-22 21:46:32 GMT 49.000782 2.580251 0 87 11
2022-06-22 21:46:25 GMT 49.000759 2.579781 0 84 10
2022-06-22 21:46:11 GMT 49.000698 2.578878 0 87 9
2022-06-22 21:46:03 GMT 49.000683 2.578424 0 84 9
2022-06-22 21:45:55 GMT 49.000660 2.577949 0 84 7
2022-06-22 21:45:43 GMT 49.000626 2.577456 0 84 5
2022-06-22 21:45:35 GMT 49.000618 2.577197 0 84 4
2022-06-22 21:45:24 GMT 49.000603 2.576998 0 84 0
2022-06-22 21:44:43 GMT 49.000591 2.576928 0 84 0
2022-06-22 21:43:53 GMT 49.000595 2.576926 0 84 0
2022-06-22 21:42:42 GMT 49.000591 2.576928 0 84 0
2022-06-22 21:42:35 GMT 49.000595 2.576926 0 84 0
2022-06-22 21:42:23 GMT 49.000591 2.576928 0 84 0

Making use of Plane Finder data

You are free to use the raw flight data, aircraft information and images provided in this report for your own purposes provided the data is correctly attributed to Plane Finder. We ask that you please credit Plane Finder and link to planefinder.net in close proximity to the content.

Optionally one of the following logos (no smaller then 150x24px) can be used and must link to planefinder.net

Embedding the Plane Finder map

You are welcome to embed the Plane Finder playback map on your website to offer visitors a more interactive experience. We suggest using the following HTML code:

<iframe src="//planefinder.net/data/report/AF454-F-GSQH-7700-squawk-2022-06-22/map" width="800" height="600" seamless="seamless"></iframe>

Where our data comes from

Plane Finder has a global network of data feeds and antenna radars that receive data broadcast directly from aircraft. The primary technologies used are ADS-B and MLAT. We also show feeds from the FAA and a FLARM glider feed.

Click here to find out more about the Plane Finder network.

How we collect our data